<?xml version="1.0" encoding="UTF-8" standalone="no" ?>
<gpx xmlns="http://www.topografix.com/GPX/1/1" xmlns:xsi="http://www.w3.org/2001/XMLSchema-instance" xsi:schemaLocation="http://www.topografix.com/GPX/1/1 http://www.topografix.com/GPX/1/1/gpx.xsd" version="1.1" creator="VisuGPX - https://www.visugpx.com">
  <metadata>
    <name>Pont de Montvert le Vantalon Saint Privat</name>
    <desc><![CDATA[File with points/tracks from Locus Map/3.17.2]]></desc>
  </metadata>
  <trk>
    <name><![CDATA[F48220 Pont de Montvert le Vantalon Saint Privat LT]]></name>
    <trkseg>
      <trkpt lat="44.33965" lon="3.74874">
        <ele>1005.91</ele>
        <time>2016-06-03T07:12:41Z</time>
      </trkpt>
      <trkpt lat="44.33963" lon="3.74868">
        <ele>1004.99</ele>
        <time>2016-06-03T07:12:54Z</time>
      </trkpt>
      <trkpt lat="44.33957" lon="3.74873">
        <ele>1005.08</ele>
        <time>2016-06-03T07:13:36Z</time>
      </trkpt>
      <trkpt lat="44.33943" lon="3.74872">
        <ele>1004.23</ele>
        <time>2016-06-03T07:13:46Z</time>
      </trkpt>
      <trkpt lat="44.33933" lon="3.74854">
        <ele>1003.06</ele>
        <time>2016-06-03T07:13:57Z</time>
      </trkpt>
      <trkpt lat="44.33932" lon="3.74838">
        <ele>1002.36</ele>
        <time>2016-06-03T07:14:07Z</time>
      </trkpt>
      <trkpt lat="44.33934" lon="3.7482">
        <ele>1001.61</ele>
        <time>2016-06-03T07:14:18Z</time>
      </trkpt>
      <trkpt lat="44.3393" lon="3.74815">
        <ele>1001.92</ele>
        <time>2016-06-03T07:14:37Z</time>
      </trkpt>
      <trkpt lat="44.33932" lon="3.74791">
        <ele>1001.52</ele>
        <time>2016-06-03T07:14:49Z</time>
      </trkpt>
      <trkpt lat="44.33929" lon="3.74805">
        <ele>1001.95</ele>
        <time>2016-06-03T07:15:00Z</time>
      </trkpt>
      <trkpt lat="44.33927" lon="3.74817">
        <ele>1002.4</ele>
        <time>2016-06-03T07:15:11Z</time>
      </trkpt>
      <trkpt lat="44.33924" lon="3.74827">
        <ele>1002.91</ele>
        <time>2016-06-03T07:15:21Z</time>
      </trkpt>
      <trkpt lat="44.33924" lon="3.74848">
        <ele>1003.43</ele>
        <time>2016-06-03T07:15:32Z</time>
      </trkpt>
      <trkpt lat="44.33925" lon="3.74857">
        <ele>1003.8</ele>
        <time>2016-06-03T07:15:43Z</time>
      </trkpt>
      <trkpt lat="44.33927" lon="3.74865">
        <ele>1004</ele>
        <time>2016-06-03T07:15:53Z</time>
      </trkpt>
      <trkpt lat="44.33928" lon="3.74876">
        <ele>1004.63</ele>
        <time>2016-06-03T07:16:04Z</time>
      </trkpt>
      <trkpt lat="44.3392" lon="3.74891">
        <ele>1005.94</ele>
        <time>2016-06-03T07:16:15Z</time>
      </trkpt>
      <trkpt lat="44.33915" lon="3.74906">
        <ele>1006.85</ele>
        <time>2016-06-03T07:16:25Z</time>
      </trkpt>
      <trkpt lat="44.3391" lon="3.74918">
        <ele>1007.57</ele>
        <time>2016-06-03T07:16:37Z</time>
      </trkpt>
      <trkpt lat="44.33907" lon="3.74929">
        <ele>1007.91</ele>
        <time>2016-06-03T07:16:48Z</time>
      </trkpt>
      <trkpt lat="44.33894" lon="3.74934">
        <ele>1009.81</ele>
        <time>2016-06-03T07:16:59Z</time>
      </trkpt>
      <trkpt lat="44.3389" lon="3.74941">
        <ele>1010.36</ele>
        <time>2016-06-03T07:17:11Z</time>
      </trkpt>
      <trkpt lat="44.33879" lon="3.74934">
        <ele>1013.38</ele>
        <time>2016-06-03T07:17:21Z</time>
      </trkpt>
      <trkpt lat="44.33867" lon="3.74943">
        <ele>1015.6</ele>
        <time>2016-06-03T07:17:32Z</time>
      </trkpt>
      <trkpt lat="44.33858" lon="3.74951">
        <ele>1016.95</ele>
        <time>2016-06-03T07:17:44Z</time>
      </trkpt>
      <trkpt lat="44.3385" lon="3.74953">
        <ele>1018.72</ele>
        <time>2016-06-03T07:17:54Z</time>
      </trkpt>
      <trkpt lat="44.33845" lon="3.74956">
        <ele>1019.29</ele>
        <time>2016-06-03T07:18:06Z</time>
      </trkpt>
      <trkpt lat="44.33832" lon="3.74959">
        <ele>1021.39</ele>
        <time>2016-06-03T07:18:17Z</time>
      </trkpt>
      <trkpt lat="44.33824" lon="3.7495">
        <ele>1024.43</ele>
        <time>2016-06-03T07:18:30Z</time>
      </trkpt>
      <trkpt lat="44.33812" lon="3.74948">
        <ele>1026.94</ele>
        <time>2016-06-03T07:18:41Z</time>
      </trkpt>
      <trkpt lat="44.33802" lon="3.74952">
        <ele>1028.15</ele>
        <time>2016-06-03T07:18:52Z</time>
      </trkpt>
      <trkpt lat="44.33788" lon="3.74972">
        <ele>1027.55</ele>
        <time>2016-06-03T07:19:02Z</time>
      </trkpt>
      <trkpt lat="44.33783" lon="3.74976">
        <ele>1027.93</ele>
        <time>2016-06-03T07:19:14Z</time>
      </trkpt>
      <trkpt lat="44.33777" lon="3.74977">
        <ele>1028.94</ele>
        <time>2016-06-03T07:19:29Z</time>
      </trkpt>
      <trkpt lat="44.33771" lon="3.74972">
        <ele>1030.76</ele>
        <time>2016-06-03T07:19:40Z</time>
      </trkpt>
      <trkpt lat="44.33756" lon="3.74975">
        <ele>1033.32</ele>
        <time>2016-06-03T07:19:51Z</time>
      </trkpt>
      <trkpt lat="44.33749" lon="3.7498">
        <ele>1033.96</ele>
        <time>2016-06-03T07:20:03Z</time>
      </trkpt>
      <trkpt lat="44.33739" lon="3.74982">
        <ele>1035.73</ele>
        <time>2016-06-03T07:20:16Z</time>
      </trkpt>
      <trkpt lat="44.3373" lon="3.74986">
        <ele>1037.19</ele>
        <time>2016-06-03T07:20:27Z</time>
      </trkpt>
      <trkpt lat="44.33722" lon="3.74984">
        <ele>1039.16</ele>
        <time>2016-06-03T07:20:38Z</time>
      </trkpt>
      <trkpt lat="44.33712" lon="3.74986">
        <ele>1041.14</ele>
        <time>2016-06-03T07:20:49Z</time>
      </trkpt>
      <trkpt lat="44.33704" lon="3.7499">
        <ele>1042.47</ele>
        <time>2016-06-03T07:21:00Z</time>
      </trkpt>
      <trkpt lat="44.33693" lon="3.7499">
        <ele>1044.9</ele>
        <time>2016-06-03T07:21:11Z</time>
      </trkpt>
      <trkpt lat="44.33689" lon="3.74995">
        <ele>1045.53</ele>
        <time>2016-06-03T07:21:21Z</time>
      </trkpt>
      <trkpt lat="44.33678" lon="3.74997">
        <ele>1047.74</ele>
        <time>2016-06-03T07:21:31Z</time>
      </trkpt>
      <trkpt lat="44.33674" lon="3.75006">
        <ele>1048.44</ele>
        <time>2016-06-03T07:21:44Z</time>
      </trkpt>
      <trkpt lat="44.33662" lon="3.75002">
        <ele>1050.9</ele>
        <time>2016-06-03T07:21:55Z</time>
      </trkpt>
      <trkpt lat="44.33653" lon="3.75019">
        <ele>1052.46</ele>
        <time>2016-06-03T07:22:45Z</time>
      </trkpt>
      <trkpt lat="44.33634" lon="3.75025">
        <ele>1056.44</ele>
        <time>2016-06-03T07:22:56Z</time>
      </trkpt>
      <trkpt lat="44.33619" lon="3.75036">
        <ele>1059.46</ele>
        <time>2016-06-03T07:23:06Z</time>
      </trkpt>
      <trkpt lat="44.33612" lon="3.75043">
        <ele>1060.78</ele>
        <time>2016-06-03T07:23:17Z</time>
      </trkpt>
      <trkpt lat="44.33606" lon="3.75052">
        <ele>1061.85</ele>
        <time>2016-06-03T07:23:27Z</time>
      </trkpt>
      <trkpt lat="44.33589" lon="3.75062">
        <ele>1064.86</ele>
        <time>2016-06-03T07:24:16Z</time>
      </trkpt>
      <trkpt lat="44.33576" lon="3.75079">
        <ele>1067.01</ele>
        <time>2016-06-03T07:24:27Z</time>
      </trkpt>
      <trkpt lat="44.33561" lon="3.7509">
        <ele>1069.59</ele>
        <time>2016-06-03T07:24:38Z</time>
      </trkpt>
      <trkpt lat="44.33555" lon="3.75091">
        <ele>1070.52</ele>
        <time>2016-06-03T07:24:48Z</time>
      </trkpt>
      <trkpt lat="44.33556" lon="3.75103">
        <ele>1070.64</ele>
        <time>2016-06-03T07:25:01Z</time>
      </trkpt>
      <trkpt lat="44.33546" lon="3.75099">
        <ele>1071.99</ele>
        <time>2016-06-03T07:25:11Z</time>
      </trkpt>
      <trkpt lat="44.33535" lon="3.75101">
        <ele>1073.48</ele>
        <time>2016-06-03T07:25:25Z</time>
      </trkpt>
      <trkpt lat="44.33527" lon="3.75109">
        <ele>1074.63</ele>
        <time>2016-06-03T07:25:36Z</time>
      </trkpt>
      <trkpt lat="44.33508" lon="3.75119">
        <ele>1076.61</ele>
        <time>2016-06-03T07:25:47Z</time>
      </trkpt>
      <trkpt lat="44.33497" lon="3.75127">
        <ele>1077.38</ele>
        <time>2016-06-03T07:25:58Z</time>
      </trkpt>
      <trkpt lat="44.33492" lon="3.75127">
        <ele>1077.54</ele>
        <time>2016-06-03T07:26:09Z</time>
      </trkpt>
      <trkpt lat="44.3348" lon="3.75131">
        <ele>1077.79</ele>
        <time>2016-06-03T07:26:19Z</time>
      </trkpt>
      <trkpt lat="44.33469" lon="3.75132">
        <ele>1077.7</ele>
        <time>2016-06-03T07:26:30Z</time>
      </trkpt>
      <trkpt lat="44.33464" lon="3.75135">
        <ele>1077.72</ele>
        <time>2016-06-03T07:26:41Z</time>
      </trkpt>
      <trkpt lat="44.33451" lon="3.75149">
        <ele>1077.92</ele>
        <time>2016-06-03T07:26:52Z</time>
      </trkpt>
      <trkpt lat="44.33446" lon="3.75159">
        <ele>1078.38</ele>
        <time>2016-06-03T07:27:02Z</time>
      </trkpt>
      <trkpt lat="44.33442" lon="3.75166">
        <ele>1078.7</ele>
        <time>2016-06-03T07:27:14Z</time>
      </trkpt>
      <trkpt lat="44.33432" lon="3.7517">
        <ele>1078.83</ele>
        <time>2016-06-03T07:27:24Z</time>
      </trkpt>
      <trkpt lat="44.33424" lon="3.75177">
        <ele>1079.28</ele>
        <time>2016-06-03T07:27:34Z</time>
      </trkpt>
      <trkpt lat="44.3342" lon="3.7519">
        <ele>1080.7</ele>
        <time>2016-06-03T07:27:45Z</time>
      </trkpt>
      <trkpt lat="44.33419" lon="3.75202">
        <ele>1082.07</ele>
        <time>2016-06-03T07:27:55Z</time>
      </trkpt>
      <trkpt lat="44.33406" lon="3.75214">
        <ele>1083.12</ele>
        <time>2016-06-03T07:28:05Z</time>
      </trkpt>
      <trkpt lat="44.33396" lon="3.75212">
        <ele>1082.14</ele>
        <time>2016-06-03T07:28:15Z</time>
      </trkpt>
      <trkpt lat="44.33394" lon="3.75218">
        <ele>1082.62</ele>
        <time>2016-06-03T07:28:30Z</time>
      </trkpt>
      <trkpt lat="44.33385" lon="3.75218">
        <ele>1081.76</ele>
        <time>2016-06-03T07:28:41Z</time>
      </trkpt>
      <trkpt lat="44.33375" lon="3.75246">
        <ele>1083.17</ele>
        <time>2016-06-03T07:28:52Z</time>
      </trkpt>
      <trkpt lat="44.33371" lon="3.75264">
        <ele>1083.65</ele>
        <time>2016-06-03T07:29:03Z</time>
      </trkpt>
      <trkpt lat="44.33361" lon="3.75268">
        <ele>1082.96</ele>
        <time>2016-06-03T07:29:13Z</time>
      </trkpt>
      <trkpt lat="44.33357" lon="3.75287">
        <ele>1083.6</ele>
        <time>2016-06-03T07:29:24Z</time>
      </trkpt>
      <trkpt lat="44.33347" lon="3.75292">
        <ele>1083.52</ele>
        <time>2016-06-03T07:29:34Z</time>
      </trkpt>
      <trkpt lat="44.3334" lon="3.753">
        <ele>1083.93</ele>
        <time>2016-06-03T07:29:44Z</time>
      </trkpt>
      <trkpt lat="44.33334" lon="3.75304">
        <ele>1084.17</ele>
        <time>2016-06-03T07:30:18Z</time>
      </trkpt>
      <trkpt lat="44.33317" lon="3.75323">
        <ele>1085.2</ele>
        <time>2016-06-03T07:30:29Z</time>
      </trkpt>
      <trkpt lat="44.33311" lon="3.75327">
        <ele>1085.36</ele>
        <time>2016-06-03T07:30:39Z</time>
      </trkpt>
      <trkpt lat="44.33302" lon="3.75335">
        <ele>1085.5</ele>
        <time>2016-06-03T07:30:49Z</time>
      </trkpt>
      <trkpt lat="44.33291" lon="3.75342">
        <ele>1085.5</ele>
        <time>2016-06-03T07:31:00Z</time>
      </trkpt>
      <trkpt lat="44.33281" lon="3.75343">
        <ele>1085.54</ele>
        <time>2016-06-03T07:31:10Z</time>
      </trkpt>
      <trkpt lat="44.33271" lon="3.75356">
        <ele>1085.41</ele>
        <time>2016-06-03T07:31:20Z</time>
      </trkpt>
      <trkpt lat="44.33259" lon="3.75358">
        <ele>1085.7</ele>
        <time>2016-06-03T07:31:31Z</time>
      </trkpt>
      <trkpt lat="44.33244" lon="3.75359">
        <ele>1086.37</ele>
        <time>2016-06-03T07:31:41Z</time>
      </trkpt>
      <trkpt lat="44.33229" lon="3.7536">
        <ele>1087.21</ele>
        <time>2016-06-03T07:31:52Z</time>
      </trkpt>
      <trkpt lat="44.33222" lon="3.75357">
        <ele>1087.6</ele>
        <time>2016-06-03T07:32:03Z</time>
      </trkpt>
      <trkpt lat="44.33216" lon="3.75369">
        <ele>1088.16</ele>
        <time>2016-06-03T07:32:14Z</time>
      </trkpt>
      <trkpt lat="44.33212" lon="3.75392">
        <ele>1088.47</ele>
        <time>2016-06-03T07:32:25Z</time>
      </trkpt>
      <trkpt lat="44.33197" lon="3.75386">
        <ele>1090.08</ele>
        <time>2016-06-03T07:32:36Z</time>
      </trkpt>
      <trkpt lat="44.33187" lon="3.75376">
        <ele>1091.06</ele>
        <time>2016-06-03T07:32:46Z</time>
      </trkpt>
      <trkpt lat="44.33175" lon="3.7538">
        <ele>1092.64</ele>
        <time>2016-06-03T07:32:56Z</time>
      </trkpt>
      <trkpt lat="44.33166" lon="3.75384">
        <ele>1094.2</ele>
        <time>2016-06-03T07:33:06Z</time>
      </trkpt>
      <trkpt lat="44.3316" lon="3.75395">
        <ele>1095.69</ele>
        <time>2016-06-03T07:33:16Z</time>
      </trkpt>
      <trkpt lat="44.33146" lon="3.75408">
        <ele>1098.98</ele>
        <time>2016-06-03T07:33:27Z</time>
      </trkpt>
      <trkpt lat="44.33143" lon="3.75413">
        <ele>1099.95</ele>
        <time>2016-06-03T07:33:37Z</time>
      </trkpt>
      <trkpt lat="44.33135" lon="3.7542">
        <ele>1102.04</ele>
        <time>2016-06-03T07:33:48Z</time>
      </trkpt>
      <trkpt lat="44.33125" lon="3.7542">
        <ele>1104.51</ele>
        <time>2016-06-03T07:33:59Z</time>
      </trkpt>
      <trkpt lat="44.33119" lon="3.75428">
        <ele>1106.01</ele>
        <time>2016-06-03T07:34:11Z</time>
      </trkpt>
      <trkpt lat="44.33108" lon="3.75432">
        <ele>1108.88</ele>
        <time>2016-06-03T07:34:22Z</time>
      </trkpt>
      <trkpt lat="44.33103" lon="3.75433">
        <ele>1110.07</ele>
        <time>2016-06-03T07:34:38Z</time>
      </trkpt>
      <trkpt lat="44.33086" lon="3.75437">
        <ele>1113.93</ele>
        <time>2016-06-03T07:34:48Z</time>
      </trkpt>
      <trkpt lat="44.33078" lon="3.75437">
        <ele>1115.39</ele>
        <time>2016-06-03T07:34:59Z</time>
      </trkpt>
      <trkpt lat="44.33072" lon="3.75432">
        <ele>1116.48</ele>
        <time>2016-06-03T07:35:10Z</time>
      </trkpt>
      <trkpt lat="44.33067" lon="3.75434">
        <ele>1117.31</ele>
        <time>2016-06-03T07:35:43Z</time>
      </trkpt>
      <trkpt lat="44.33052" lon="3.75437">
        <ele>1119.56</ele>
        <time>2016-06-03T07:35:54Z</time>
      </trkpt>
      <trkpt lat="44.33043" lon="3.75438">
        <ele>1120.74</ele>
        <time>2016-06-03T07:36:05Z</time>
      </trkpt>
      <trkpt lat="44.33035" lon="3.75425">
        <ele>1121.92</ele>
        <time>2016-06-03T07:36:16Z</time>
      </trkpt>
      <trkpt lat="44.3303" lon="3.75426">
        <ele>1122.67</ele>
        <time>2016-06-03T07:36:28Z</time>
      </trkpt>
      <trkpt lat="44.33007" lon="3.75426">
        <ele>1126.32</ele>
        <time>2016-06-03T07:37:30Z</time>
      </trkpt>
      <trkpt lat="44.32994" lon="3.75411">
        <ele>1129.41</ele>
        <time>2016-06-03T07:37:41Z</time>
      </trkpt>
      <trkpt lat="44.32988" lon="3.75408">
        <ele>1130.96</ele>
        <time>2016-06-03T07:38:10Z</time>
      </trkpt>
      <trkpt lat="44.32976" lon="3.75396">
        <ele>1134.4</ele>
        <time>2016-06-03T07:38:21Z</time>
      </trkpt>
      <trkpt lat="44.32958" lon="3.75389">
        <ele>1139.5</ele>
        <time>2016-06-03T07:38:32Z</time>
      </trkpt>
      <trkpt lat="44.32954" lon="3.75377">
        <ele>1141.42</ele>
        <time>2016-06-03T07:38:42Z</time>
      </trkpt>
      <trkpt lat="44.32946" lon="3.75373">
        <ele>1143.86</ele>
        <time>2016-06-03T07:38:55Z</time>
      </trkpt>
      <trkpt lat="44.32944" lon="3.75355">
        <ele>1144.99</ele>
        <time>2016-06-03T07:39:06Z</time>
      </trkpt>
      <trkpt lat="44.32939" lon="3.75343">
        <ele>1146.56</ele>
        <time>2016-06-03T07:39:17Z</time>
      </trkpt>
      <trkpt lat="44.32934" lon="3.75334">
        <ele>1147.85</ele>
        <time>2016-06-03T07:39:27Z</time>
      </trkpt>
      <trkpt lat="44.32932" lon="3.7532">
        <ele>1148.04</ele>
        <time>2016-06-03T07:39:37Z</time>
      </trkpt>
      <trkpt lat="44.32928" lon="3.75307">
        <ele>1148.12</ele>
        <time>2016-06-03T07:39:52Z</time>
      </trkpt>
      <trkpt lat="44.32915" lon="3.75302">
        <ele>1150.4</ele>
        <time>2016-06-03T07:40:03Z</time>
      </trkpt>
      <trkpt lat="44.32905" lon="3.75303">
        <ele>1152.51</ele>
        <time>2016-06-03T07:40:13Z</time>
      </trkpt>
      <trkpt lat="44.32895" lon="3.75285">
        <ele>1152.07</ele>
        <time>2016-06-03T07:40:24Z</time>
      </trkpt>
      <trkpt lat="44.32898" lon="3.75273">
        <ele>1149.91</ele>
        <time>2016-06-03T07:40:34Z</time>
      </trkpt>
      <trkpt lat="44.32893" lon="3.75262">
        <ele>1148.93</ele>
        <time>2016-06-03T07:40:45Z</time>
      </trkpt>
      <trkpt lat="44.32885" lon="3.75255">
        <ele>1148.85</ele>
        <time>2016-06-03T07:40:56Z</time>
      </trkpt>
      <trkpt lat="44.32875" lon="3.75243">
        <ele>1147.61</ele>
        <time>2016-06-03T07:41:07Z</time>
      </trkpt>
      <trkpt lat="44.32867" lon="3.75245">
        <ele>1148.69</ele>
        <time>2016-06-03T07:41:17Z</time>
      </trkpt>
      <trkpt lat="44.32854" lon="3.75244">
        <ele>1149.6</ele>
        <time>2016-06-03T07:41:28Z</time>
      </trkpt>
      <trkpt lat="44.32844" lon="3.75244">
        <ele>1150.77</ele>
        <time>2016-06-03T07:41:39Z</time>
      </trkpt>
      <trkpt lat="44.32836" lon="3.75247">
        <ele>1152.02</ele>
        <time>2016-06-03T07:41:49Z</time>
      </trkpt>
      <trkpt lat="44.32824" lon="3.7524">
        <ele>1151.62</ele>
        <time>2016-06-03T07:41:59Z</time>
      </trkpt>
      <trkpt lat="44.32808" lon="3.75238">
        <ele>1152.85</ele>
        <time>2016-06-03T07:42:09Z</time>
      </trkpt>
      <trkpt lat="44.32801" lon="3.75246">
        <ele>1155.14</ele>
        <time>2016-06-03T07:42:19Z</time>
      </trkpt>
      <trkpt lat="44.32794" lon="3.75234">
        <ele>1153.19</ele>
        <time>2016-06-03T07:42:29Z</time>
      </trkpt>
      <trkpt lat="44.3278" lon="3.75229">
        <ele>1153.61</ele>
        <time>2016-06-03T07:42:39Z</time>
      </trkpt>
      <trkpt lat="44.32768" lon="3.75221">
        <ele>1153.72</ele>
        <time>2016-06-03T07:43:32Z</time>
      </trkpt>
      <trkpt lat="44.32722" lon="3.75205">
        <ele>1161.34</ele>
        <time>2016-06-03T07:43:43Z</time>
      </trkpt>
      <trkpt lat="44.32718" lon="3.75189">
        <ele>1160.43</ele>
        <time>2016-06-03T07:43:53Z</time>
      </trkpt>
      <trkpt lat="44.32711" lon="3.7517">
        <ele>1159.89</ele>
        <time>2016-06-03T07:44:04Z</time>
      </trkpt>
      <trkpt lat="44.32708" lon="3.75157">
        <ele>1159.24</ele>
        <time>2016-06-03T07:44:14Z</time>
      </trkpt>
      <trkpt lat="44.32705" lon="3.75152">
        <ele>1159.76</ele>
        <time>2016-06-03T07:44:24Z</time>
      </trkpt>
      <trkpt lat="44.32696" lon="3.75141">
        <ele>1161.44</ele>
        <time>2016-06-03T07:44:35Z</time>
      </trkpt>
      <trkpt lat="44.32696" lon="3.75126">
        <ele>1159.48</ele>
        <time>2016-06-03T07:44:45Z</time>
      </trkpt>
      <trkpt lat="44.32693" lon="3.75109">
        <ele>1158.57</ele>
        <time>2016-06-03T07:44:56Z</time>
      </trkpt>
      <trkpt lat="44.32685" lon="3.75099">
        <ele>1160.65</ele>
        <time>2016-06-03T07:45:06Z</time>
      </trkpt>
      <trkpt lat="44.32685" lon="3.75087">
        <ele>1159.4</ele>
        <time>2016-06-03T07:45:16Z</time>
      </trkpt>
      <trkpt lat="44.32687" lon="3.75069">
        <ele>1156.6</ele>
        <time>2016-06-03T07:45:27Z</time>
      </trkpt>
      <trkpt lat="44.32676" lon="3.75066">
        <ele>1159.91</ele>
        <time>2016-06-03T07:45:37Z</time>
      </trkpt>
      <trkpt lat="44.32668" lon="3.75057">
        <ele>1161.08</ele>
        <time>2016-06-03T07:45:47Z</time>
      </trkpt>
      <trkpt lat="44.32662" lon="3.75053">
        <ele>1162.2</ele>
        <time>2016-06-03T07:45:58Z</time>
      </trkpt>
      <trkpt lat="44.32652" lon="3.75046">
        <ele>1163.93</ele>
        <time>2016-06-03T07:46:09Z</time>
      </trkpt>
      <trkpt lat="44.32633" lon="3.75043">
        <ele>1168.25</ele>
        <time>2016-06-03T07:46:20Z</time>
      </trkpt>
      <trkpt lat="44.32626" lon="3.7503">
        <ele>1168.03</ele>
        <time>2016-06-03T07:46:31Z</time>
      </trkpt>
      <trkpt lat="44.32614" lon="3.75024">
        <ele>1170.22</ele>
        <time>2016-06-03T07:46:47Z</time>
      </trkpt>
      <trkpt lat="44.32611" lon="3.75013">
        <ele>1169.5</ele>
        <time>2016-06-03T07:47:00Z</time>
      </trkpt>
      <trkpt lat="44.32595" lon="3.75">
        <ele>1172.01</ele>
        <time>2016-06-03T07:47:10Z</time>
      </trkpt>
      <trkpt lat="44.32586" lon="3.74997">
        <ele>1173.84</ele>
        <time>2016-06-03T07:47:21Z</time>
      </trkpt>
      <trkpt lat="44.32576" lon="3.74982">
        <ele>1174.58</ele>
        <time>2016-06-03T07:47:32Z</time>
      </trkpt>
      <trkpt lat="44.32573" lon="3.74971">
        <ele>1174.26</ele>
        <time>2016-06-03T07:47:42Z</time>
      </trkpt>
      <trkpt lat="44.32568" lon="3.74957">
        <ele>1173.63</ele>
        <time>2016-06-03T07:47:52Z</time>
      </trkpt>
      <trkpt lat="44.32559" lon="3.7494">
        <ele>1174.1</ele>
        <time>2016-06-03T07:48:03Z</time>
      </trkpt>
      <trkpt lat="44.32552" lon="3.74935">
        <ele>1175.08</ele>
        <time>2016-06-03T07:48:13Z</time>
      </trkpt>
      <trkpt lat="44.32546" lon="3.74933">
        <ele>1176.51</ele>
        <time>2016-06-03T07:48:23Z</time>
      </trkpt>
      <trkpt lat="44.32537" lon="3.74927">
        <ele>1178.35</ele>
        <time>2016-06-03T07:48:33Z</time>
      </trkpt>
      <trkpt lat="44.32536" lon="3.74913">
        <ele>1176.93</ele>
        <time>2016-06-03T07:48:44Z</time>
      </trkpt>
      <trkpt lat="44.32531" lon="3.74906">
        <ele>1177.12</ele>
        <time>2016-06-03T07:48:55Z</time>
      </trkpt>
      <trkpt lat="44.32522" lon="3.74889">
        <ele>1177.34</ele>
        <time>2016-06-03T07:49:42Z</time>
      </trkpt>
      <trkpt lat="44.32492" lon="3.74881">
        <ele>1185.28</ele>
        <time>2016-06-03T07:49:52Z</time>
      </trkpt>
      <trkpt lat="44.32476" lon="3.74864">
        <ele>1187.41</ele>
        <time>2016-06-03T07:50:02Z</time>
      </trkpt>
      <trkpt lat="44.32473" lon="3.74852">
        <ele>1186.05</ele>
        <time>2016-06-03T07:50:15Z</time>
      </trkpt>
      <trkpt lat="44.32462" lon="3.74846">
        <ele>1188.49</ele>
        <time>2016-06-03T07:50:25Z</time>
      </trkpt>
      <trkpt lat="44.3245" lon="3.74838">
        <ele>1190.81</ele>
        <time>2016-06-03T07:50:36Z</time>
      </trkpt>
      <trkpt lat="44.3245" lon="3.74829">
        <ele>1189.1</ele>
        <time>2016-06-03T07:50:47Z</time>
      </trkpt>
      <trkpt lat="44.32443" lon="3.74813">
        <ele>1188.43</ele>
        <time>2016-06-03T07:50:58Z</time>
      </trkpt>
      <trkpt lat="44.32433" lon="3.74817">
        <ele>1192.21</ele>
        <time>2016-06-03T07:51:08Z</time>
      </trkpt>
      <trkpt lat="44.32425" lon="3.7481">
        <ele>1193.26</ele>
        <time>2016-06-03T07:51:19Z</time>
      </trkpt>
      <trkpt lat="44.32419" lon="3.74799">
        <ele>1193.18</ele>
        <time>2016-06-03T07:51:30Z</time>
      </trkpt>
      <trkpt lat="44.32409" lon="3.74792">
        <ele>1194.68</ele>
        <time>2016-06-03T07:51:41Z</time>
      </trkpt>
      <trkpt lat="44.32401" lon="3.7478">
        <ele>1194.74</ele>
        <time>2016-06-03T07:51:52Z</time>
      </trkpt>
      <trkpt lat="44.32395" lon="3.74777">
        <ele>1196.03</ele>
        <time>2016-06-03T07:52:04Z</time>
      </trkpt>
      <trkpt lat="44.32382" lon="3.74773">
        <ele>1199.19</ele>
        <time>2016-06-03T07:53:05Z</time>
      </trkpt>
      <trkpt lat="44.32366" lon="3.74762">
        <ele>1201.64</ele>
        <time>2016-06-03T07:53:16Z</time>
      </trkpt>
      <trkpt lat="44.32353" lon="3.74754">
        <ele>1203.21</ele>
        <time>2016-06-03T07:53:27Z</time>
      </trkpt>
      <trkpt lat="44.32337" lon="3.74746">
        <ele>1205.27</ele>
        <time>2016-06-03T07:53:38Z</time>
      </trkpt>
      <trkpt lat="44.32332" lon="3.74727">
        <ele>1201.85</ele>
        <time>2016-06-03T07:53:49Z</time>
      </trkpt>
      <trkpt lat="44.32319" lon="3.74723">
        <ele>1203.36</ele>
        <time>2016-06-03T07:53:59Z</time>
      </trkpt>
      <trkpt lat="44.32307" lon="3.74723">
        <ele>1205.6</ele>
        <time>2016-06-03T07:54:10Z</time>
      </trkpt>
      <trkpt lat="44.32293" lon="3.74728">
        <ele>1208.99</ele>
        <time>2016-06-03T07:54:20Z</time>
      </trkpt>
      <trkpt lat="44.32286" lon="3.74731">
        <ele>1210.65</ele>
        <time>2016-06-03T07:54:31Z</time>
      </trkpt>
      <trkpt lat="44.32275" lon="3.74739">
        <ele>1214.04</ele>
        <time>2016-06-03T07:54:42Z</time>
      </trkpt>
      <trkpt lat="44.32265" lon="3.74737">
        <ele>1214.51</ele>
        <time>2016-06-03T07:54:53Z</time>
      </trkpt>
      <trkpt lat="44.32257" lon="3.74738">
        <ele>1215.34</ele>
        <time>2016-06-03T07:55:03Z</time>
      </trkpt>
      <trkpt lat="44.32245" lon="3.7474">
        <ele>1216.29</ele>
        <time>2016-06-03T07:55:14Z</time>
      </trkpt>
      <trkpt lat="44.3224" lon="3.74731">
        <ele>1213.99</ele>
        <time>2016-06-03T07:55:24Z</time>
      </trkpt>
      <trkpt lat="44.3223" lon="3.74746">
        <ele>1218.01</ele>
        <time>2016-06-03T07:55:35Z</time>
      </trkpt>
      <trkpt lat="44.3222" lon="3.74757">
        <ele>1220.51</ele>
        <time>2016-06-03T07:55:46Z</time>
      </trkpt>
      <trkpt lat="44.32213" lon="3.74766">
        <ele>1222.4</ele>
        <time>2016-06-03T07:55:58Z</time>
      </trkpt>
      <trkpt lat="44.32204" lon="3.74773">
        <ele>1223.52</ele>
        <time>2016-06-03T07:56:08Z</time>
      </trkpt>
      <trkpt lat="44.32194" lon="3.74774">
        <ele>1222.9</ele>
        <time>2016-06-03T07:56:19Z</time>
      </trkpt>
      <trkpt lat="44.32187" lon="3.74779">
        <ele>1223.56</ele>
        <time>2016-06-03T07:56:31Z</time>
      </trkpt>
      <trkpt lat="44.32183" lon="3.74789">
        <ele>1225.67</ele>
        <time>2016-06-03T07:56:41Z</time>
      </trkpt>
      <trkpt lat="44.32174" lon="3.74794">
        <ele>1226.05</ele>
        <time>2016-06-03T07:56:52Z</time>
      </trkpt>
      <trkpt lat="44.32163" lon="3.74793">
        <ele>1225.05</ele>
        <time>2016-06-03T07:57:02Z</time>
      </trkpt>
      <trkpt lat="44.32142" lon="3.74813">
        <ele>1228.33</ele>
        <time>2016-06-03T07:57:13Z</time>
      </trkpt>
      <trkpt lat="44.32143" lon="3.7482">
        <ele>1230.36</ele>
        <time>2016-06-03T07:57:31Z</time>
      </trkpt>
      <trkpt lat="44.32141" lon="3.74827">
        <ele>1232.2</ele>
        <time>2016-06-03T07:57:41Z</time>
      </trkpt>
      <trkpt lat="44.32129" lon="3.74837">
        <ele>1233.66</ele>
        <time>2016-06-03T07:57:51Z</time>
      </trkpt>
      <trkpt lat="44.32121" lon="3.74847">
        <ele>1235.64</ele>
        <time>2016-06-03T07:58:35Z</time>
      </trkpt>
      <trkpt lat="44.32098" lon="3.74865">
        <ele>1239.04</ele>
        <time>2016-06-03T07:58:45Z</time>
      </trkpt>
      <trkpt lat="44.32091" lon="3.74882">
        <ele>1243.06</ele>
        <time>2016-06-03T07:58:56Z</time>
      </trkpt>
      <trkpt lat="44.3208" lon="3.74886">
        <ele>1244</ele>
        <time>2016-06-03T07:59:06Z</time>
      </trkpt>
      <trkpt lat="44.32073" lon="3.74895">
        <ele>1246.27</ele>
        <time>2016-06-03T07:59:17Z</time>
      </trkpt>
      <trkpt lat="44.32074" lon="3.74903">
        <ele>1248.42</ele>
        <time>2016-06-03T07:59:27Z</time>
      </trkpt>
      <trkpt lat="44.32076" lon="3.74911">
        <ele>1250.43</ele>
        <time>2016-06-03T07:59:40Z</time>
      </trkpt>
      <trkpt lat="44.32066" lon="3.74918">
        <ele>1252.45</ele>
        <time>2016-06-03T08:00:42Z</time>
      </trkpt>
      <trkpt lat="44.32043" lon="3.74931">
        <ele>1256.63</ele>
        <time>2016-06-03T08:00:52Z</time>
      </trkpt>
      <trkpt lat="44.32032" lon="3.74932">
        <ele>1257.65</ele>
        <time>2016-06-03T08:01:03Z</time>
      </trkpt>
      <trkpt lat="44.32009" lon="3.74927">
        <ele>1258.97</ele>
        <time>2016-06-03T08:02:07Z</time>
      </trkpt>
      <trkpt lat="44.31985" lon="3.74915">
        <ele>1260.75</ele>
        <time>2016-06-03T08:02:17Z</time>
      </trkpt>
      <trkpt lat="44.31971" lon="3.74893">
        <ele>1259.75</ele>
        <time>2016-06-03T08:02:28Z</time>
      </trkpt>
      <trkpt lat="44.31964" lon="3.74889">
        <ele>1260.92</ele>
        <time>2016-06-03T08:02:39Z</time>
      </trkpt>
      <trkpt lat="44.31956" lon="3.74884">
        <ele>1262.25</ele>
        <time>2016-06-03T08:03:13Z</time>
      </trkpt>
      <trkpt lat="44.31922" lon="3.74856">
        <ele>1267.27</ele>
        <time>2016-06-03T08:03:51Z</time>
      </trkpt>
      <trkpt lat="44.31909" lon="3.74845">
        <ele>1269.51</ele>
        <time>2016-06-03T08:04:05Z</time>
      </trkpt>
      <trkpt lat="44.319" lon="3.7483">
        <ele>1270.51</ele>
        <time>2016-06-03T08:04:15Z</time>
      </trkpt>
      <trkpt lat="44.31894" lon="3.74813">
        <ele>1270.33</ele>
        <time>2016-06-03T08:04:25Z</time>
      </trkpt>
      <trkpt lat="44.31884" lon="3.74799">
        <ele>1272.44</ele>
        <time>2016-06-03T08:04:35Z</time>
      </trkpt>
      <trkpt lat="44.31886" lon="3.7478">
        <ele>1269</ele>
        <time>2016-06-03T08:04:50Z</time>
      </trkpt>
      <trkpt lat="44.31873" lon="3.74778">
        <ele>1274.55</ele>
        <time>2016-06-03T08:05:00Z</time>
      </trkpt>
      <trkpt lat="44.31864" lon="3.74774">
        <ele>1277.53</ele>
        <time>2016-06-03T08:05:16Z</time>
      </trkpt>
      <trkpt lat="44.31855" lon="3.74751">
        <ele>1277.78</ele>
        <time>2016-06-03T08:05:26Z</time>
      </trkpt>
      <trkpt lat="44.31845" lon="3.74747">
        <ele>1280.94</ele>
        <time>2016-06-03T08:05:37Z</time>
      </trkpt>
      <trkpt lat="44.31844" lon="3.74737">
        <ele>1279.73</ele>
        <time>2016-06-03T08:05:49Z</time>
      </trkpt>
      <trkpt lat="44.31819" lon="3.74733">
        <ele>1286.96</ele>
        <time>2016-06-03T08:05:59Z</time>
      </trkpt>
      <trkpt lat="44.31824" lon="3.74727">
        <ele>1284.73</ele>
        <time>2016-06-03T08:06:15Z</time>
      </trkpt>
      <trkpt lat="44.31822" lon="3.74716">
        <ele>1283.83</ele>
        <time>2016-06-03T08:06:34Z</time>
      </trkpt>
      <trkpt lat="44.31815" lon="3.74705">
        <ele>1284.49</ele>
        <time>2016-06-03T08:06:45Z</time>
      </trkpt>
      <trkpt lat="44.31812" lon="3.74694">
        <ele>1283.85</ele>
        <time>2016-06-03T08:06:55Z</time>
      </trkpt>
      <trkpt lat="44.31804" lon="3.74688">
        <ele>1285.9</ele>
        <time>2016-06-03T08:09:03Z</time>
      </trkpt>
      <trkpt lat="44.31778" lon="3.74679">
        <ele>1293.83</ele>
        <time>2016-06-03T08:09:13Z</time>
      </trkpt>
      <trkpt lat="44.31743" lon="3.74654">
        <ele>1300.52</ele>
        <time>2016-06-03T08:09:24Z</time>
      </trkpt>
      <trkpt lat="44.31729" lon="3.74643">
        <ele>1301.69</ele>
        <time>2016-06-03T08:09:34Z</time>
      </trkpt>
      <trkpt lat="44.31715" lon="3.74631">
        <ele>1302.45</ele>
        <time>2016-06-03T08:09:44Z</time>
      </trkpt>
      <trkpt lat="44.31698" lon="3.74623">
        <ele>1303.41</ele>
        <time>2016-06-03T08:09:54Z</time>
      </trkpt>
      <trkpt lat="44.31703" lon="3.74613">
        <ele>1303.25</ele>
        <time>2016-06-03T08:10:04Z</time>
      </trkpt>
      <trkpt lat="44.31697" lon="3.74611">
        <ele>1303.69</ele>
        <time>2016-06-03T08:10:16Z</time>
      </trkpt>
      <trkpt lat="44.31687" lon="3.74602">
        <ele>1304.47</ele>
        <time>2016-06-03T08:10:30Z</time>
      </trkpt>
      <trkpt lat="44.31691" lon="3.74606">
        <ele>1304.15</ele>
        <time>2016-06-03T08:27:58Z</time>
      </trkpt>
      <trkpt lat="44.31693" lon="3.74667">
        <ele>1301.75</ele>
        <time>2016-06-03T08:28:09Z</time>
      </trkpt>
      <trkpt lat="44.31691" lon="3.74695">
        <ele>1300.26</ele>
        <time>2016-06-03T08:28:20Z</time>
      </trkpt>
      <trkpt lat="44.31704" lon="3.74715">
        <ele>1300.37</ele>
        <time>2016-06-03T08:28:31Z</time>
      </trkpt>
      <trkpt lat="44.31713" lon="3.74733">
        <ele>1300.11</ele>
        <time>2016-06-03T08:28:41Z</time>
      </trkpt>
      <trkpt lat="44.31714" lon="3.74743">
        <ele>1299.68</ele>
        <time>2016-06-03T08:28:51Z</time>
      </trkpt>
      <trkpt lat="44.31721" lon="3.74758">
        <ele>1299.25</ele>
        <time>2016-06-03T08:29:02Z</time>
      </trkpt>
      <trkpt lat="44.31723" lon="3.74776">
        <ele>1298.35</ele>
        <time>2016-06-03T08:29:13Z</time>
      </trkpt>
      <trkpt lat="44.31731" lon="3.74794">
        <ele>1297.86</ele>
        <time>2016-06-03T08:29:23Z</time>
      </trkpt>
      <trkpt lat="44.31738" lon="3.74808">
        <ele>1297.43</ele>
        <time>2016-06-03T08:29:33Z</time>
      </trkpt>
      <trkpt lat="44.31748" lon="3.74821">
        <ele>1296.99</ele>
        <time>2016-06-03T08:29:44Z</time>
      </trkpt>
      <trkpt lat="44.31753" lon="3.74823">
        <ele>1297.07</ele>
        <time>2016-06-03T08:29:54Z</time>
      </trkpt>
      <trkpt lat="44.31758" lon="3.74836">
        <ele>1296.18</ele>
        <time>2016-06-03T08:30:05Z</time>
      </trkpt>
      <trkpt lat="44.31765" lon="3.74871">
        <ele>1292.25</ele>
        <time>2016-06-03T08:30:16Z</time>
      </trkpt>
      <trkpt lat="44.31774" lon="3.74866">
        <ele>1293.69</ele>
        <time>2016-06-03T08:30:27Z</time>
      </trkpt>
      <trkpt lat="44.31785" lon="3.74872">
        <ele>1293.85</ele>
        <time>2016-06-03T08:30:37Z</time>
      </trkpt>
      <trkpt lat="44.31788" lon="3.74899">
        <ele>1291.22</ele>
        <time>2016-06-03T08:30:48Z</time>
      </trkpt>
      <trkpt lat="44.31792" lon="3.74907">
        <ele>1290.97</ele>
        <time>2016-06-03T08:30:59Z</time>
      </trkpt>
      <trkpt lat="44.31799" lon="3.74934">
        <ele>1290.78</ele>
        <time>2016-06-03T08:31:09Z</time>
      </trkpt>
      <trkpt lat="44.31808" lon="3.74939">
        <ele>1291.85</ele>
        <time>2016-06-03T08:31:20Z</time>
      </trkpt>
      <trkpt lat="44.318" lon="3.74957">
        <ele>1290.61</ele>
        <time>2016-06-03T08:31:31Z</time>
      </trkpt>
      <trkpt lat="44.31793" lon="3.74965">
        <ele>1289.26</ele>
        <time>2016-06-03T08:31:41Z</time>
      </trkpt>
      <trkpt lat="44.31796" lon="3.74957">
        <ele>1289.92</ele>
        <time>2016-06-03T08:32:18Z</time>
      </trkpt>
      <trkpt lat="44.31799" lon="3.74963">
        <ele>1290.48</ele>
        <time>2016-06-03T08:32:47Z</time>
      </trkpt>
      <trkpt lat="44.31807" lon="3.74981">
        <ele>1291.97</ele>
        <time>2016-06-03T08:33:09Z</time>
      </trkpt>
      <trkpt lat="44.3181" lon="3.75005">
        <ele>1292.93</ele>
        <time>2016-06-03T08:33:20Z</time>
      </trkpt>
      <trkpt lat="44.31808" lon="3.7502">
        <ele>1293.07</ele>
        <time>2016-06-03T08:33:30Z</time>
      </trkpt>
      <trkpt lat="44.31807" lon="3.75029">
        <ele>1293.3</ele>
        <time>2016-06-03T08:34:08Z</time>
      </trkpt>
      <trkpt lat="44.31805" lon="3.75058">
        <ele>1293.87</ele>
        <time>2016-06-03T08:34:44Z</time>
      </trkpt>
      <trkpt lat="44.31804" lon="3.75088">
        <ele>1294.51</ele>
        <time>2016-06-03T08:34:54Z</time>
      </trkpt>
      <trkpt lat="44.31805" lon="3.751">
        <ele>1295.01</ele>
        <time>2016-06-03T08:35:05Z</time>
      </trkpt>
      <trkpt lat="44.31806" lon="3.75117">
        <ele>1295.33</ele>
        <time>2016-06-03T08:35:15Z</time>
      </trkpt>
      <trkpt lat="44.31801" lon="3.75139">
        <ele>1293.79</ele>
        <time>2016-06-03T08:35:25Z</time>
      </trkpt>
      <trkpt lat="44.31807" lon="3.75153">
        <ele>1295.65</ele>
        <time>2016-06-03T08:35:36Z</time>
      </trkpt>
      <trkpt lat="44.31818" lon="3.75155">
        <ele>1298.83</ele>
        <time>2016-06-03T08:35:47Z</time>
      </trkpt>
      <trkpt lat="44.31805" lon="3.75186">
        <ele>1294.68</ele>
        <time>2016-06-03T08:35:57Z</time>
      </trkpt>
      <trkpt lat="44.31811" lon="3.752">
        <ele>1296.25</ele>
        <time>2016-06-03T08:36:08Z</time>
      </trkpt>
      <trkpt lat="44.31816" lon="3.75215">
        <ele>1297.69</ele>
        <time>2016-06-03T08:36:18Z</time>
      </trkpt>
      <trkpt lat="44.31805" lon="3.75233">
        <ele>1294.24</ele>
        <time>2016-06-03T08:36:29Z</time>
      </trkpt>
      <trkpt lat="44.31805" lon="3.75255">
        <ele>1294.51</ele>
        <time>2016-06-03T08:36:39Z</time>
      </trkpt>
      <trkpt lat="44.31794" lon="3.75268">
        <ele>1291.32</ele>
        <time>2016-06-03T08:36:50Z</time>
      </trkpt>
      <trkpt lat="44.31794" lon="3.75282">
        <ele>1291.9</ele>
        <time>2016-06-03T08:37:00Z</time>
      </trkpt>
      <trkpt lat="44.31793" lon="3.75299">
        <ele>1292.26</ele>
        <time>2016-06-03T08:37:10Z</time>
      </trkpt>
      <trkpt lat="44.31807" lon="3.7532">
        <ele>1298.15</ele>
        <time>2016-06-03T08:37:21Z</time>
      </trkpt>
      <trkpt lat="44.31806" lon="3.75331">
        <ele>1298.26</ele>
        <time>2016-06-03T08:37:32Z</time>
      </trkpt>
      <trkpt lat="44.31808" lon="3.75348">
        <ele>1299.41</ele>
        <time>2016-06-03T08:37:42Z</time>
      </trkpt>
      <trkpt lat="44.31811" lon="3.75364">
        <ele>1300.99</ele>
        <time>2016-06-03T08:37:53Z</time>
      </trkpt>
      <trkpt lat="44.31808" lon="3.75389">
        <ele>1300.85</ele>
        <time>2016-06-03T08:38:04Z</time>
      </trkpt>
      <trkpt lat="44.31812" lon="3.75395">
        <ele>1302.13</ele>
        <time>2016-06-03T08:38:15Z</time>
      </trkpt>
      <trkpt lat="44.31806" lon="3.7542">
        <ele>1300.61</ele>
        <time>2016-06-03T08:38:26Z</time>
      </trkpt>
      <trkpt lat="44.31808" lon="3.75438">
        <ele>1301.11</ele>
        <time>2016-06-03T08:38:36Z</time>
      </trkpt>
      <trkpt lat="44.31813" lon="3.75447">
        <ele>1302.46</ele>
        <time>2016-06-03T08:38:47Z</time>
      </trkpt>
      <trkpt lat="44.31822" lon="3.75458">
        <ele>1304.91</ele>
        <time>2016-06-03T08:38:58Z</time>
      </trkpt>
      <trkpt lat="44.31842" lon="3.75466">
        <ele>1311.17</ele>
        <time>2016-06-03T08:39:08Z</time>
      </trkpt>
      <trkpt lat="44.31843" lon="3.7548">
        <ele>1311.48</ele>
        <time>2016-06-03T08:39:18Z</time>
      </trkpt>
      <trkpt lat="44.31833" lon="3.75503">
        <ele>1307.96</ele>
        <time>2016-06-03T08:39:29Z</time>
      </trkpt>
      <trkpt lat="44.31835" lon="3.75523">
        <ele>1308.39</ele>
        <time>2016-06-03T08:39:39Z</time>
      </trkpt>
      <trkpt lat="44.31824" lon="3.75535">
        <ele>1305</ele>
        <time>2016-06-03T08:39:49Z</time>
      </trkpt>
      <trkpt lat="44.31821" lon="3.75553">
        <ele>1304.09</ele>
        <time>2016-06-03T08:40:01Z</time>
      </trkpt>
      <trkpt lat="44.31823" lon="3.75567">
        <ele>1305.12</ele>
        <time>2016-06-03T08:40:12Z</time>
      </trkpt>
      <trkpt lat="44.31833" lon="3.7558">
        <ele>1308.85</ele>
        <time>2016-06-03T08:40:23Z</time>
      </trkpt>
      <trkpt lat="44.31825" lon="3.75609">
        <ele>1307.83</ele>
        <time>2016-06-03T08:40:33Z</time>
      </trkpt>
      <trkpt lat="44.31815" lon="3.75605">
        <ele>1304.3</ele>
        <time>2016-06-03T08:40:44Z</time>
      </trkpt>
      <trkpt lat="44.31812" lon="3.75627">
        <ele>1305.01</ele>
        <time>2016-06-03T08:40:54Z</time>
      </trkpt>
      <trkpt lat="44.31808" lon="3.75643">
        <ele>1304.99</ele>
        <time>2016-06-03T08:41:05Z</time>
      </trkpt>
      <trkpt lat="44.31803" lon="3.75663">
        <ele>1305.19</ele>
        <time>2016-06-03T08:41:15Z</time>
      </trkpt>
      <trkpt lat="44.31797" lon="3.75678">
        <ele>1304.79</ele>
        <time>2016-06-03T08:41:25Z</time>
      </trkpt>
      <trkpt lat="44.31799" lon="3.75692">
        <ele>1306.9</ele>
        <time>2016-06-03T08:41:35Z</time>
      </trkpt>
      <trkpt lat="44.31789" lon="3.75706">
        <ele>1305.58</ele>
        <time>2016-06-03T08:41:46Z</time>
      </trkpt>
      <trkpt lat="44.31782" lon="3.75714">
        <ele>1304.47</ele>
        <time>2016-06-03T08:41:57Z</time>
      </trkpt>
      <trkpt lat="44.31785" lon="3.75721">
        <ele>1305.93</ele>
        <time>2016-06-03T08:44:24Z</time>
      </trkpt>
      <trkpt lat="44.31772" lon="3.75746">
        <ele>1305.25</ele>
        <time>2016-06-03T08:44:34Z</time>
      </trkpt>
      <trkpt lat="44.31762" lon="3.75758">
        <ele>1303.34</ele>
        <time>2016-06-03T08:44:45Z</time>
      </trkpt>
      <trkpt lat="44.31753" lon="3.75773">
        <ele>1302.16</ele>
        <time>2016-06-03T08:44:55Z</time>
      </trkpt>
      <trkpt lat="44.31753" lon="3.75788">
        <ele>1303.72</ele>
        <time>2016-06-03T08:45:06Z</time>
      </trkpt>
      <trkpt lat="44.31751" lon="3.758">
        <ele>1304.52</ele>
        <time>2016-06-03T08:45:16Z</time>
      </trkpt>
      <trkpt lat="44.31748" lon="3.75817">
        <ele>1305.05</ele>
        <time>2016-06-03T08:45:27Z</time>
      </trkpt>
      <trkpt lat="44.31742" lon="3.75833">
        <ele>1304.77</ele>
        <time>2016-06-03T08:45:37Z</time>
      </trkpt>
      <trkpt lat="44.31747" lon="3.75844">
        <ele>1307</ele>
        <time>2016-06-03T08:45:48Z</time>
      </trkpt>
      <trkpt lat="44.31733" lon="3.75859">
        <ele>1303.87</ele>
        <time>2016-06-03T08:45:58Z</time>
      </trkpt>
      <trkpt lat="44.31736" lon="3.75881">
        <ele>1306.09</ele>
        <time>2016-06-03T08:46:09Z</time>
      </trkpt>
      <trkpt lat="44.31736" lon="3.75895">
        <ele>1306.83</ele>
        <time>2016-06-03T08:46:20Z</time>
      </trkpt>
      <trkpt lat="44.31731" lon="3.75911">
        <ele>1306.94</ele>
        <time>2016-06-03T08:46:31Z</time>
      </trkpt>
      <trkpt lat="44.31727" lon="3.75928">
        <ele>1307.48</ele>
        <time>2016-06-03T08:46:41Z</time>
      </trkpt>
      <trkpt lat="44.31722" lon="3.75942">
        <ele>1307.71</ele>
        <time>2016-06-03T08:46:52Z</time>
      </trkpt>
      <trkpt lat="44.31721" lon="3.75954">
        <ele>1308.77</ele>
        <time>2016-06-03T08:47:02Z</time>
      </trkpt>
      <trkpt lat="44.3172" lon="3.75967">
        <ele>1309.83</ele>
        <time>2016-06-03T08:47:13Z</time>
      </trkpt>
      <trkpt lat="44.31716" lon="3.75987">
        <ele>1310.49</ele>
        <time>2016-06-03T08:47:23Z</time>
      </trkpt>
      <trkpt lat="44.31717" lon="3.76005">
        <ele>1311.87</ele>
        <time>2016-06-03T08:47:34Z</time>
      </trkpt>
      <trkpt lat="44.31713" lon="3.76025">
        <ele>1311.58</ele>
        <time>2016-06-03T08:47:45Z</time>
      </trkpt>
      <trkpt lat="44.31711" lon="3.76041">
        <ele>1311.57</ele>
        <time>2016-06-03T08:47:56Z</time>
      </trkpt>
      <trkpt lat="44.31716" lon="3.76057">
        <ele>1313.09</ele>
        <time>2016-06-03T08:48:08Z</time>
      </trkpt>
      <trkpt lat="44.31717" lon="3.76073">
        <ele>1313.41</ele>
        <time>2016-06-03T08:48:18Z</time>
      </trkpt>
      <trkpt lat="44.31719" lon="3.7609">
        <ele>1314.04</ele>
        <time>2016-06-03T08:48:29Z</time>
      </trkpt>
      <trkpt lat="44.31718" lon="3.76107">
        <ele>1313.97</ele>
        <time>2016-06-03T08:48:40Z</time>
      </trkpt>
      <trkpt lat="44.31725" lon="3.76116">
        <ele>1315.75</ele>
        <time>2016-06-03T08:48:51Z</time>
      </trkpt>
      <trkpt lat="44.31726" lon="3.76141">
        <ele>1315.72</ele>
        <time>2016-06-03T08:49:01Z</time>
      </trkpt>
      <trkpt lat="44.3173" lon="3.76153">
        <ele>1316.18</ele>
        <time>2016-06-03T08:49:13Z</time>
      </trkpt>
      <trkpt lat="44.31725" lon="3.76176">
        <ele>1313.84</ele>
        <time>2016-06-03T08:49:23Z</time>
      </trkpt>
      <trkpt lat="44.31735" lon="3.76187">
        <ele>1315.17</ele>
        <time>2016-06-03T08:49:34Z</time>
      </trkpt>
      <trkpt lat="44.31735" lon="3.76203">
        <ele>1313.56</ele>
        <time>2016-06-03T08:49:44Z</time>
      </trkpt>
      <trkpt lat="44.31736" lon="3.76225">
        <ele>1311.31</ele>
        <time>2016-06-03T08:49:54Z</time>
      </trkpt>
      <trkpt lat="44.31736" lon="3.76239">
        <ele>1309.5</ele>
        <time>2016-06-03T08:50:29Z</time>
      </trkpt>
      <trkpt lat="44.3174" lon="3.76276">
        <ele>1305.88</ele>
        <time>2016-06-03T08:50:39Z</time>
      </trkpt>
      <trkpt lat="44.31743" lon="3.76302">
        <ele>1302.91</ele>
        <time>2016-06-03T08:50:50Z</time>
      </trkpt>
      <trkpt lat="44.31745" lon="3.76322">
        <ele>1300.58</ele>
        <time>2016-06-03T08:51:01Z</time>
      </trkpt>
      <trkpt lat="44.31748" lon="3.76332">
        <ele>1299.75</ele>
        <time>2016-06-03T08:51:11Z</time>
      </trkpt>
      <trkpt lat="44.31754" lon="3.76345">
        <ele>1299.02</ele>
        <time>2016-06-03T08:51:23Z</time>
      </trkpt>
      <trkpt lat="44.31769" lon="3.76365">
        <ele>1298.65</ele>
        <time>2016-06-03T08:51:33Z</time>
      </trkpt>
      <trkpt lat="44.31776" lon="3.76379">
        <ele>1297.63</ele>
        <time>2016-06-03T08:51:43Z</time>
      </trkpt>
      <trkpt lat="44.31779" lon="3.76385">
        <ele>1297.15</ele>
        <time>2016-06-03T08:51:55Z</time>
      </trkpt>
      <trkpt lat="44.31787" lon="3.76392">
        <ele>1297.4</ele>
        <time>2016-06-03T08:52:05Z</time>
      </trkpt>
      <trkpt lat="44.31799" lon="3.76391">
        <ele>1299.25</ele>
        <time>2016-06-03T08:52:16Z</time>
      </trkpt>
      <trkpt lat="44.31825" lon="3.76403">
        <ele>1301.4</ele>
        <time>2016-06-03T08:53:40Z</time>
      </trkpt>
      <trkpt lat="44.31877" lon="3.76446">
        <ele>1306.31</ele>
        <time>2016-06-03T08:53:50Z</time>
      </trkpt>
      <trkpt lat="44.31892" lon="3.76453">
        <ele>1308.88</ele>
        <time>2016-06-03T08:54:01Z</time>
      </trkpt>
      <trkpt lat="44.31894" lon="3.76471">
        <ele>1308.91</ele>
        <time>2016-06-03T08:54:11Z</time>
      </trkpt>
      <trkpt lat="44.31898" lon="3.7648">
        <ele>1309.58</ele>
        <time>2016-06-03T08:54:22Z</time>
      </trkpt>
      <trkpt lat="44.3191" lon="3.76493">
        <ele>1311.74</ele>
        <time>2016-06-03T08:54:33Z</time>
      </trkpt>
      <trkpt lat="44.31918" lon="3.76511">
        <ele>1313.33</ele>
        <time>2016-06-03T08:54:44Z</time>
      </trkpt>
      <trkpt lat="44.31924" lon="3.76518">
        <ele>1314.31</ele>
        <time>2016-06-03T08:54:57Z</time>
      </trkpt>
      <trkpt lat="44.31919" lon="3.76523">
        <ele>1313.53</ele>
        <time>2016-06-03T08:55:07Z</time>
      </trkpt>
      <trkpt lat="44.31916" lon="3.76532">
        <ele>1312.82</ele>
        <time>2016-06-03T08:56:25Z</time>
      </trkpt>
      <trkpt lat="44.31912" lon="3.76547">
        <ele>1311.9</ele>
        <time>2016-06-03T08:56:35Z</time>
      </trkpt>
      <trkpt lat="44.31909" lon="3.76563">
        <ele>1311.22</ele>
        <time>2016-06-03T08:56:45Z</time>
      </trkpt>
      <trkpt lat="44.31915" lon="3.76587">
        <ele>1312.61</ele>
        <time>2016-06-03T08:56:55Z</time>
      </trkpt>
      <trkpt lat="44.31913" lon="3.76603">
        <ele>1312.02</ele>
        <time>2016-06-03T08:57:06Z</time>
      </trkpt>
      <trkpt lat="44.31909" lon="3.7661">
        <ele>1310.76</ele>
        <time>2016-06-03T08:57:16Z</time>
      </trkpt>
      <trkpt lat="44.31905" lon="3.76627">
        <ele>1309.57</ele>
        <time>2016-06-03T08:57:27Z</time>
      </trkpt>
      <trkpt lat="44.31907" lon="3.76642">
        <ele>1310.07</ele>
        <time>2016-06-03T08:57:38Z</time>
      </trkpt>
      <trkpt lat="44.31901" lon="3.76661">
        <ele>1308.34</ele>
        <time>2016-06-03T08:57:48Z</time>
      </trkpt>
      <trkpt lat="44.31895" lon="3.76671">
        <ele>1306.75</ele>
        <time>2016-06-03T08:57:59Z</time>
      </trkpt>
      <trkpt lat="44.31889" lon="3.76692">
        <ele>1305.77</ele>
        <time>2016-06-03T08:58:09Z</time>
      </trkpt>
      <trkpt lat="44.31884" lon="3.76702">
        <ele>1304.58</ele>
        <time>2016-06-03T08:58:19Z</time>
      </trkpt>
      <trkpt lat="44.31881" lon="3.76719">
        <ele>1304.47</ele>
        <time>2016-06-03T08:58:30Z</time>
      </trkpt>
      <trkpt lat="44.31873" lon="3.76735">
        <ele>1302.82</ele>
        <time>2016-06-03T08:58:40Z</time>
      </trkpt>
      <trkpt lat="44.31869" lon="3.76753">
        <ele>1302.49</ele>
        <time>2016-06-03T08:58:50Z</time>
      </trkpt>
      <trkpt lat="44.31867" lon="3.76763">
        <ele>1302.14</ele>
        <time>2016-06-03T08:59:01Z</time>
      </trkpt>
      <trkpt lat="44.31843" lon="3.76776">
        <ele>1295.28</ele>
        <time>2016-06-03T08:59:12Z</time>
      </trkpt>
      <trkpt lat="44.31832" lon="3.76795">
        <ele>1292.98</ele>
        <time>2016-06-03T08:59:22Z</time>
      </trkpt>
      <trkpt lat="44.31835" lon="3.76811">
        <ele>1294.99</ele>
        <time>2016-06-03T08:59:33Z</time>
      </trkpt>
      <trkpt lat="44.31843" lon="3.76816">
        <ele>1298</ele>
        <time>2016-06-03T08:59:43Z</time>
      </trkpt>
      <trkpt lat="44.31834" lon="3.76835">
        <ele>1296.36</ele>
        <time>2016-06-03T08:59:54Z</time>
      </trkpt>
      <trkpt lat="44.3183" lon="3.76854">
        <ele>1296.08</ele>
        <time>2016-06-03T09:00:05Z</time>
      </trkpt>
      <trkpt lat="44.31823" lon="3.76874">
        <ele>1294.95</ele>
        <time>2016-06-03T09:00:16Z</time>
      </trkpt>
      <trkpt lat="44.31831" lon="3.76883">
        <ele>1298.16</ele>
        <time>2016-06-03T09:00:26Z</time>
      </trkpt>
      <trkpt lat="44.31825" lon="3.76898">
        <ele>1297.15</ele>
        <time>2016-06-03T09:00:36Z</time>
      </trkpt>
      <trkpt lat="44.3182" lon="3.76916">
        <ele>1296.58</ele>
        <time>2016-06-03T09:00:47Z</time>
      </trkpt>
      <trkpt lat="44.31821" lon="3.76934">
        <ele>1297.89</ele>
        <time>2016-06-03T09:00:57Z</time>
      </trkpt>
      <trkpt lat="44.31814" lon="3.76954">
        <ele>1296.94</ele>
        <time>2016-06-03T09:01:08Z</time>
      </trkpt>
      <trkpt lat="44.31809" lon="3.76971">
        <ele>1296.45</ele>
        <time>2016-06-03T09:01:18Z</time>
      </trkpt>
      <trkpt lat="44.31788" lon="3.76982">
        <ele>1289.16</ele>
        <time>2016-06-03T09:01:29Z</time>
      </trkpt>
      <trkpt lat="44.3179" lon="3.76999">
        <ele>1291.27</ele>
        <time>2016-06-03T09:01:39Z</time>
      </trkpt>
      <trkpt lat="44.31788" lon="3.77014">
        <ele>1291.78</ele>
        <time>2016-06-03T09:01:49Z</time>
      </trkpt>
      <trkpt lat="44.31779" lon="3.77021">
        <ele>1289.2</ele>
        <time>2016-06-03T09:01:59Z</time>
      </trkpt>
      <trkpt lat="44.3178" lon="3.77039">
        <ele>1291.36</ele>
        <time>2016-06-03T09:02:12Z</time>
      </trkpt>
      <trkpt lat="44.31766" lon="3.77052">
        <ele>1287.34</ele>
        <time>2016-06-03T09:02:22Z</time>
      </trkpt>
      <trkpt lat="44.31759" lon="3.77068">
        <ele>1286.46</ele>
        <time>2016-06-03T09:02:32Z</time>
      </trkpt>
      <trkpt lat="44.31749" lon="3.77091">
        <ele>1285.38</ele>
        <time>2016-06-03T09:02:43Z</time>
      </trkpt>
      <trkpt lat="44.31744" lon="3.77105">
        <ele>1284.76</ele>
        <time>2016-06-03T09:02:53Z</time>
      </trkpt>
      <trkpt lat="44.31743" lon="3.77118">
        <ele>1285.33</ele>
        <time>2016-06-03T09:03:03Z</time>
      </trkpt>
      <trkpt lat="44.31735" lon="3.7713">
        <ele>1283.73</ele>
        <time>2016-06-03T09:03:14Z</time>
      </trkpt>
      <trkpt lat="44.31735" lon="3.77143">
        <ele>1284.54</ele>
        <time>2016-06-03T09:03:25Z</time>
      </trkpt>
      <trkpt lat="44.31729" lon="3.7716">
        <ele>1284.41</ele>
        <time>2016-06-03T09:03:35Z</time>
      </trkpt>
      <trkpt lat="44.31727" lon="3.77175">
        <ele>1285.25</ele>
        <time>2016-06-03T09:03:46Z</time>
      </trkpt>
      <trkpt lat="44.31721" lon="3.7719">
        <ele>1285.55</ele>
        <time>2016-06-03T09:03:56Z</time>
      </trkpt>
      <trkpt lat="44.31726" lon="3.77201">
        <ele>1288.43</ele>
        <time>2016-06-03T09:04:07Z</time>
      </trkpt>
      <trkpt lat="44.31714" lon="3.77224">
        <ele>1287.99</ele>
        <time>2016-06-03T09:04:17Z</time>
      </trkpt>
      <trkpt lat="44.317" lon="3.77239">
        <ele>1286.14</ele>
        <time>2016-06-03T09:04:27Z</time>
      </trkpt>
      <trkpt lat="44.3169" lon="3.77254">
        <ele>1285.49</ele>
        <time>2016-06-03T09:04:37Z</time>
      </trkpt>
      <trkpt lat="44.31685" lon="3.77258">
        <ele>1284.71</ele>
        <time>2016-06-03T09:04:48Z</time>
      </trkpt>
      <trkpt lat="44.31673" lon="3.77262">
        <ele>1281.91</ele>
        <time>2016-06-03T09:04:59Z</time>
      </trkpt>
      <trkpt lat="44.31657" lon="3.77267">
        <ele>1278.55</ele>
        <time>2016-06-03T09:05:09Z</time>
      </trkpt>
      <trkpt lat="44.31651" lon="3.77279">
        <ele>1279.13</ele>
        <time>2016-06-03T09:05:40Z</time>
      </trkpt>
      <trkpt lat="44.31644" lon="3.77288">
        <ele>1279.25</ele>
        <time>2016-06-03T09:05:51Z</time>
      </trkpt>
      <trkpt lat="44.31617" lon="3.77303">
        <ele>1276.07</ele>
        <time>2016-06-03T09:06:02Z</time>
      </trkpt>
      <trkpt lat="44.31606" lon="3.77307">
        <ele>1274</ele>
        <time>2016-06-03T09:06:12Z</time>
      </trkpt>
      <trkpt lat="44.31597" lon="3.77313">
        <ele>1272.9</ele>
        <time>2016-06-03T09:06:23Z</time>
      </trkpt>
      <trkpt lat="44.31584" lon="3.77327">
        <ele>1272.04</ele>
        <time>2016-06-03T09:06:34Z</time>
      </trkpt>
      <trkpt lat="44.31575" lon="3.77336">
        <ele>1270.89</ele>
        <time>2016-06-03T09:06:45Z</time>
      </trkpt>
      <trkpt lat="44.31573" lon="3.77353">
        <ele>1273.57</ele>
        <time>2016-06-03T09:06:55Z</time>
      </trkpt>
      <trkpt lat="44.31568" lon="3.77362">
        <ele>1273.45</ele>
        <time>2016-06-03T09:07:06Z</time>
      </trkpt>
      <trkpt lat="44.31562" lon="3.77374">
        <ele>1273.72</ele>
        <time>2016-06-03T09:07:16Z</time>
      </trkpt>
      <trkpt lat="44.31543" lon="3.77389">
        <ele>1269.1</ele>
        <time>2016-06-03T09:07:27Z</time>
      </trkpt>
      <trkpt lat="44.31532" lon="3.77406">
        <ele>1267.16</ele>
        <time>2016-06-03T09:07:38Z</time>
      </trkpt>
      <trkpt lat="44.31531" lon="3.77424">
        <ele>1268.57</ele>
        <time>2016-06-03T09:07:49Z</time>
      </trkpt>
      <trkpt lat="44.31525" lon="3.77439">
        <ele>1267.31</ele>
        <time>2016-06-03T09:08:00Z</time>
      </trkpt>
      <trkpt lat="44.31524" lon="3.77453">
        <ele>1267.93</ele>
        <time>2016-06-03T09:08:11Z</time>
      </trkpt>
      <trkpt lat="44.31519" lon="3.77463">
        <ele>1266.64</ele>
        <time>2016-06-03T09:10:08Z</time>
      </trkpt>
      <trkpt lat="44.3152" lon="3.77471">
        <ele>1267.52</ele>
        <time>2016-06-03T09:17:14Z</time>
      </trkpt>
      <trkpt lat="44.3152" lon="3.77481">
        <ele>1267.94</ele>
        <time>2016-06-03T09:17:28Z</time>
      </trkpt>
      <trkpt lat="44.31518" lon="3.77497">
        <ele>1268.47</ele>
        <time>2016-06-03T09:17:39Z</time>
      </trkpt>
      <trkpt lat="44.31516" lon="3.77508">
        <ele>1268.76</ele>
        <time>2016-06-03T09:18:01Z</time>
      </trkpt>
      <trkpt lat="44.31512" lon="3.77512">
        <ele>1267.79</ele>
        <time>2016-06-03T09:18:29Z</time>
      </trkpt>
      <trkpt lat="44.31507" lon="3.77525">
        <ele>1267.76</ele>
        <time>2016-06-03T09:18:40Z</time>
      </trkpt>
      <trkpt lat="44.31508" lon="3.77533">
        <ele>1269.09</ele>
        <time>2016-06-03T09:18:54Z</time>
      </trkpt>
      <trkpt lat="44.31504" lon="3.77551">
        <ele>1270.49</ele>
        <time>2016-06-03T09:19:04Z</time>
      </trkpt>
      <trkpt lat="44.31501" lon="3.7757">
        <ele>1271.38</ele>
        <time>2016-06-03T09:19:15Z</time>
      </trkpt>
      <trkpt lat="44.31498" lon="3.77591">
        <ele>1271.36</ele>
        <time>2016-06-03T09:19:26Z</time>
      </trkpt>
      <trkpt lat="44.315" lon="3.77604">
        <ele>1272.25</ele>
        <time>2016-06-03T09:19:36Z</time>
      </trkpt>
      <trkpt lat="44.31494" lon="3.77621">
        <ele>1269.13</ele>
        <time>2016-06-03T09:19:46Z</time>
      </trkpt>
      <trkpt lat="44.31489" lon="3.77633">
        <ele>1266.5</ele>
        <time>2016-06-03T09:19:56Z</time>
      </trkpt>
      <trkpt lat="44.31496" lon="3.77647">
        <ele>1268.9</ele>
        <time>2016-06-03T09:20:07Z</time>
      </trkpt>
      <trkpt lat="44.31498" lon="3.77666">
        <ele>1269.15</ele>
        <time>2016-06-03T09:20:17Z</time>
      </trkpt>
      <trkpt lat="44.31495" lon="3.77684">
        <ele>1267.61</ele>
        <time>2016-06-03T09:20:28Z</time>
      </trkpt>
      <trkpt lat="44.31487" lon="3.77697">
        <ele>1264.15</ele>
        <time>2016-06-03T09:20:38Z</time>
      </trkpt>
      <trkpt lat="44.31494" lon="3.77714">
        <ele>1267.54</ele>
        <time>2016-06-03T09:20:48Z</time>
      </trkpt>
      <trkpt lat="44.31493" lon="3.77725">
        <ele>1267.2</ele>
        <time>2016-06-03T09:20:58Z</time>
      </trkpt>
      <trkpt lat="44.31493" lon="3.77755">
        <ele>1268.14</ele>
        <time>2016-06-03T09:21:09Z</time>
      </trkpt>
      <trkpt lat="44.315" lon="3.77765">
        <ele>1271.74</ele>
        <time>2016-06-03T09:21:19Z</time>
      </trkpt>
      <trkpt lat="44.31497" lon="3.77781">
        <ele>1271.05</ele>
        <time>2016-06-03T09:21:29Z</time>
      </trkpt>
      <trkpt lat="44.31496" lon="3.77803">
        <ele>1271.98</ele>
        <time>2016-06-03T09:21:41Z</time>
      </trkpt>
      <trkpt lat="44.31493" lon="3.77817">
        <ele>1271.53</ele>
        <time>2016-06-03T09:21:52Z</time>
      </trkpt>
      <trkpt lat="44.3149" lon="3.77835">
        <ele>1271.84</ele>
        <time>2016-06-03T09:22:03Z</time>
      </trkpt>
      <trkpt lat="44.3149" lon="3.77847">
        <ele>1273.04</ele>
        <time>2016-06-03T09:22:13Z</time>
      </trkpt>
      <trkpt lat="44.31485" lon="3.77864">
        <ele>1272.89</ele>
        <time>2016-06-03T09:22:23Z</time>
      </trkpt>
      <trkpt lat="44.31482" lon="3.77872">
        <ele>1272.45</ele>
        <time>2016-06-03T09:22:36Z</time>
      </trkpt>
      <trkpt lat="44.31487" lon="3.77879">
        <ele>1275.29</ele>
        <time>2016-06-03T09:22:49Z</time>
      </trkpt>
      <trkpt lat="44.31484" lon="3.77888">
        <ele>1275.32</ele>
        <time>2016-06-03T09:23:00Z</time>
      </trkpt>
      <trkpt lat="44.31481" lon="3.77908">
        <ele>1276.86</ele>
        <time>2016-06-03T09:23:11Z</time>
      </trkpt>
      <trkpt lat="44.31478" lon="3.77924">
        <ele>1277.87</ele>
        <time>2016-06-03T09:23:21Z</time>
      </trkpt>
      <trkpt lat="44.31471" lon="3.77937">
        <ele>1277.11</ele>
        <time>2016-06-03T09:23:32Z</time>
      </trkpt>
      <trkpt lat="44.31464" lon="3.77943">
        <ele>1275.76</ele>
        <time>2016-06-03T09:23:42Z</time>
      </trkpt>
      <trkpt lat="44.31443" lon="3.77955">
        <ele>1271.16</ele>
        <time>2016-06-03T09:23:52Z</time>
      </trkpt>
      <trkpt lat="44.31429" lon="3.77967">
        <ele>1269.68</ele>
        <time>2016-06-03T09:24:03Z</time>
      </trkpt>
      <trkpt lat="44.31432" lon="3.7798">
        <ele>1273.2</ele>
        <time>2016-06-03T09:24:14Z</time>
      </trkpt>
      <trkpt lat="44.31419" lon="3.77987">
        <ele>1271.01</ele>
        <time>2016-06-03T09:24:24Z</time>
      </trkpt>
      <trkpt lat="44.31408" lon="3.77996">
        <ele>1270.04</ele>
        <time>2016-06-03T09:24:35Z</time>
      </trkpt>
      <trkpt lat="44.314" lon="3.78008">
        <ele>1270.62</ele>
        <time>2016-06-03T09:24:45Z</time>
      </trkpt>
      <trkpt lat="44.31392" lon="3.78015">
        <ele>1269.83</ele>
        <time>2016-06-03T09:24:56Z</time>
      </trkpt>
      <trkpt lat="44.31381" lon="3.78021">
        <ele>1268.69</ele>
        <time>2016-06-03T09:25:07Z</time>
      </trkpt>
      <trkpt lat="44.31368" lon="3.78029">
        <ele>1266.96</ele>
        <time>2016-06-03T09:25:17Z</time>
      </trkpt>
      <trkpt lat="44.31357" lon="3.78038">
        <ele>1266.09</ele>
        <time>2016-06-03T09:25:27Z</time>
      </trkpt>
      <trkpt lat="44.31341" lon="3.78042">
        <ele>1263.26</ele>
        <time>2016-06-03T09:25:38Z</time>
      </trkpt>
      <trkpt lat="44.31335" lon="3.78049">
        <ele>1262.76</ele>
        <time>2016-06-03T09:25:49Z</time>
      </trkpt>
      <trkpt lat="44.3132" lon="3.78051">
        <ele>1260.25</ele>
        <time>2016-06-03T09:26:00Z</time>
      </trkpt>
      <trkpt lat="44.31304" lon="3.78062">
        <ele>1258.68</ele>
        <time>2016-06-03T09:26:14Z</time>
      </trkpt>
      <trkpt lat="44.31294" lon="3.78071">
        <ele>1257.93</ele>
        <time>2016-06-03T09:26:25Z</time>
      </trkpt>
      <trkpt lat="44.31284" lon="3.78084">
        <ele>1257.35</ele>
        <time>2016-06-03T09:26:36Z</time>
      </trkpt>
      <trkpt lat="44.31286" lon="3.78104">
        <ele>1257.39</ele>
        <time>2016-06-03T09:26:46Z</time>
      </trkpt>
      <trkpt lat="44.31295" lon="3.78112">
        <ele>1258.54</ele>
        <time>2016-06-03T09:26:57Z</time>
      </trkpt>
      <trkpt lat="44.31302" lon="3.78128">
        <ele>1258.85</ele>
        <time>2016-06-03T09:27:07Z</time>
      </trkpt>
      <trkpt lat="44.31312" lon="3.78133">
        <ele>1260.43</ele>
        <time>2016-06-03T09:27:18Z</time>
      </trkpt>
      <trkpt lat="44.31326" lon="3.78153">
        <ele>1261.87</ele>
        <time>2016-06-03T09:27:28Z</time>
      </trkpt>
      <trkpt lat="44.31336" lon="3.78165">
        <ele>1262.78</ele>
        <time>2016-06-03T09:27:39Z</time>
      </trkpt>
      <trkpt lat="44.31341" lon="3.7817">
        <ele>1263.38</ele>
        <time>2016-06-03T09:27:49Z</time>
      </trkpt>
      <trkpt lat="44.31349" lon="3.78183">
        <ele>1263.08</ele>
        <time>2016-06-03T09:28:00Z</time>
      </trkpt>
      <trkpt lat="44.31363" lon="3.78192">
        <ele>1264.68</ele>
        <time>2016-06-03T09:28:11Z</time>
      </trkpt>
      <trkpt lat="44.31376" lon="3.78204">
        <ele>1265.25</ele>
        <time>2016-06-03T09:28:21Z</time>
      </trkpt>
      <trkpt lat="44.31378" lon="3.78223">
        <ele>1261.72</ele>
        <time>2016-06-03T09:28:31Z</time>
      </trkpt>
      <trkpt lat="44.31382" lon="3.78246">
        <ele>1258.42</ele>
        <time>2016-06-03T09:28:42Z</time>
      </trkpt>
      <trkpt lat="44.31392" lon="3.78254">
        <ele>1260.26</ele>
        <time>2016-06-03T09:28:53Z</time>
      </trkpt>
      <trkpt lat="44.31398" lon="3.78262">
        <ele>1260.69</ele>
        <time>2016-06-03T09:29:03Z</time>
      </trkpt>
      <trkpt lat="44.31399" lon="3.78272">
        <ele>1259.96</ele>
        <time>2016-06-03T09:32:16Z</time>
      </trkpt>
      <trkpt lat="44.31415" lon="3.78312">
        <ele>1259.62</ele>
        <time>2016-06-03T09:32:27Z</time>
      </trkpt>
      <trkpt lat="44.3142" lon="3.78333">
        <ele>1258.66</ele>
        <time>2016-06-03T09:32:37Z</time>
      </trkpt>
      <trkpt lat="44.31423" lon="3.78347">
        <ele>1257.83</ele>
        <time>2016-06-03T09:32:47Z</time>
      </trkpt>
      <trkpt lat="44.31432" lon="3.78358">
        <ele>1258.41</ele>
        <time>2016-06-03T09:32:58Z</time>
      </trkpt>
      <trkpt lat="44.3144" lon="3.78367">
        <ele>1258.93</ele>
        <time>2016-06-03T09:33:08Z</time>
      </trkpt>
      <trkpt lat="44.31461" lon="3.78373">
        <ele>1261.45</ele>
        <time>2016-06-03T09:33:19Z</time>
      </trkpt>
      <trkpt lat="44.31478" lon="3.78368">
        <ele>1264.74</ele>
        <time>2016-06-03T09:33:30Z</time>
      </trkpt>
      <trkpt lat="44.31484" lon="3.78378">
        <ele>1264.2</ele>
        <time>2016-06-03T09:33:41Z</time>
      </trkpt>
      <trkpt lat="44.31493" lon="3.78387">
        <ele>1264.48</ele>
        <time>2016-06-03T09:33:52Z</time>
      </trkpt>
      <trkpt lat="44.31502" lon="3.78384">
        <ele>1266.44</ele>
        <time>2016-06-03T09:34:02Z</time>
      </trkpt>
      <trkpt lat="44.31518" lon="3.78383">
        <ele>1269.23</ele>
        <time>2016-06-03T09:34:13Z</time>
      </trkpt>
      <trkpt lat="44.31527" lon="3.78399">
        <ele>1268.83</ele>
        <time>2016-06-03T09:34:24Z</time>
      </trkpt>
      <trkpt lat="44.31529" lon="3.78416">
        <ele>1267.34</ele>
        <time>2016-06-03T09:34:35Z</time>
      </trkpt>
      <trkpt lat="44.31528" lon="3.78432">
        <ele>1265.78</ele>
        <time>2016-06-03T09:34:45Z</time>
      </trkpt>
      <trkpt lat="44.31534" lon="3.78445">
        <ele>1265.84</ele>
        <time>2016-06-03T09:34:56Z</time>
      </trkpt>
      <trkpt lat="44.31542" lon="3.78457">
        <ele>1266.84</ele>
        <time>2016-06-03T09:35:06Z</time>
      </trkpt>
      <trkpt lat="44.31548" lon="3.78473">
        <ele>1267.04</ele>
        <time>2016-06-03T09:35:17Z</time>
      </trkpt>
      <trkpt lat="44.31553" lon="3.78486">
        <ele>1267.22</ele>
        <time>2016-06-03T09:35:28Z</time>
      </trkpt>
      <trkpt lat="44.31557" lon="3.78503">
        <ele>1266.41</ele>
        <time>2016-06-03T09:35:38Z</time>
      </trkpt>
      <trkpt lat="44.31566" lon="3.78507">
        <ele>1267.67</ele>
        <time>2016-06-03T09:36:12Z</time>
      </trkpt>
      <trkpt lat="44.31581" lon="3.78528">
        <ele>1267.64</ele>
        <time>2016-06-03T09:36:22Z</time>
      </trkpt>
      <trkpt lat="44.31591" lon="3.78552">
        <ele>1265.49</ele>
        <time>2016-06-03T09:36:35Z</time>
      </trkpt>
      <trkpt lat="44.3161" lon="3.78561">
        <ele>1267.23</ele>
        <time>2016-06-03T09:36:46Z</time>
      </trkpt>
      <trkpt lat="44.31637" lon="3.7856">
        <ele>1272.32</ele>
        <time>2016-06-03T09:36:57Z</time>
      </trkpt>
      <trkpt lat="44.31649" lon="3.78568">
        <ele>1273.12</ele>
        <time>2016-06-03T09:37:07Z</time>
      </trkpt>
      <trkpt lat="44.31657" lon="3.78573">
        <ele>1273.79</ele>
        <time>2016-06-03T09:38:00Z</time>
      </trkpt>
      <trkpt lat="44.31676" lon="3.78595">
        <ele>1274.14</ele>
        <time>2016-06-03T09:38:11Z</time>
      </trkpt>
      <trkpt lat="44.31694" lon="3.78607">
        <ele>1275.74</ele>
        <time>2016-06-03T09:38:21Z</time>
      </trkpt>
      <trkpt lat="44.31708" lon="3.78616">
        <ele>1277.02</ele>
        <time>2016-06-03T09:38:31Z</time>
      </trkpt>
      <trkpt lat="44.31718" lon="3.78632">
        <ele>1277.12</ele>
        <time>2016-06-03T09:38:42Z</time>
      </trkpt>
      <trkpt lat="44.31727" lon="3.78642">
        <ele>1277.42</ele>
        <time>2016-06-03T09:38:53Z</time>
      </trkpt>
      <trkpt lat="44.31731" lon="3.78663">
        <ele>1276.21</ele>
        <time>2016-06-03T09:39:04Z</time>
      </trkpt>
      <trkpt lat="44.31737" lon="3.78674">
        <ele>1276.23</ele>
        <time>2016-06-03T09:39:14Z</time>
      </trkpt>
      <trkpt lat="44.3174" lon="3.78689">
        <ele>1275.54</ele>
        <time>2016-06-03T09:39:25Z</time>
      </trkpt>
      <trkpt lat="44.31753" lon="3.7869">
        <ele>1276.72</ele>
        <time>2016-06-03T09:39:35Z</time>
      </trkpt>
      <trkpt lat="44.31756" lon="3.78712">
        <ele>1275.92</ele>
        <time>2016-06-03T09:39:45Z</time>
      </trkpt>
      <trkpt lat="44.31761" lon="3.78723">
        <ele>1275.89</ele>
        <time>2016-06-03T09:39:56Z</time>
      </trkpt>
      <trkpt lat="44.31773" lon="3.78726">
        <ele>1276.51</ele>
        <time>2016-06-03T09:40:06Z</time>
      </trkpt>
      <trkpt lat="44.31774" lon="3.78739">
        <ele>1276.27</ele>
        <time>2016-06-03T09:40:17Z</time>
      </trkpt>
      <trkpt lat="44.31787" lon="3.78747">
        <ele>1276.59</ele>
        <time>2016-06-03T09:40:28Z</time>
      </trkpt>
      <trkpt lat="44.31784" lon="3.78764">
        <ele>1276.17</ele>
        <time>2016-06-03T09:40:38Z</time>
      </trkpt>
      <trkpt lat="44.31802" lon="3.78782">
        <ele>1276.24</ele>
        <time>2016-06-03T09:40:48Z</time>
      </trkpt>
      <trkpt lat="44.31801" lon="3.78793">
        <ele>1276.14</ele>
        <time>2016-06-03T09:40:58Z</time>
      </trkpt>
      <trkpt lat="44.31802" lon="3.788">
        <ele>1276.1</ele>
        <time>2016-06-03T09:41:22Z</time>
      </trkpt>
      <trkpt lat="44.31803" lon="3.78793">
        <ele>1276.15</ele>
        <time>2016-06-03T09:41:57Z</time>
      </trkpt>
      <trkpt lat="44.31808" lon="3.78787">
        <ele>1276.19</ele>
        <time>2016-06-03T09:43:19Z</time>
      </trkpt>
      <trkpt lat="44.318" lon="3.78805">
        <ele>1276.07</ele>
        <time>2016-06-03T09:43:31Z</time>
      </trkpt>
      <trkpt lat="44.31798" lon="3.78811">
        <ele>1276.04</ele>
        <time>2016-06-03T09:43:49Z</time>
      </trkpt>
      <trkpt lat="44.31794" lon="3.78831">
        <ele>1276.05</ele>
        <time>2016-06-03T09:43:59Z</time>
      </trkpt>
      <trkpt lat="44.31786" lon="3.7884">
        <ele>1275.88</ele>
        <time>2016-06-03T09:44:10Z</time>
      </trkpt>
      <trkpt lat="44.31782" lon="3.78859">
        <ele>1275.9</ele>
        <time>2016-06-03T09:44:20Z</time>
      </trkpt>
      <trkpt lat="44.3178" lon="3.78887">
        <ele>1276.28</ele>
        <time>2016-06-03T09:44:31Z</time>
      </trkpt>
      <trkpt lat="44.31767" lon="3.78898">
        <ele>1275.1</ele>
        <time>2016-06-03T09:44:42Z</time>
      </trkpt>
      <trkpt lat="44.31764" lon="3.7891">
        <ele>1274.9</ele>
        <time>2016-06-03T09:44:52Z</time>
      </trkpt>
      <trkpt lat="44.31757" lon="3.78928">
        <ele>1274.2</ele>
        <time>2016-06-03T09:45:03Z</time>
      </trkpt>
      <trkpt lat="44.31755" lon="3.78941">
        <ele>1274.22</ele>
        <time>2016-06-03T09:45:13Z</time>
      </trkpt>
      <trkpt lat="44.3175" lon="3.78955">
        <ele>1273.93</ele>
        <time>2016-06-03T09:45:23Z</time>
      </trkpt>
      <trkpt lat="44.31744" lon="3.78972">
        <ele>1273.54</ele>
        <time>2016-06-03T09:45:33Z</time>
      </trkpt>
      <trkpt lat="44.31743" lon="3.78994">
        <ele>1273.77</ele>
        <time>2016-06-03T09:45:44Z</time>
      </trkpt>
      <trkpt lat="44.31741" lon="3.7901">
        <ele>1273.44</ele>
        <time>2016-06-03T09:45:55Z</time>
      </trkpt>
      <trkpt lat="44.31743" lon="3.79018">
        <ele>1273.8</ele>
        <time>2016-06-03T09:46:06Z</time>
      </trkpt>
      <trkpt lat="44.31745" lon="3.79035">
        <ele>1274.07</ele>
        <time>2016-06-03T09:46:18Z</time>
      </trkpt>
      <trkpt lat="44.31737" lon="3.79052">
        <ele>1272.15</ele>
        <time>2016-06-03T09:46:31Z</time>
      </trkpt>
      <trkpt lat="44.31734" lon="3.79071">
        <ele>1271.13</ele>
        <time>2016-06-03T09:46:41Z</time>
      </trkpt>
      <trkpt lat="44.31733" lon="3.79093">
        <ele>1270.16</ele>
        <time>2016-06-03T09:46:52Z</time>
      </trkpt>
      <trkpt lat="44.31729" lon="3.79115">
        <ele>1268.59</ele>
        <time>2016-06-03T09:47:03Z</time>
      </trkpt>
      <trkpt lat="44.31729" lon="3.79134">
        <ele>1267.76</ele>
        <time>2016-06-03T09:47:13Z</time>
      </trkpt>
      <trkpt lat="44.31731" lon="3.79153">
        <ele>1267.21</ele>
        <time>2016-06-03T09:47:23Z</time>
      </trkpt>
      <trkpt lat="44.31729" lon="3.79165">
        <ele>1265.63</ele>
        <time>2016-06-03T09:47:34Z</time>
      </trkpt>
      <trkpt lat="44.31736" lon="3.79178">
        <ele>1266.57</ele>
        <time>2016-06-03T09:47:44Z</time>
      </trkpt>
      <trkpt lat="44.31741" lon="3.79183">
        <ele>1267.17</ele>
        <time>2016-06-03T09:47:56Z</time>
      </trkpt>
      <trkpt lat="44.31747" lon="3.79203">
        <ele>1266.59</ele>
        <time>2016-06-03T09:48:06Z</time>
      </trkpt>
      <trkpt lat="44.31749" lon="3.79219">
        <ele>1265.02</ele>
        <time>2016-06-03T09:48:16Z</time>
      </trkpt>
      <trkpt lat="44.31752" lon="3.79236">
        <ele>1263.29</ele>
        <time>2016-06-03T09:48:26Z</time>
      </trkpt>
      <trkpt lat="44.31752" lon="3.79255">
        <ele>1260.93</ele>
        <time>2016-06-03T09:48:37Z</time>
      </trkpt>
      <trkpt lat="44.31761" lon="3.79271">
        <ele>1261.1</ele>
        <time>2016-06-03T09:48:48Z</time>
      </trkpt>
      <trkpt lat="44.31764" lon="3.79288">
        <ele>1259.43</ele>
        <time>2016-06-03T09:48:58Z</time>
      </trkpt>
      <trkpt lat="44.31768" lon="3.793">
        <ele>1258.72</ele>
        <time>2016-06-03T09:49:09Z</time>
      </trkpt>
      <trkpt lat="44.31778" lon="3.7932">
        <ele>1258.62</ele>
        <time>2016-06-03T09:49:21Z</time>
      </trkpt>
      <trkpt lat="44.31778" lon="3.79338">
        <ele>1256.16</ele>
        <time>2016-06-03T09:49:31Z</time>
      </trkpt>
      <trkpt lat="44.31783" lon="3.79359">
        <ele>1254.29</ele>
        <time>2016-06-03T09:49:42Z</time>
      </trkpt>
      <trkpt lat="44.31782" lon="3.79374">
        <ele>1251.84</ele>
        <time>2016-06-03T09:49:52Z</time>
      </trkpt>
      <trkpt lat="44.31786" lon="3.79392">
        <ele>1250.23</ele>
        <time>2016-06-03T09:50:02Z</time>
      </trkpt>
      <trkpt lat="44.31789" lon="3.79407">
        <ele>1249.33</ele>
        <time>2016-06-03T09:50:13Z</time>
      </trkpt>
      <trkpt lat="44.31793" lon="3.79422">
        <ele>1248.66</ele>
        <time>2016-06-03T09:50:23Z</time>
      </trkpt>
      <trkpt lat="44.31797" lon="3.79443">
        <ele>1247.18</ele>
        <time>2016-06-03T09:50:33Z</time>
      </trkpt>
      <trkpt lat="44.31799" lon="3.7946">
        <ele>1245.92</ele>
        <time>2016-06-03T09:50:44Z</time>
      </trkpt>
      <trkpt lat="44.31808" lon="3.79469">
        <ele>1246.47</ele>
        <time>2016-06-03T09:50:55Z</time>
      </trkpt>
      <trkpt lat="44.31812" lon="3.79484">
        <ele>1245.64</ele>
        <time>2016-06-03T09:51:05Z</time>
      </trkpt>
      <trkpt lat="44.31822" lon="3.79489">
        <ele>1246.05</ele>
        <time>2016-06-03T09:51:16Z</time>
      </trkpt>
      <trkpt lat="44.31822" lon="3.79518">
        <ele>1245.88</ele>
        <time>2016-06-03T09:51:49Z</time>
      </trkpt>
      <trkpt lat="44.31828" lon="3.7953">
        <ele>1246.84</ele>
        <time>2016-06-03T09:52:00Z</time>
      </trkpt>
      <trkpt lat="44.31837" lon="3.79539">
        <ele>1247.61</ele>
        <time>2016-06-03T09:52:12Z</time>
      </trkpt>
      <trkpt lat="44.31845" lon="3.79558">
        <ele>1249.08</ele>
        <time>2016-06-03T09:52:23Z</time>
      </trkpt>
      <trkpt lat="44.31847" lon="3.7957">
        <ele>1250.08</ele>
        <time>2016-06-03T09:52:33Z</time>
      </trkpt>
      <trkpt lat="44.31849" lon="3.7959">
        <ele>1251.66</ele>
        <time>2016-06-03T09:52:44Z</time>
      </trkpt>
      <trkpt lat="44.31855" lon="3.79608">
        <ele>1252.62</ele>
        <time>2016-06-03T09:52:54Z</time>
      </trkpt>
      <trkpt lat="44.3186" lon="3.79622">
        <ele>1253.15</ele>
        <time>2016-06-03T09:53:04Z</time>
      </trkpt>
      <trkpt lat="44.31855" lon="3.79644">
        <ele>1256.3</ele>
        <time>2016-06-03T09:53:14Z</time>
      </trkpt>
      <trkpt lat="44.31868" lon="3.79658">
        <ele>1254.61</ele>
        <time>2016-06-03T09:53:25Z</time>
      </trkpt>
      <trkpt lat="44.31871" lon="3.79671">
        <ele>1254.7</ele>
        <time>2016-06-03T09:53:35Z</time>
      </trkpt>
      <trkpt lat="44.31872" lon="3.79688">
        <ele>1255.42</ele>
        <time>2016-06-03T09:53:46Z</time>
      </trkpt>
      <trkpt lat="44.3188" lon="3.79702">
        <ele>1253.46</ele>
        <time>2016-06-03T09:53:56Z</time>
      </trkpt>
      <trkpt lat="44.31872" lon="3.79718">
        <ele>1256.95</ele>
        <time>2016-06-03T09:54:06Z</time>
      </trkpt>
      <trkpt lat="44.31878" lon="3.79745">
        <ele>1256</ele>
        <time>2016-06-03T09:54:17Z</time>
      </trkpt>
      <trkpt lat="44.31878" lon="3.79763">
        <ele>1257.15</ele>
        <time>2016-06-03T09:54:27Z</time>
      </trkpt>
      <trkpt lat="44.3188" lon="3.79778">
        <ele>1257.3</ele>
        <time>2016-06-03T09:54:38Z</time>
      </trkpt>
      <trkpt lat="44.31882" lon="3.79792">
        <ele>1257.61</ele>
        <time>2016-06-03T09:54:49Z</time>
      </trkpt>
      <trkpt lat="44.3188" lon="3.79809">
        <ele>1259.14</ele>
        <time>2016-06-03T09:54:59Z</time>
      </trkpt>
      <trkpt lat="44.31897" lon="3.79818">
        <ele>1255.48</ele>
        <time>2016-06-03T09:55:10Z</time>
      </trkpt>
      <trkpt lat="44.31901" lon="3.79832">
        <ele>1255.28</ele>
        <time>2016-06-03T09:55:22Z</time>
      </trkpt>
      <trkpt lat="44.31901" lon="3.79855">
        <ele>1256.23</ele>
        <time>2016-06-03T09:55:32Z</time>
      </trkpt>
      <trkpt lat="44.31912" lon="3.79868">
        <ele>1254.31</ele>
        <time>2016-06-03T09:55:43Z</time>
      </trkpt>
      <trkpt lat="44.31904" lon="3.79879">
        <ele>1256.07</ele>
        <time>2016-06-03T09:55:53Z</time>
      </trkpt>
      <trkpt lat="44.31895" lon="3.79905">
        <ele>1257.36</ele>
        <time>2016-06-03T09:56:03Z</time>
      </trkpt>
      <trkpt lat="44.3189" lon="3.79909">
        <ele>1257.95</ele>
        <time>2016-06-03T09:56:14Z</time>
      </trkpt>
      <trkpt lat="44.31876" lon="3.79925">
        <ele>1259.11</ele>
        <time>2016-06-03T09:56:25Z</time>
      </trkpt>
      <trkpt lat="44.31866" lon="3.79923">
        <ele>1260.65</ele>
        <time>2016-06-03T09:56:35Z</time>
      </trkpt>
      <trkpt lat="44.31851" lon="3.79937">
        <ele>1261.1</ele>
        <time>2016-06-03T09:56:47Z</time>
      </trkpt>
      <trkpt lat="44.31843" lon="3.7995">
        <ele>1260.22</ele>
        <time>2016-06-03T09:56:57Z</time>
      </trkpt>
      <trkpt lat="44.31835" lon="3.79957">
        <ele>1259.71</ele>
        <time>2016-06-03T09:57:08Z</time>
      </trkpt>
      <trkpt lat="44.31826" lon="3.79972">
        <ele>1258.07</ele>
        <time>2016-06-03T09:57:19Z</time>
      </trkpt>
      <trkpt lat="44.31816" lon="3.79993">
        <ele>1255.61</ele>
        <time>2016-06-03T09:57:29Z</time>
      </trkpt>
      <trkpt lat="44.3181" lon="3.79993">
        <ele>1255.69</ele>
        <time>2016-06-03T09:58:30Z</time>
      </trkpt>
      <trkpt lat="44.31802" lon="3.8002">
        <ele>1252.82</ele>
        <time>2016-06-03T09:58:40Z</time>
      </trkpt>
      <trkpt lat="44.31793" lon="3.80035">
        <ele>1251.45</ele>
        <time>2016-06-03T09:58:50Z</time>
      </trkpt>
      <trkpt lat="44.31784" lon="3.80054">
        <ele>1249.83</ele>
        <time>2016-06-03T09:59:00Z</time>
      </trkpt>
      <trkpt lat="44.31783" lon="3.80047">
        <ele>1250.48</ele>
        <time>2016-06-03T09:59:36Z</time>
      </trkpt>
      <trkpt lat="44.3176" lon="3.80082">
        <ele>1247.95</ele>
        <time>2016-06-03T09:59:46Z</time>
      </trkpt>
      <trkpt lat="44.31751" lon="3.80097">
        <ele>1246.88</ele>
        <time>2016-06-03T09:59:56Z</time>
      </trkpt>
      <trkpt lat="44.31747" lon="3.80114">
        <ele>1246.53</ele>
        <time>2016-06-03T10:00:07Z</time>
      </trkpt>
      <trkpt lat="44.31744" lon="3.80131">
        <ele>1246.44</ele>
        <time>2016-06-03T10:00:17Z</time>
      </trkpt>
      <trkpt lat="44.31738" lon="3.80144">
        <ele>1246.14</ele>
        <time>2016-06-03T10:00:28Z</time>
      </trkpt>
      <trkpt lat="44.31725" lon="3.80152">
        <ele>1244.79</ele>
        <time>2016-06-03T10:00:39Z</time>
      </trkpt>
      <trkpt lat="44.31721" lon="3.80169">
        <ele>1244.92</ele>
        <time>2016-06-03T10:00:49Z</time>
      </trkpt>
      <trkpt lat="44.31721" lon="3.80184">
        <ele>1245.4</ele>
        <time>2016-06-03T10:00:59Z</time>
      </trkpt>
      <trkpt lat="44.31713" lon="3.802">
        <ele>1244.87</ele>
        <time>2016-06-03T10:01:10Z</time>
      </trkpt>
      <trkpt lat="44.3171" lon="3.80214">
        <ele>1244.73</ele>
        <time>2016-06-03T10:01:20Z</time>
      </trkpt>
      <trkpt lat="44.31708" lon="3.8023">
        <ele>1244.86</ele>
        <time>2016-06-03T10:01:30Z</time>
      </trkpt>
      <trkpt lat="44.31697" lon="3.80241">
        <ele>1243.65</ele>
        <time>2016-06-03T10:01:41Z</time>
      </trkpt>
      <trkpt lat="44.31692" lon="3.80257">
        <ele>1243.28</ele>
        <time>2016-06-03T10:01:52Z</time>
      </trkpt>
      <trkpt lat="44.31695" lon="3.80276">
        <ele>1243.69</ele>
        <time>2016-06-03T10:02:03Z</time>
      </trkpt>
      <trkpt lat="44.31694" lon="3.80299">
        <ele>1243.54</ele>
        <time>2016-06-03T10:02:13Z</time>
      </trkpt>
      <trkpt lat="44.31696" lon="3.80315">
        <ele>1243.91</ele>
        <time>2016-06-03T10:02:24Z</time>
      </trkpt>
      <trkpt lat="44.31698" lon="3.80328">
        <ele>1244.38</ele>
        <time>2016-06-03T10:02:34Z</time>
      </trkpt>
      <trkpt lat="44.31691" lon="3.80347">
        <ele>1243.79</ele>
        <time>2016-06-03T10:02:45Z</time>
      </trkpt>
      <trkpt lat="44.3169" lon="3.80364">
        <ele>1244.04</ele>
        <time>2016-06-03T10:02:55Z</time>
      </trkpt>
      <trkpt lat="44.31696" lon="3.80372">
        <ele>1245.6</ele>
        <time>2016-06-03T10:03:06Z</time>
      </trkpt>
      <trkpt lat="44.317" lon="3.80381">
        <ele>1246.8</ele>
        <time>2016-06-03T10:03:16Z</time>
      </trkpt>
      <trkpt lat="44.31704" lon="3.80397">
        <ele>1248.36</ele>
        <time>2016-06-03T10:03:26Z</time>
      </trkpt>
      <trkpt lat="44.31715" lon="3.8041">
        <ele>1250.9</ele>
        <time>2016-06-03T10:03:37Z</time>
      </trkpt>
      <trkpt lat="44.31719" lon="3.80415">
        <ele>1251.65</ele>
        <time>2016-06-03T10:03:50Z</time>
      </trkpt>
      <trkpt lat="44.31718" lon="3.80428">
        <ele>1252.49</ele>
        <time>2016-06-03T10:04:00Z</time>
      </trkpt>
      <trkpt lat="44.31718" lon="3.80454">
        <ele>1254.42</ele>
        <time>2016-06-03T10:04:12Z</time>
      </trkpt>
      <trkpt lat="44.31721" lon="3.8046">
        <ele>1255.28</ele>
        <time>2016-06-03T10:04:22Z</time>
      </trkpt>
      <trkpt lat="44.31725" lon="3.80466">
        <ele>1256.36</ele>
        <time>2016-06-03T10:04:32Z</time>
      </trkpt>
      <trkpt lat="44.31724" lon="3.80484">
        <ele>1257.82</ele>
        <time>2016-06-03T10:04:43Z</time>
      </trkpt>
      <trkpt lat="44.31725" lon="3.80495">
        <ele>1258.93</ele>
        <time>2016-06-03T10:04:54Z</time>
      </trkpt>
      <trkpt lat="44.31728" lon="3.80514">
        <ele>1261.11</ele>
        <time>2016-06-03T10:05:28Z</time>
      </trkpt>
      <trkpt lat="44.31736" lon="3.80533">
        <ele>1264.13</ele>
        <time>2016-06-03T10:05:38Z</time>
      </trkpt>
      <trkpt lat="44.31737" lon="3.80551">
        <ele>1266.02</ele>
        <time>2016-06-03T10:05:49Z</time>
      </trkpt>
      <trkpt lat="44.31734" lon="3.80555">
        <ele>1266.11</ele>
        <time>2016-06-03T10:06:01Z</time>
      </trkpt>
      <trkpt lat="44.31739" lon="3.80571">
        <ele>1268.19</ele>
        <time>2016-06-03T10:06:11Z</time>
      </trkpt>
      <trkpt lat="44.31735" lon="3.80586">
        <ele>1269.26</ele>
        <time>2016-06-03T10:06:21Z</time>
      </trkpt>
      <trkpt lat="44.31737" lon="3.80601">
        <ele>1270.92</ele>
        <time>2016-06-03T10:06:33Z</time>
      </trkpt>
      <trkpt lat="44.31739" lon="3.80608">
        <ele>1271.7</ele>
        <time>2016-06-03T10:06:43Z</time>
      </trkpt>
      <trkpt lat="44.31741" lon="3.80622">
        <ele>1273.15</ele>
        <time>2016-06-03T10:07:20Z</time>
      </trkpt>
      <trkpt lat="44.31732" lon="3.80633">
        <ele>1273.5</ele>
        <time>2016-06-03T10:07:30Z</time>
      </trkpt>
      <trkpt lat="44.31724" lon="3.80648">
        <ele>1273.98</ele>
        <time>2016-06-03T10:07:40Z</time>
      </trkpt>
      <trkpt lat="44.31722" lon="3.80676">
        <ele>1276.07</ele>
        <time>2016-06-03T10:07:51Z</time>
      </trkpt>
      <trkpt lat="44.3172" lon="3.80691">
        <ele>1277.02</ele>
        <time>2016-06-03T10:08:01Z</time>
      </trkpt>
      <trkpt lat="44.31714" lon="3.80708">
        <ele>1277.71</ele>
        <time>2016-06-03T10:08:11Z</time>
      </trkpt>
      <trkpt lat="44.31714" lon="3.80721">
        <ele>1278.42</ele>
        <time>2016-06-03T10:08:22Z</time>
      </trkpt>
      <trkpt lat="44.31703" lon="3.80727">
        <ele>1277.9</ele>
        <time>2016-06-03T10:08:33Z</time>
      </trkpt>
      <trkpt lat="44.31704" lon="3.80734">
        <ele>1278.24</ele>
        <time>2016-06-03T10:08:48Z</time>
      </trkpt>
      <trkpt lat="44.31697" lon="3.8075">
        <ele>1278.11</ele>
        <time>2016-06-03T10:09:24Z</time>
      </trkpt>
      <trkpt lat="44.31692" lon="3.80755">
        <ele>1277.75</ele>
        <time>2016-06-03T10:09:49Z</time>
      </trkpt>
      <trkpt lat="44.31683" lon="3.80767">
        <ele>1277.14</ele>
        <time>2016-06-03T10:10:00Z</time>
      </trkpt>
      <trkpt lat="44.31676" lon="3.80781">
        <ele>1276.66</ele>
        <time>2016-06-03T10:10:11Z</time>
      </trkpt>
      <trkpt lat="44.31667" lon="3.80797">
        <ele>1275.96</ele>
        <time>2016-06-03T10:10:21Z</time>
      </trkpt>
      <trkpt lat="44.31657" lon="3.80806">
        <ele>1275.29</ele>
        <time>2016-06-03T10:10:31Z</time>
      </trkpt>
      <trkpt lat="44.31646" lon="3.80818">
        <ele>1274.52</ele>
        <time>2016-06-03T10:10:42Z</time>
      </trkpt>
      <trkpt lat="44.31636" lon="3.8083">
        <ele>1274</ele>
        <time>2016-06-03T10:10:53Z</time>
      </trkpt>
      <trkpt lat="44.31625" lon="3.80843">
        <ele>1273.7</ele>
        <time>2016-06-03T10:11:03Z</time>
      </trkpt>
      <trkpt lat="44.31616" lon="3.80854">
        <ele>1273.77</ele>
        <time>2016-06-03T10:11:13Z</time>
      </trkpt>
      <trkpt lat="44.31609" lon="3.80864">
        <ele>1274.1</ele>
        <time>2016-06-03T10:11:30Z</time>
      </trkpt>
      <trkpt lat="44.31601" lon="3.80869">
        <ele>1274.01</ele>
        <time>2016-06-03T10:11:41Z</time>
      </trkpt>
      <trkpt lat="44.3159" lon="3.80882">
        <ele>1274.64</ele>
        <time>2016-06-03T10:11:52Z</time>
      </trkpt>
      <trkpt lat="44.31583" lon="3.80895">
        <ele>1275.27</ele>
        <time>2016-06-03T10:12:02Z</time>
      </trkpt>
      <trkpt lat="44.31577" lon="3.809">
        <ele>1275.19</ele>
        <time>2016-06-03T10:12:12Z</time>
      </trkpt>
      <trkpt lat="44.31568" lon="3.80913">
        <ele>1274.88</ele>
        <time>2016-06-03T10:12:23Z</time>
      </trkpt>
      <trkpt lat="44.31566" lon="3.80927">
        <ele>1275.75</ele>
        <time>2016-06-03T10:12:34Z</time>
      </trkpt>
      <trkpt lat="44.31557" lon="3.80943">
        <ele>1275.59</ele>
        <time>2016-06-03T10:12:44Z</time>
      </trkpt>
      <trkpt lat="44.3155" lon="3.80957">
        <ele>1275.91</ele>
        <time>2016-06-03T10:12:55Z</time>
      </trkpt>
      <trkpt lat="44.31545" lon="3.80969">
        <ele>1276.64</ele>
        <time>2016-06-03T10:13:05Z</time>
      </trkpt>
      <trkpt lat="44.3154" lon="3.80984">
        <ele>1277.68</ele>
        <time>2016-06-03T10:13:16Z</time>
      </trkpt>
      <trkpt lat="44.31537" lon="3.80992">
        <ele>1278.29</ele>
        <time>2016-06-03T10:13:26Z</time>
      </trkpt>
      <trkpt lat="44.31531" lon="3.81">
        <ele>1278.82</ele>
        <time>2016-06-03T10:13:37Z</time>
      </trkpt>
      <trkpt lat="44.31526" lon="3.81013">
        <ele>1279.79</ele>
        <time>2016-06-03T10:13:47Z</time>
      </trkpt>
      <trkpt lat="44.31521" lon="3.81023">
        <ele>1280.58</ele>
        <time>2016-06-03T10:13:58Z</time>
      </trkpt>
      <trkpt lat="44.31517" lon="3.8103">
        <ele>1281.14</ele>
        <time>2016-06-03T10:14:08Z</time>
      </trkpt>
      <trkpt lat="44.31509" lon="3.81036">
        <ele>1281.79</ele>
        <time>2016-06-03T10:14:18Z</time>
      </trkpt>
      <trkpt lat="44.315" lon="3.81042">
        <ele>1282.55</ele>
        <time>2016-06-03T10:14:29Z</time>
      </trkpt>
      <trkpt lat="44.31494" lon="3.81055">
        <ele>1284.13</ele>
        <time>2016-06-03T10:14:39Z</time>
      </trkpt>
      <trkpt lat="44.31487" lon="3.81062">
        <ele>1285.26</ele>
        <time>2016-06-03T10:14:50Z</time>
      </trkpt>
      <trkpt lat="44.31479" lon="3.81068">
        <ele>1286.57</ele>
        <time>2016-06-03T10:15:01Z</time>
      </trkpt>
      <trkpt lat="44.31472" lon="3.81074">
        <ele>1287.8</ele>
        <time>2016-06-03T10:15:11Z</time>
      </trkpt>
      <trkpt lat="44.31465" lon="3.81078">
        <ele>1288.85</ele>
        <time>2016-06-03T10:15:21Z</time>
      </trkpt>
      <trkpt lat="44.31457" lon="3.81087">
        <ele>1290.74</ele>
        <time>2016-06-03T10:15:31Z</time>
      </trkpt>
      <trkpt lat="44.31452" lon="3.81091">
        <ele>1291.67</ele>
        <time>2016-06-03T10:15:43Z</time>
      </trkpt>
      <trkpt lat="44.31443" lon="3.81103">
        <ele>1293.92</ele>
        <time>2016-06-03T10:15:54Z</time>
      </trkpt>
      <trkpt lat="44.31435" lon="3.81106">
        <ele>1294.78</ele>
        <time>2016-06-03T10:16:05Z</time>
      </trkpt>
      <trkpt lat="44.31425" lon="3.81106">
        <ele>1295.27</ele>
        <time>2016-06-03T10:16:15Z</time>
      </trkpt>
      <trkpt lat="44.31418" lon="3.81113">
        <ele>1296.32</ele>
        <time>2016-06-03T10:16:26Z</time>
      </trkpt>
      <trkpt lat="44.31409" lon="3.81117">
        <ele>1296.92</ele>
        <time>2016-06-03T10:16:36Z</time>
      </trkpt>
      <trkpt lat="44.31405" lon="3.81122">
        <ele>1297.75</ele>
        <time>2016-06-03T10:16:46Z</time>
      </trkpt>
      <trkpt lat="44.31391" lon="3.81121">
        <ele>1297.4</ele>
        <time>2016-06-03T10:16:57Z</time>
      </trkpt>
      <trkpt lat="44.31393" lon="3.81141">
        <ele>1300.31</ele>
        <time>2016-06-03T10:17:07Z</time>
      </trkpt>
      <trkpt lat="44.31382" lon="3.81154">
        <ele>1302.43</ele>
        <time>2016-06-03T10:17:17Z</time>
      </trkpt>
      <trkpt lat="44.3138" lon="3.81162">
        <ele>1303.63</ele>
        <time>2016-06-03T10:17:28Z</time>
      </trkpt>
      <trkpt lat="44.3137" lon="3.81169">
        <ele>1305.02</ele>
        <time>2016-06-03T10:17:38Z</time>
      </trkpt>
      <trkpt lat="44.31376" lon="3.81186">
        <ele>1306.57</ele>
        <time>2016-06-03T10:17:49Z</time>
      </trkpt>
      <trkpt lat="44.31361" lon="3.81179">
        <ele>1306.97</ele>
        <time>2016-06-03T10:18:00Z</time>
      </trkpt>
      <trkpt lat="44.31357" lon="3.81186">
        <ele>1308.12</ele>
        <time>2016-06-03T10:18:11Z</time>
      </trkpt>
      <trkpt lat="44.31353" lon="3.81197">
        <ele>1309.91</ele>
        <time>2016-06-03T10:18:22Z</time>
      </trkpt>
      <trkpt lat="44.31348" lon="3.81203">
        <ele>1311.02</ele>
        <time>2016-06-03T10:18:32Z</time>
      </trkpt>
      <trkpt lat="44.31342" lon="3.81215">
        <ele>1313</ele>
        <time>2016-06-03T10:18:44Z</time>
      </trkpt>
      <trkpt lat="44.31338" lon="3.81221">
        <ele>1313.97</ele>
        <time>2016-06-03T10:18:56Z</time>
      </trkpt>
      <trkpt lat="44.31328" lon="3.81224">
        <ele>1314.7</ele>
        <time>2016-06-03T10:19:06Z</time>
      </trkpt>
      <trkpt lat="44.31323" lon="3.81236">
        <ele>1316.47</ele>
        <time>2016-06-03T10:19:16Z</time>
      </trkpt>
      <trkpt lat="44.31323" lon="3.81243">
        <ele>1317.53</ele>
        <time>2016-06-03T10:19:27Z</time>
      </trkpt>
      <trkpt lat="44.31316" lon="3.81254">
        <ele>1319.22</ele>
        <time>2016-06-03T10:19:37Z</time>
      </trkpt>
      <trkpt lat="44.3132" lon="3.81261">
        <ele>1320.09</ele>
        <time>2016-06-03T10:19:47Z</time>
      </trkpt>
      <trkpt lat="44.31314" lon="3.81261">
        <ele>1320.16</ele>
        <time>2016-06-03T10:19:58Z</time>
      </trkpt>
      <trkpt lat="44.31307" lon="3.81281">
        <ele>1323.22</ele>
        <time>2016-06-03T10:20:09Z</time>
      </trkpt>
      <trkpt lat="44.31305" lon="3.81288">
        <ele>1324.09</ele>
        <time>2016-06-03T10:20:21Z</time>
      </trkpt>
      <trkpt lat="44.313" lon="3.81288">
        <ele>1324.34</ele>
        <time>2016-06-03T10:20:32Z</time>
      </trkpt>
      <trkpt lat="44.31294" lon="3.81298">
        <ele>1325.81</ele>
        <time>2016-06-03T10:20:42Z</time>
      </trkpt>
      <trkpt lat="44.31289" lon="3.81305">
        <ele>1326.93</ele>
        <time>2016-06-03T10:20:52Z</time>
      </trkpt>
      <trkpt lat="44.31282" lon="3.81312">
        <ele>1328.05</ele>
        <time>2016-06-03T10:21:05Z</time>
      </trkpt>
      <trkpt lat="44.31277" lon="3.81322">
        <ele>1329.51</ele>
        <time>2016-06-03T10:21:16Z</time>
      </trkpt>
      <trkpt lat="44.31267" lon="3.81326">
        <ele>1330.27</ele>
        <time>2016-06-03T10:21:27Z</time>
      </trkpt>
      <trkpt lat="44.3127" lon="3.81345">
        <ele>1332.19</ele>
        <time>2016-06-03T10:21:38Z</time>
      </trkpt>
      <trkpt lat="44.31261" lon="3.81353">
        <ele>1333.39</ele>
        <time>2016-06-03T10:21:49Z</time>
      </trkpt>
      <trkpt lat="44.3126" lon="3.81363">
        <ele>1334.3</ele>
        <time>2016-06-03T10:22:00Z</time>
      </trkpt>
      <trkpt lat="44.31256" lon="3.81374">
        <ele>1335.35</ele>
        <time>2016-06-03T10:22:11Z</time>
      </trkpt>
      <trkpt lat="44.31249" lon="3.81375">
        <ele>1335.82</ele>
        <time>2016-06-03T10:22:21Z</time>
      </trkpt>
      <trkpt lat="44.31246" lon="3.81384">
        <ele>1336.49</ele>
        <time>2016-06-03T10:22:31Z</time>
      </trkpt>
      <trkpt lat="44.3124" lon="3.81391">
        <ele>1337.1</ele>
        <time>2016-06-03T10:22:43Z</time>
      </trkpt>
      <trkpt lat="44.31235" lon="3.81402">
        <ele>1337.73</ele>
        <time>2016-06-03T10:22:54Z</time>
      </trkpt>
      <trkpt lat="44.31227" lon="3.81407">
        <ele>1337.95</ele>
        <time>2016-06-03T10:23:05Z</time>
      </trkpt>
      <trkpt lat="44.31221" lon="3.81416">
        <ele>1338.2</ele>
        <time>2016-06-03T10:23:17Z</time>
      </trkpt>
      <trkpt lat="44.31212" lon="3.81431">
        <ele>1338.11</ele>
        <time>2016-06-03T10:23:28Z</time>
      </trkpt>
      <trkpt lat="44.31207" lon="3.81444">
        <ele>1337.71</ele>
        <time>2016-06-03T10:23:44Z</time>
      </trkpt>
      <trkpt lat="44.31202" lon="3.81449">
        <ele>1337.45</ele>
        <time>2016-06-03T10:23:55Z</time>
      </trkpt>
      <trkpt lat="44.31196" lon="3.8145">
        <ele>1337.25</ele>
        <time>2016-06-03T10:24:10Z</time>
      </trkpt>
      <trkpt lat="44.31199" lon="3.81456">
        <ele>1337.01</ele>
        <time>2016-06-03T10:24:53Z</time>
      </trkpt>
      <trkpt lat="44.31193" lon="3.81459">
        <ele>1336.72</ele>
        <time>2016-06-03T10:25:04Z</time>
      </trkpt>
      <trkpt lat="44.31197" lon="3.81456">
        <ele>1336.99</ele>
        <time>2016-06-03T10:26:06Z</time>
      </trkpt>
      <trkpt lat="44.31195" lon="3.81446">
        <ele>1337.32</ele>
        <time>2016-06-03T10:26:16Z</time>
      </trkpt>
      <trkpt lat="44.31199" lon="3.81448">
        <ele>1337.4</ele>
        <time>2016-06-03T10:26:39Z</time>
      </trkpt>
      <trkpt lat="44.31208" lon="3.81447">
        <ele>1337.61</ele>
        <time>2016-06-03T10:26:49Z</time>
      </trkpt>
      <trkpt lat="44.31204" lon="3.8145">
        <ele>1337.42</ele>
        <time>2016-06-03T10:27:11Z</time>
      </trkpt>
      <trkpt lat="44.31198" lon="3.81459">
        <ele>1336.81</ele>
        <time>2016-06-03T10:27:21Z</time>
      </trkpt>
      <trkpt lat="44.3119" lon="3.81463">
        <ele>1336.43</ele>
        <time>2016-06-03T10:27:35Z</time>
      </trkpt>
      <trkpt lat="44.31195" lon="3.8146">
        <ele>1336.7</ele>
        <time>2016-06-03T10:30:16Z</time>
      </trkpt>
      <trkpt lat="44.31194" lon="3.81453">
        <ele>1337.05</ele>
        <time>2016-06-03T10:44:32Z</time>
      </trkpt>
      <trkpt lat="44.31193" lon="3.81459">
        <ele>1336.72</ele>
        <time>2016-06-03T10:51:57Z</time>
      </trkpt>
      <trkpt lat="44.31196" lon="3.81455">
        <ele>1337.02</ele>
        <time>2016-06-03T10:56:11Z</time>
      </trkpt>
      <trkpt lat="44.31204" lon="3.81449">
        <ele>1337.49</ele>
        <time>2016-06-03T10:59:18Z</time>
      </trkpt>
      <trkpt lat="44.31199" lon="3.81453">
        <ele>1337.17</ele>
        <time>2016-06-03T11:01:16Z</time>
      </trkpt>
      <trkpt lat="44.31201" lon="3.81459">
        <ele>1336.85</ele>
        <time>2016-06-03T11:03:07Z</time>
      </trkpt>
      <trkpt lat="44.31204" lon="3.8146">
        <ele>1336.8</ele>
        <time>2016-06-03T11:03:20Z</time>
      </trkpt>
      <trkpt lat="44.31205" lon="3.81468">
        <ele>1336.11</ele>
        <time>2016-06-03T11:04:07Z</time>
      </trkpt>
      <trkpt lat="44.31212" lon="3.81472">
        <ele>1335.57</ele>
        <time>2016-06-03T11:04:18Z</time>
      </trkpt>
      <trkpt lat="44.31219" lon="3.81476">
        <ele>1334.85</ele>
        <time>2016-06-03T11:04:37Z</time>
      </trkpt>
      <trkpt lat="44.31229" lon="3.81481">
        <ele>1333.42</ele>
        <time>2016-06-03T11:04:47Z</time>
      </trkpt>
      <trkpt lat="44.31237" lon="3.81485">
        <ele>1332.01</ele>
        <time>2016-06-03T11:04:58Z</time>
      </trkpt>
      <trkpt lat="44.3125" lon="3.81489">
        <ele>1329.9</ele>
        <time>2016-06-03T11:05:09Z</time>
      </trkpt>
      <trkpt lat="44.31258" lon="3.8149">
        <ele>1328.44</ele>
        <time>2016-06-03T11:05:19Z</time>
      </trkpt>
      <trkpt lat="44.31263" lon="3.81501">
        <ele>1325.59</ele>
        <time>2016-06-03T11:05:29Z</time>
      </trkpt>
      <trkpt lat="44.31273" lon="3.81503">
        <ele>1323.13</ele>
        <time>2016-06-03T11:05:39Z</time>
      </trkpt>
      <trkpt lat="44.31279" lon="3.81506">
        <ele>1321.16</ele>
        <time>2016-06-03T11:06:01Z</time>
      </trkpt>
      <trkpt lat="44.31288" lon="3.81523">
        <ele>1315.95</ele>
        <time>2016-06-03T11:06:12Z</time>
      </trkpt>
      <trkpt lat="44.31296" lon="3.81528">
        <ele>1313.04</ele>
        <time>2016-06-03T11:06:23Z</time>
      </trkpt>
      <trkpt lat="44.31305" lon="3.81535">
        <ele>1309.97</ele>
        <time>2016-06-03T11:06:33Z</time>
      </trkpt>
      <trkpt lat="44.31313" lon="3.81538">
        <ele>1307.75</ele>
        <time>2016-06-03T11:06:43Z</time>
      </trkpt>
      <trkpt lat="44.31322" lon="3.81558">
        <ele>1302.93</ele>
        <time>2016-06-03T11:06:54Z</time>
      </trkpt>
      <trkpt lat="44.3133" lon="3.81563">
        <ele>1300.9</ele>
        <time>2016-06-03T11:07:04Z</time>
      </trkpt>
      <trkpt lat="44.31329" lon="3.8157">
        <ele>1300.11</ele>
        <time>2016-06-03T11:07:16Z</time>
      </trkpt>
      <trkpt lat="44.31325" lon="3.81566">
        <ele>1301.36</ele>
        <time>2016-06-03T11:07:27Z</time>
      </trkpt>
      <trkpt lat="44.31319" lon="3.8157">
        <ele>1301.75</ele>
        <time>2016-06-03T11:07:37Z</time>
      </trkpt>
      <trkpt lat="44.31326" lon="3.81566">
        <ele>1301.14</ele>
        <time>2016-06-03T11:07:48Z</time>
      </trkpt>
      <trkpt lat="44.31319" lon="3.81569">
        <ele>1302</ele>
        <time>2016-06-03T11:08:14Z</time>
      </trkpt>
      <trkpt lat="44.31295" lon="3.81589">
        <ele>1303.04</ele>
        <time>2016-06-03T11:08:24Z</time>
      </trkpt>
      <trkpt lat="44.31282" lon="3.8159">
        <ele>1304.61</ele>
        <time>2016-06-03T11:08:39Z</time>
      </trkpt>
      <trkpt lat="44.31269" lon="3.81594">
        <ele>1305.53</ele>
        <time>2016-06-03T11:08:50Z</time>
      </trkpt>
      <trkpt lat="44.31259" lon="3.81599">
        <ele>1305.66</ele>
        <time>2016-06-03T11:09:00Z</time>
      </trkpt>
      <trkpt lat="44.31251" lon="3.81598">
        <ele>1306.39</ele>
        <time>2016-06-03T11:09:10Z</time>
      </trkpt>
      <trkpt lat="44.31238" lon="3.81599">
        <ele>1307.1</ele>
        <time>2016-06-03T11:09:21Z</time>
      </trkpt>
      <trkpt lat="44.31217" lon="3.816">
        <ele>1307.72</ele>
        <time>2016-06-03T11:09:32Z</time>
      </trkpt>
      <trkpt lat="44.31208" lon="3.81606">
        <ele>1306.8</ele>
        <time>2016-06-03T11:09:43Z</time>
      </trkpt>
      <trkpt lat="44.31203" lon="3.81615">
        <ele>1305.15</ele>
        <time>2016-06-03T11:09:53Z</time>
      </trkpt>
      <trkpt lat="44.31183" lon="3.81617">
        <ele>1304.71</ele>
        <time>2016-06-03T11:10:04Z</time>
      </trkpt>
      <trkpt lat="44.31174" lon="3.81622">
        <ele>1303.55</ele>
        <time>2016-06-03T11:10:14Z</time>
      </trkpt>
      <trkpt lat="44.31161" lon="3.81623">
        <ele>1302.77</ele>
        <time>2016-06-03T11:10:25Z</time>
      </trkpt>
      <trkpt lat="44.31148" lon="3.81616">
        <ele>1303.3</ele>
        <time>2016-06-03T11:10:35Z</time>
      </trkpt>
      <trkpt lat="44.31137" lon="3.81621">
        <ele>1301.63</ele>
        <time>2016-06-03T11:10:46Z</time>
      </trkpt>
      <trkpt lat="44.31128" lon="3.81615">
        <ele>1301.82</ele>
        <time>2016-06-03T11:10:56Z</time>
      </trkpt>
      <trkpt lat="44.31115" lon="3.81616">
        <ele>1300.42</ele>
        <time>2016-06-03T11:11:07Z</time>
      </trkpt>
      <trkpt lat="44.31103" lon="3.81616">
        <ele>1299.28</ele>
        <time>2016-06-03T11:11:17Z</time>
      </trkpt>
      <trkpt lat="44.31093" lon="3.81614">
        <ele>1298.61</ele>
        <time>2016-06-03T11:11:27Z</time>
      </trkpt>
      <trkpt lat="44.31084" lon="3.81611">
        <ele>1298.05</ele>
        <time>2016-06-03T11:11:38Z</time>
      </trkpt>
      <trkpt lat="44.31071" lon="3.81604">
        <ele>1297.6</ele>
        <time>2016-06-03T11:11:48Z</time>
      </trkpt>
      <trkpt lat="44.31058" lon="3.81604">
        <ele>1296.15</ele>
        <time>2016-06-03T11:11:58Z</time>
      </trkpt>
      <trkpt lat="44.31046" lon="3.81604">
        <ele>1294.91</ele>
        <time>2016-06-03T11:12:09Z</time>
      </trkpt>
      <trkpt lat="44.31041" lon="3.81602">
        <ele>1294.55</ele>
        <time>2016-06-03T11:12:19Z</time>
      </trkpt>
      <trkpt lat="44.31022" lon="3.81599">
        <ele>1292.96</ele>
        <time>2016-06-03T11:12:30Z</time>
      </trkpt>
      <trkpt lat="44.3101" lon="3.8159">
        <ele>1292.92</ele>
        <time>2016-06-03T11:12:42Z</time>
      </trkpt>
      <trkpt lat="44.30994" lon="3.81583">
        <ele>1292.54</ele>
        <time>2016-06-03T11:12:52Z</time>
      </trkpt>
      <trkpt lat="44.30982" lon="3.81584">
        <ele>1291.29</ele>
        <time>2016-06-03T11:13:03Z</time>
      </trkpt>
      <trkpt lat="44.30981" lon="3.81572">
        <ele>1293.2</ele>
        <time>2016-06-03T11:13:29Z</time>
      </trkpt>
      <trkpt lat="44.30958" lon="3.81575">
        <ele>1290.58</ele>
        <time>2016-06-03T11:13:40Z</time>
      </trkpt>
      <trkpt lat="44.30954" lon="3.8158">
        <ele>1289.39</ele>
        <time>2016-06-03T11:13:50Z</time>
      </trkpt>
      <trkpt lat="44.3094" lon="3.81575">
        <ele>1288.92</ele>
        <time>2016-06-03T11:14:01Z</time>
      </trkpt>
      <trkpt lat="44.30926" lon="3.81578">
        <ele>1287.41</ele>
        <time>2016-06-03T11:14:12Z</time>
      </trkpt>
      <trkpt lat="44.30915" lon="3.81582">
        <ele>1286.1</ele>
        <time>2016-06-03T11:14:22Z</time>
      </trkpt>
      <trkpt lat="44.30904" lon="3.81575">
        <ele>1286.25</ele>
        <time>2016-06-03T11:14:33Z</time>
      </trkpt>
      <trkpt lat="44.30895" lon="3.81568">
        <ele>1286.45</ele>
        <time>2016-06-03T11:14:44Z</time>
      </trkpt>
      <trkpt lat="44.3088" lon="3.81555">
        <ele>1286.18</ele>
        <time>2016-06-03T11:14:55Z</time>
      </trkpt>
      <trkpt lat="44.3087" lon="3.81547">
        <ele>1285.4</ele>
        <time>2016-06-03T11:15:06Z</time>
      </trkpt>
      <trkpt lat="44.30855" lon="3.81556">
        <ele>1283.78</ele>
        <time>2016-06-03T11:15:16Z</time>
      </trkpt>
      <trkpt lat="44.30847" lon="3.81542">
        <ele>1282.91</ele>
        <time>2016-06-03T11:15:26Z</time>
      </trkpt>
      <trkpt lat="44.30835" lon="3.81548">
        <ele>1281.96</ele>
        <time>2016-06-03T11:15:37Z</time>
      </trkpt>
      <trkpt lat="44.30824" lon="3.81534">
        <ele>1280.27</ele>
        <time>2016-06-03T11:15:48Z</time>
      </trkpt>
      <trkpt lat="44.30814" lon="3.81521">
        <ele>1278.38</ele>
        <time>2016-06-03T11:15:58Z</time>
      </trkpt>
      <trkpt lat="44.30802" lon="3.81515">
        <ele>1276.81</ele>
        <time>2016-06-03T11:16:08Z</time>
      </trkpt>
      <trkpt lat="44.30794" lon="3.81514">
        <ele>1276.12</ele>
        <time>2016-06-03T11:16:18Z</time>
      </trkpt>
      <trkpt lat="44.30787" lon="3.81519">
        <ele>1276.2</ele>
        <time>2016-06-03T11:16:32Z</time>
      </trkpt>
      <trkpt lat="44.30774" lon="3.81525">
        <ele>1276.17</ele>
        <time>2016-06-03T11:16:42Z</time>
      </trkpt>
      <trkpt lat="44.30759" lon="3.81526">
        <ele>1275.93</ele>
        <time>2016-06-03T11:16:53Z</time>
      </trkpt>
      <trkpt lat="44.30753" lon="3.81533">
        <ele>1276.68</ele>
        <time>2016-06-03T11:17:04Z</time>
      </trkpt>
      <trkpt lat="44.3074" lon="3.81533">
        <ele>1276.82</ele>
        <time>2016-06-03T11:17:14Z</time>
      </trkpt>
      <trkpt lat="44.30734" lon="3.81537">
        <ele>1277.31</ele>
        <time>2016-06-03T11:17:24Z</time>
      </trkpt>
      <trkpt lat="44.30735" lon="3.81543">
        <ele>1277.83</ele>
        <time>2016-06-03T11:19:53Z</time>
      </trkpt>
      <trkpt lat="44.3072" lon="3.81541">
        <ele>1278.34</ele>
        <time>2016-06-03T11:20:03Z</time>
      </trkpt>
      <trkpt lat="44.3071" lon="3.81555">
        <ele>1279.62</ele>
        <time>2016-06-03T11:20:14Z</time>
      </trkpt>
      <trkpt lat="44.30703" lon="3.81553">
        <ele>1279.97</ele>
        <time>2016-06-03T11:20:26Z</time>
      </trkpt>
      <trkpt lat="44.30696" lon="3.81554">
        <ele>1280.43</ele>
        <time>2016-06-03T11:20:36Z</time>
      </trkpt>
      <trkpt lat="44.30689" lon="3.81553">
        <ele>1280.92</ele>
        <time>2016-06-03T11:20:47Z</time>
      </trkpt>
      <trkpt lat="44.3068" lon="3.81554">
        <ele>1281.56</ele>
        <time>2016-06-03T11:20:57Z</time>
      </trkpt>
      <trkpt lat="44.30674" lon="3.81557">
        <ele>1282.01</ele>
        <time>2016-06-03T11:21:07Z</time>
      </trkpt>
      <trkpt lat="44.30667" lon="3.81558">
        <ele>1282.43</ele>
        <time>2016-06-03T11:21:19Z</time>
      </trkpt>
      <trkpt lat="44.30659" lon="3.8156">
        <ele>1283.09</ele>
        <time>2016-06-03T11:21:36Z</time>
      </trkpt>
      <trkpt lat="44.30649" lon="3.81555">
        <ele>1284.19</ele>
        <time>2016-06-03T11:21:46Z</time>
      </trkpt>
      <trkpt lat="44.30639" lon="3.81559">
        <ele>1285.39</ele>
        <time>2016-06-03T11:21:56Z</time>
      </trkpt>
      <trkpt lat="44.30634" lon="3.81561">
        <ele>1285.94</ele>
        <time>2016-06-03T11:22:08Z</time>
      </trkpt>
      <trkpt lat="44.30624" lon="3.81561">
        <ele>1287.23</ele>
        <time>2016-06-03T11:22:18Z</time>
      </trkpt>
      <trkpt lat="44.30615" lon="3.8156">
        <ele>1288.3</ele>
        <time>2016-06-03T11:22:29Z</time>
      </trkpt>
      <trkpt lat="44.30605" lon="3.81569">
        <ele>1289.36</ele>
        <time>2016-06-03T11:22:39Z</time>
      </trkpt>
      <trkpt lat="44.30595" lon="3.81569">
        <ele>1290.13</ele>
        <time>2016-06-03T11:22:50Z</time>
      </trkpt>
      <trkpt lat="44.30589" lon="3.81567">
        <ele>1290.45</ele>
        <time>2016-06-03T11:23:00Z</time>
      </trkpt>
      <trkpt lat="44.30579" lon="3.81572">
        <ele>1290.6</ele>
        <time>2016-06-03T11:23:11Z</time>
      </trkpt>
      <trkpt lat="44.30568" lon="3.81579">
        <ele>1290.31</ele>
        <time>2016-06-03T11:23:22Z</time>
      </trkpt>
      <trkpt lat="44.30558" lon="3.81577">
        <ele>1290.04</ele>
        <time>2016-06-03T11:23:33Z</time>
      </trkpt>
      <trkpt lat="44.30549" lon="3.81585">
        <ele>1289.33</ele>
        <time>2016-06-03T11:23:43Z</time>
      </trkpt>
      <trkpt lat="44.3054" lon="3.81592">
        <ele>1288.3</ele>
        <time>2016-06-03T11:23:53Z</time>
      </trkpt>
      <trkpt lat="44.30527" lon="3.81591">
        <ele>1287.51</ele>
        <time>2016-06-03T11:24:51Z</time>
      </trkpt>
      <trkpt lat="44.30519" lon="3.81601">
        <ele>1286.02</ele>
        <time>2016-06-03T11:26:11Z</time>
      </trkpt>
      <trkpt lat="44.30508" lon="3.81609">
        <ele>1284.12</ele>
        <time>2016-06-03T11:26:21Z</time>
      </trkpt>
      <trkpt lat="44.305" lon="3.81613">
        <ele>1282.93</ele>
        <time>2016-06-03T11:26:31Z</time>
      </trkpt>
      <trkpt lat="44.30491" lon="3.81613">
        <ele>1281.97</ele>
        <time>2016-06-03T11:26:42Z</time>
      </trkpt>
      <trkpt lat="44.30486" lon="3.81618">
        <ele>1280.89</ele>
        <time>2016-06-03T11:26:52Z</time>
      </trkpt>
      <trkpt lat="44.30478" lon="3.81614">
        <ele>1280.33</ele>
        <time>2016-06-03T11:27:02Z</time>
      </trkpt>
      <trkpt lat="44.30467" lon="3.81614">
        <ele>1278.98</ele>
        <time>2016-06-03T11:27:13Z</time>
      </trkpt>
      <trkpt lat="44.3046" lon="3.81618">
        <ele>1277.55</ele>
        <time>2016-06-03T11:27:24Z</time>
      </trkpt>
      <trkpt lat="44.30452" lon="3.81617">
        <ele>1276.38</ele>
        <time>2016-06-03T11:27:34Z</time>
      </trkpt>
      <trkpt lat="44.30442" lon="3.81614">
        <ele>1274.96</ele>
        <time>2016-06-03T11:27:45Z</time>
      </trkpt>
      <trkpt lat="44.30438" lon="3.81618">
        <ele>1274.11</ele>
        <time>2016-06-03T11:28:27Z</time>
      </trkpt>
      <trkpt lat="44.30421" lon="3.81609">
        <ele>1271.46</ele>
        <time>2016-06-03T11:28:38Z</time>
      </trkpt>
      <trkpt lat="44.30404" lon="3.81601">
        <ele>1268.24</ele>
        <time>2016-06-03T11:28:48Z</time>
      </trkpt>
      <trkpt lat="44.30391" lon="3.81603">
        <ele>1265.47</ele>
        <time>2016-06-03T11:28:58Z</time>
      </trkpt>
      <trkpt lat="44.30378" lon="3.81591">
        <ele>1262.65</ele>
        <time>2016-06-03T11:29:09Z</time>
      </trkpt>
      <trkpt lat="44.30367" lon="3.81588">
        <ele>1260.18</ele>
        <time>2016-06-03T11:29:20Z</time>
      </trkpt>
      <trkpt lat="44.30358" lon="3.8159">
        <ele>1258.5</ele>
        <time>2016-06-03T11:29:30Z</time>
      </trkpt>
      <trkpt lat="44.30348" lon="3.81574">
        <ele>1256.28</ele>
        <time>2016-06-03T11:29:40Z</time>
      </trkpt>
      <trkpt lat="44.30334" lon="3.81567">
        <ele>1253.81</ele>
        <time>2016-06-03T11:29:50Z</time>
      </trkpt>
      <trkpt lat="44.30329" lon="3.81565">
        <ele>1252.97</ele>
        <time>2016-06-03T11:30:01Z</time>
      </trkpt>
      <trkpt lat="44.30333" lon="3.81563">
        <ele>1253.52</ele>
        <time>2016-06-03T11:30:22Z</time>
      </trkpt>
      <trkpt lat="44.30334" lon="3.81556">
        <ele>1253.22</ele>
        <time>2016-06-03T11:30:44Z</time>
      </trkpt>
      <trkpt lat="44.30333" lon="3.81568">
        <ele>1253.72</ele>
        <time>2016-06-03T11:30:56Z</time>
      </trkpt>
      <trkpt lat="44.30328" lon="3.81563">
        <ele>1252.75</ele>
        <time>2016-06-03T11:32:47Z</time>
      </trkpt>
      <trkpt lat="44.30307" lon="3.81553">
        <ele>1249.77</ele>
        <time>2016-06-03T11:32:58Z</time>
      </trkpt>
      <trkpt lat="44.3029" lon="3.81553">
        <ele>1247.83</ele>
        <time>2016-06-03T11:33:08Z</time>
      </trkpt>
      <trkpt lat="44.30281" lon="3.81544">
        <ele>1246.43</ele>
        <time>2016-06-03T11:33:19Z</time>
      </trkpt>
      <trkpt lat="44.30268" lon="3.81542">
        <ele>1244.87</ele>
        <time>2016-06-03T11:33:29Z</time>
      </trkpt>
      <trkpt lat="44.30259" lon="3.81543">
        <ele>1243.98</ele>
        <time>2016-06-03T11:33:39Z</time>
      </trkpt>
      <trkpt lat="44.30246" lon="3.81533">
        <ele>1241.72</ele>
        <time>2016-06-03T11:33:50Z</time>
      </trkpt>
      <trkpt lat="44.30232" lon="3.81535">
        <ele>1239.98</ele>
        <time>2016-06-03T11:34:01Z</time>
      </trkpt>
      <trkpt lat="44.30223" lon="3.8153">
        <ele>1238.23</ele>
        <time>2016-06-03T11:34:11Z</time>
      </trkpt>
      <trkpt lat="44.30221" lon="3.81509">
        <ele>1235.99</ele>
        <time>2016-06-03T11:34:21Z</time>
      </trkpt>
      <trkpt lat="44.30216" lon="3.81496">
        <ele>1233.9</ele>
        <time>2016-06-03T11:34:32Z</time>
      </trkpt>
      <trkpt lat="44.3021" lon="3.8149">
        <ele>1232.21</ele>
        <time>2016-06-03T11:34:43Z</time>
      </trkpt>
      <trkpt lat="44.30198" lon="3.81481">
        <ele>1229.6</ele>
        <time>2016-06-03T11:35:37Z</time>
      </trkpt>
      <trkpt lat="44.3018" lon="3.81458">
        <ele>1224.9</ele>
        <time>2016-06-03T11:36:06Z</time>
      </trkpt>
      <trkpt lat="44.3016" lon="3.81427">
        <ele>1219</ele>
        <time>2016-06-03T11:36:16Z</time>
      </trkpt>
      <trkpt lat="44.30139" lon="3.81382">
        <ele>1209.83</ele>
        <time>2016-06-03T11:36:27Z</time>
      </trkpt>
      <trkpt lat="44.30124" lon="3.81369">
        <ele>1206.87</ele>
        <time>2016-06-03T11:36:37Z</time>
      </trkpt>
      <trkpt lat="44.30118" lon="3.81368">
        <ele>1206.41</ele>
        <time>2016-06-03T11:36:47Z</time>
      </trkpt>
      <trkpt lat="44.3011" lon="3.81366">
        <ele>1205.61</ele>
        <time>2016-06-03T11:36:58Z</time>
      </trkpt>
      <trkpt lat="44.30104" lon="3.81355">
        <ele>1203.47</ele>
        <time>2016-06-03T11:37:08Z</time>
      </trkpt>
      <trkpt lat="44.30093" lon="3.81337">
        <ele>1199.71</ele>
        <time>2016-06-03T11:37:18Z</time>
      </trkpt>
      <trkpt lat="44.30087" lon="3.8134">
        <ele>1199.51</ele>
        <time>2016-06-03T11:38:00Z</time>
      </trkpt>
      <trkpt lat="44.3007" lon="3.81332">
        <ele>1195.41</ele>
        <time>2016-06-03T11:38:11Z</time>
      </trkpt>
      <trkpt lat="44.30068" lon="3.81325">
        <ele>1193.83</ele>
        <time>2016-06-03T11:38:22Z</time>
      </trkpt>
      <trkpt lat="44.30052" lon="3.81309">
        <ele>1187.33</ele>
        <time>2016-06-03T11:38:33Z</time>
      </trkpt>
      <trkpt lat="44.30053" lon="3.813">
        <ele>1186.07</ele>
        <time>2016-06-03T11:38:44Z</time>
      </trkpt>
      <trkpt lat="44.30044" lon="3.8128">
        <ele>1180.24</ele>
        <time>2016-06-03T11:38:55Z</time>
      </trkpt>
      <trkpt lat="44.30044" lon="3.81274">
        <ele>1179.23</ele>
        <time>2016-06-03T11:39:10Z</time>
      </trkpt>
      <trkpt lat="44.3004" lon="3.81266">
        <ele>1176.79</ele>
        <time>2016-06-03T11:39:47Z</time>
      </trkpt>
      <trkpt lat="44.30038" lon="3.81241">
        <ele>1171.52</ele>
        <time>2016-06-03T11:39:58Z</time>
      </trkpt>
      <trkpt lat="44.30042" lon="3.81221">
        <ele>1168.81</ele>
        <time>2016-06-03T11:40:08Z</time>
      </trkpt>
      <trkpt lat="44.30034" lon="3.81187">
        <ele>1160.13</ele>
        <time>2016-06-03T11:40:18Z</time>
      </trkpt>
      <trkpt lat="44.30036" lon="3.81172">
        <ele>1157.45</ele>
        <time>2016-06-03T11:40:29Z</time>
      </trkpt>
      <trkpt lat="44.30037" lon="3.81157">
        <ele>1154.51</ele>
        <time>2016-06-03T11:40:39Z</time>
      </trkpt>
      <trkpt lat="44.3004" lon="3.81147">
        <ele>1152.97</ele>
        <time>2016-06-03T11:40:50Z</time>
      </trkpt>
      <trkpt lat="44.30038" lon="3.8114">
        <ele>1150.91</ele>
        <time>2016-06-03T11:41:01Z</time>
      </trkpt>
      <trkpt lat="44.30037" lon="3.81131">
        <ele>1148.56</ele>
        <time>2016-06-03T11:41:12Z</time>
      </trkpt>
      <trkpt lat="44.30039" lon="3.81123">
        <ele>1147.19</ele>
        <time>2016-06-03T11:41:23Z</time>
      </trkpt>
      <trkpt lat="44.30041" lon="3.81111">
        <ele>1144.7</ele>
        <time>2016-06-03T11:41:34Z</time>
      </trkpt>
      <trkpt lat="44.3004" lon="3.81105">
        <ele>1143.07</ele>
        <time>2016-06-03T11:42:08Z</time>
      </trkpt>
      <trkpt lat="44.30036" lon="3.81089">
        <ele>1138.86</ele>
        <time>2016-06-03T11:42:19Z</time>
      </trkpt>
      <trkpt lat="44.30034" lon="3.81079">
        <ele>1136.38</ele>
        <time>2016-06-03T11:42:29Z</time>
      </trkpt>
      <trkpt lat="44.30031" lon="3.81068">
        <ele>1133.75</ele>
        <time>2016-06-03T11:42:57Z</time>
      </trkpt>
      <trkpt lat="44.30025" lon="3.8105">
        <ele>1129.2</ele>
        <time>2016-06-03T11:43:08Z</time>
      </trkpt>
      <trkpt lat="44.30015" lon="3.81034">
        <ele>1124.91</ele>
        <time>2016-06-03T11:43:18Z</time>
      </trkpt>
      <trkpt lat="44.30012" lon="3.81021">
        <ele>1122</ele>
        <time>2016-06-03T11:43:29Z</time>
      </trkpt>
      <trkpt lat="44.30011" lon="3.81008">
        <ele>1119.72</ele>
        <time>2016-06-03T11:43:39Z</time>
      </trkpt>
      <trkpt lat="44.30008" lon="3.80998">
        <ele>1117.69</ele>
        <time>2016-06-03T11:43:49Z</time>
      </trkpt>
      <trkpt lat="44.3" lon="3.80985">
        <ele>1114.77</ele>
        <time>2016-06-03T11:43:59Z</time>
      </trkpt>
      <trkpt lat="44.30006" lon="3.80985">
        <ele>1115.45</ele>
        <time>2016-06-03T11:44:14Z</time>
      </trkpt>
      <trkpt lat="44.29998" lon="3.80975">
        <ele>1113.11</ele>
        <time>2016-06-03T11:44:43Z</time>
      </trkpt>
      <trkpt lat="44.29994" lon="3.80961">
        <ele>1110.69</ele>
        <time>2016-06-03T11:44:53Z</time>
      </trkpt>
      <trkpt lat="44.2999" lon="3.80942">
        <ele>1107.57</ele>
        <time>2016-06-03T11:45:04Z</time>
      </trkpt>
      <trkpt lat="44.29983" lon="3.80933">
        <ele>1105.11</ele>
        <time>2016-06-03T11:45:14Z</time>
      </trkpt>
      <trkpt lat="44.29973" lon="3.80926">
        <ele>1102.15</ele>
        <time>2016-06-03T11:45:25Z</time>
      </trkpt>
      <trkpt lat="44.29963" lon="3.80915">
        <ele>1098.36</ele>
        <time>2016-06-03T11:45:36Z</time>
      </trkpt>
      <trkpt lat="44.29958" lon="3.80914">
        <ele>1096.83</ele>
        <time>2016-06-03T11:45:46Z</time>
      </trkpt>
      <trkpt lat="44.29952" lon="3.80921">
        <ele>1096.11</ele>
        <time>2016-06-03T11:51:02Z</time>
      </trkpt>
      <trkpt lat="44.2993" lon="3.8095">
        <ele>1092.85</ele>
        <time>2016-06-03T11:51:12Z</time>
      </trkpt>
      <trkpt lat="44.29915" lon="3.80956">
        <ele>1088.86</ele>
        <time>2016-06-03T11:51:22Z</time>
      </trkpt>
      <trkpt lat="44.29914" lon="3.80975">
        <ele>1090.17</ele>
        <time>2016-06-03T11:51:39Z</time>
      </trkpt>
      <trkpt lat="44.29918" lon="3.80979">
        <ele>1091.86</ele>
        <time>2016-06-03T11:52:15Z</time>
      </trkpt>
      <trkpt lat="44.2992" lon="3.80989">
        <ele>1093.37</ele>
        <time>2016-06-03T11:53:51Z</time>
      </trkpt>
      <trkpt lat="44.29909" lon="3.80977">
        <ele>1088.62</ele>
        <time>2016-06-03T11:54:01Z</time>
      </trkpt>
      <trkpt lat="44.29904" lon="3.80975">
        <ele>1086.7</ele>
        <time>2016-06-03T11:54:16Z</time>
      </trkpt>
      <trkpt lat="44.29897" lon="3.80974">
        <ele>1084.26</ele>
        <time>2016-06-03T11:54:27Z</time>
      </trkpt>
      <trkpt lat="44.29885" lon="3.80975">
        <ele>1079.69</ele>
        <time>2016-06-03T11:54:38Z</time>
      </trkpt>
      <trkpt lat="44.29877" lon="3.80978">
        <ele>1076.7</ele>
        <time>2016-06-03T11:54:49Z</time>
      </trkpt>
      <trkpt lat="44.29873" lon="3.80984">
        <ele>1075.35</ele>
        <time>2016-06-03T11:55:05Z</time>
      </trkpt>
      <trkpt lat="44.29869" lon="3.8098">
        <ele>1073.52</ele>
        <time>2016-06-03T11:55:16Z</time>
      </trkpt>
      <trkpt lat="44.2986" lon="3.80984">
        <ele>1069.81</ele>
        <time>2016-06-03T11:55:26Z</time>
      </trkpt>
      <trkpt lat="44.29853" lon="3.80982">
        <ele>1066.84</ele>
        <time>2016-06-03T11:55:37Z</time>
      </trkpt>
      <trkpt lat="44.29855" lon="3.8097">
        <ele>1067.75</ele>
        <time>2016-06-03T11:55:47Z</time>
      </trkpt>
      <trkpt lat="44.29847" lon="3.80963">
        <ele>1064.83</ele>
        <time>2016-06-03T11:55:59Z</time>
      </trkpt>
      <trkpt lat="44.29841" lon="3.8096">
        <ele>1062.89</ele>
        <time>2016-06-03T11:56:10Z</time>
      </trkpt>
      <trkpt lat="44.29837" lon="3.80963">
        <ele>1060.85</ele>
        <time>2016-06-03T11:56:24Z</time>
      </trkpt>
      <trkpt lat="44.29832" lon="3.80955">
        <ele>1059.34</ele>
        <time>2016-06-03T11:56:34Z</time>
      </trkpt>
      <trkpt lat="44.29839" lon="3.80957">
        <ele>1062.22</ele>
        <time>2016-06-03T12:02:41Z</time>
      </trkpt>
      <trkpt lat="44.29843" lon="3.80965">
        <ele>1063.26</ele>
        <time>2016-06-03T12:02:51Z</time>
      </trkpt>
      <trkpt lat="44.29849" lon="3.80973">
        <ele>1065.12</ele>
        <time>2016-06-03T12:03:01Z</time>
      </trkpt>
      <trkpt lat="44.29852" lon="3.80983">
        <ele>1066</ele>
        <time>2016-06-03T12:03:12Z</time>
      </trkpt>
      <trkpt lat="44.29856" lon="3.80979">
        <ele>1068.24</ele>
        <time>2016-06-03T12:03:34Z</time>
      </trkpt>
      <trkpt lat="44.29867" lon="3.80973">
        <ele>1072.9</ele>
        <time>2016-06-03T12:03:44Z</time>
      </trkpt>
      <trkpt lat="44.29873" lon="3.80966">
        <ele>1075.13</ele>
        <time>2016-06-03T12:04:11Z</time>
      </trkpt>
      <trkpt lat="44.29882" lon="3.80962">
        <ele>1078.27</ele>
        <time>2016-06-03T12:05:00Z</time>
      </trkpt>
      <trkpt lat="44.29885" lon="3.80983">
        <ele>1080.14</ele>
        <time>2016-06-03T12:05:10Z</time>
      </trkpt>
      <trkpt lat="44.29892" lon="3.80999">
        <ele>1083.24</ele>
        <time>2016-06-03T12:05:20Z</time>
      </trkpt>
      <trkpt lat="44.29899" lon="3.81011">
        <ele>1086.7</ele>
        <time>2016-06-03T12:05:30Z</time>
      </trkpt>
      <trkpt lat="44.29895" lon="3.81004">
        <ele>1084.88</ele>
        <time>2016-06-03T12:05:41Z</time>
      </trkpt>
      <trkpt lat="44.29901" lon="3.80985">
        <ele>1086.31</ele>
        <time>2016-06-03T12:05:51Z</time>
      </trkpt>
      <trkpt lat="44.29905" lon="3.80976">
        <ele>1087.11</ele>
        <time>2016-06-03T12:06:09Z</time>
      </trkpt>
      <trkpt lat="44.29902" lon="3.80982">
        <ele>1086.51</ele>
        <time>2016-06-03T12:07:26Z</time>
      </trkpt>
      <trkpt lat="44.29893" lon="3.81004">
        <ele>1083.97</ele>
        <time>2016-06-03T12:07:37Z</time>
      </trkpt>
      <trkpt lat="44.29889" lon="3.81016">
        <ele>1082.31</ele>
        <time>2016-06-03T12:07:47Z</time>
      </trkpt>
      <trkpt lat="44.29884" lon="3.81021">
        <ele>1080.29</ele>
        <time>2016-06-03T12:08:14Z</time>
      </trkpt>
      <trkpt lat="44.29884" lon="3.81037">
        <ele>1080.03</ele>
        <time>2016-06-03T12:08:24Z</time>
      </trkpt>
      <trkpt lat="44.29881" lon="3.81051">
        <ele>1078.57</ele>
        <time>2016-06-03T12:08:35Z</time>
      </trkpt>
      <trkpt lat="44.29882" lon="3.81064">
        <ele>1078.84</ele>
        <time>2016-06-03T12:08:53Z</time>
      </trkpt>
      <trkpt lat="44.29876" lon="3.81083">
        <ele>1077.11</ele>
        <time>2016-06-03T12:09:04Z</time>
      </trkpt>
      <trkpt lat="44.2987" lon="3.81088">
        <ele>1074.21</ele>
        <time>2016-06-03T12:09:22Z</time>
      </trkpt>
      <trkpt lat="44.29854" lon="3.81097">
        <ele>1067.98</ele>
        <time>2016-06-03T12:09:33Z</time>
      </trkpt>
      <trkpt lat="44.29852" lon="3.81104">
        <ele>1067.61</ele>
        <time>2016-06-03T12:09:49Z</time>
      </trkpt>
      <trkpt lat="44.29848" lon="3.81125">
        <ele>1069.55</ele>
        <time>2016-06-03T12:10:00Z</time>
      </trkpt>
      <trkpt lat="44.29856" lon="3.81115">
        <ele>1070.99</ele>
        <time>2016-06-03T12:10:10Z</time>
      </trkpt>
      <trkpt lat="44.29866" lon="3.81126">
        <ele>1077.16</ele>
        <time>2016-06-03T12:10:20Z</time>
      </trkpt>
      <trkpt lat="44.29858" lon="3.81129">
        <ele>1074.5</ele>
        <time>2016-06-03T12:10:31Z</time>
      </trkpt>
      <trkpt lat="44.29856" lon="3.81137">
        <ele>1075.3</ele>
        <time>2016-06-03T12:10:42Z</time>
      </trkpt>
      <trkpt lat="44.29849" lon="3.81155">
        <ele>1076.58</ele>
        <time>2016-06-03T12:11:48Z</time>
      </trkpt>
      <trkpt lat="44.29838" lon="3.8115">
        <ele>1071.47</ele>
        <time>2016-06-03T12:13:17Z</time>
      </trkpt>
      <trkpt lat="44.29826" lon="3.81156">
        <ele>1068.59</ele>
        <time>2016-06-03T12:13:27Z</time>
      </trkpt>
      <trkpt lat="44.29817" lon="3.81168">
        <ele>1068.74</ele>
        <time>2016-06-03T12:13:38Z</time>
      </trkpt>
      <trkpt lat="44.29807" lon="3.81171">
        <ele>1066.91</ele>
        <time>2016-06-03T12:13:49Z</time>
      </trkpt>
      <trkpt lat="44.29797" lon="3.81178">
        <ele>1066.05</ele>
        <time>2016-06-03T12:13:59Z</time>
      </trkpt>
      <trkpt lat="44.29788" lon="3.8118">
        <ele>1064.09</ele>
        <time>2016-06-03T12:14:09Z</time>
      </trkpt>
      <trkpt lat="44.29778" lon="3.81181">
        <ele>1061.81</ele>
        <time>2016-06-03T12:14:19Z</time>
      </trkpt>
      <trkpt lat="44.29771" lon="3.81178">
        <ele>1058.78</ele>
        <time>2016-06-03T12:14:59Z</time>
      </trkpt>
      <trkpt lat="44.29762" lon="3.81179">
        <ele>1056.83</ele>
        <time>2016-06-03T12:15:42Z</time>
      </trkpt>
      <trkpt lat="44.29746" lon="3.81186">
        <ele>1055.38</ele>
        <time>2016-06-03T12:15:52Z</time>
      </trkpt>
      <trkpt lat="44.29733" lon="3.8119">
        <ele>1054.27</ele>
        <time>2016-06-03T12:16:02Z</time>
      </trkpt>
      <trkpt lat="44.29726" lon="3.81199">
        <ele>1056.58</ele>
        <time>2016-06-03T12:16:13Z</time>
      </trkpt>
      <trkpt lat="44.29717" lon="3.81197">
        <ele>1053.41</ele>
        <time>2016-06-03T12:16:24Z</time>
      </trkpt>
      <trkpt lat="44.29706" lon="3.81198">
        <ele>1051.5</ele>
        <time>2016-06-03T12:16:34Z</time>
      </trkpt>
      <trkpt lat="44.29698" lon="3.812">
        <ele>1050.07</ele>
        <time>2016-06-03T12:16:44Z</time>
      </trkpt>
      <trkpt lat="44.29685" lon="3.81204">
        <ele>1048.22</ele>
        <time>2016-06-03T12:16:54Z</time>
      </trkpt>
      <trkpt lat="44.29682" lon="3.81209">
        <ele>1049.18</ele>
        <time>2016-06-03T12:17:04Z</time>
      </trkpt>
      <trkpt lat="44.29674" lon="3.81216">
        <ele>1049.23</ele>
        <time>2016-06-03T12:17:15Z</time>
      </trkpt>
      <trkpt lat="44.29662" lon="3.81221">
        <ele>1046.57</ele>
        <time>2016-06-03T12:17:26Z</time>
      </trkpt>
      <trkpt lat="44.29654" lon="3.81228">
        <ele>1045.76</ele>
        <time>2016-06-03T12:17:37Z</time>
      </trkpt>
      <trkpt lat="44.29643" lon="3.81231">
        <ele>1042.68</ele>
        <time>2016-06-03T12:17:48Z</time>
      </trkpt>
      <trkpt lat="44.29629" lon="3.81242">
        <ele>1039.57</ele>
        <time>2016-06-03T12:17:59Z</time>
      </trkpt>
      <trkpt lat="44.29621" lon="3.81243">
        <ele>1036.79</ele>
        <time>2016-06-03T12:18:09Z</time>
      </trkpt>
      <trkpt lat="44.29621" lon="3.81253">
        <ele>1039.05</ele>
        <time>2016-06-03T12:18:35Z</time>
      </trkpt>
      <trkpt lat="44.29607" lon="3.81274">
        <ele>1038.35</ele>
        <time>2016-06-03T12:18:46Z</time>
      </trkpt>
      <trkpt lat="44.29603" lon="3.81286">
        <ele>1039.21</ele>
        <time>2016-06-03T12:18:56Z</time>
      </trkpt>
      <trkpt lat="44.29593" lon="3.81303">
        <ele>1038.59</ele>
        <time>2016-06-03T12:19:07Z</time>
      </trkpt>
      <trkpt lat="44.2959" lon="3.81318">
        <ele>1040.26</ele>
        <time>2016-06-03T12:19:18Z</time>
      </trkpt>
      <trkpt lat="44.29584" lon="3.81338">
        <ele>1040.96</ele>
        <time>2016-06-03T12:19:29Z</time>
      </trkpt>
      <trkpt lat="44.29582" lon="3.81354">
        <ele>1042.13</ele>
        <time>2016-06-03T12:19:40Z</time>
      </trkpt>
      <trkpt lat="44.29578" lon="3.81368">
        <ele>1042.11</ele>
        <time>2016-06-03T12:19:51Z</time>
      </trkpt>
      <trkpt lat="44.29576" lon="3.81381">
        <ele>1042.17</ele>
        <time>2016-06-03T12:20:01Z</time>
      </trkpt>
      <trkpt lat="44.29572" lon="3.8139">
        <ele>1041.04</ele>
        <time>2016-06-03T12:20:11Z</time>
      </trkpt>
      <trkpt lat="44.29568" lon="3.81395">
        <ele>1039.74</ele>
        <time>2016-06-03T12:20:34Z</time>
      </trkpt>
      <trkpt lat="44.29564" lon="3.814">
        <ele>1038.5</ele>
        <time>2016-06-03T12:21:20Z</time>
      </trkpt>
      <trkpt lat="44.29557" lon="3.81412">
        <ele>1036.29</ele>
        <time>2016-06-03T12:21:30Z</time>
      </trkpt>
      <trkpt lat="44.29544" lon="3.8142">
        <ele>1030.65</ele>
        <time>2016-06-03T12:21:40Z</time>
      </trkpt>
      <trkpt lat="44.29533" lon="3.81428">
        <ele>1025.99</ele>
        <time>2016-06-03T12:21:51Z</time>
      </trkpt>
      <trkpt lat="44.2952" lon="3.81437">
        <ele>1020.82</ele>
        <time>2016-06-03T12:22:01Z</time>
      </trkpt>
      <trkpt lat="44.29514" lon="3.81452">
        <ele>1019.8</ele>
        <time>2016-06-03T12:22:12Z</time>
      </trkpt>
      <trkpt lat="44.29512" lon="3.81457">
        <ele>1019.21</ele>
        <time>2016-06-03T12:22:40Z</time>
      </trkpt>
      <trkpt lat="44.29502" lon="3.8148">
        <ele>1017.25</ele>
        <time>2016-06-03T12:22:50Z</time>
      </trkpt>
      <trkpt lat="44.29506" lon="3.81488">
        <ele>1019.58</ele>
        <time>2016-06-03T12:26:35Z</time>
      </trkpt>
      <trkpt lat="44.29492" lon="3.81496">
        <ele>1014.34</ele>
        <time>2016-06-03T12:26:45Z</time>
      </trkpt>
      <trkpt lat="44.2949" lon="3.81504">
        <ele>1013.67</ele>
        <time>2016-06-03T12:26:56Z</time>
      </trkpt>
      <trkpt lat="44.29483" lon="3.81514">
        <ele>1011.54</ele>
        <time>2016-06-03T12:27:06Z</time>
      </trkpt>
      <trkpt lat="44.29472" lon="3.81518">
        <ele>1006.8</ele>
        <time>2016-06-03T12:27:17Z</time>
      </trkpt>
      <trkpt lat="44.29462" lon="3.81526">
        <ele>1002.86</ele>
        <time>2016-06-03T12:27:28Z</time>
      </trkpt>
      <trkpt lat="44.29457" lon="3.81538">
        <ele>1000.89</ele>
        <time>2016-06-03T12:28:01Z</time>
      </trkpt>
      <trkpt lat="44.29443" lon="3.81555">
        <ele>994.72</ele>
        <time>2016-06-03T12:28:12Z</time>
      </trkpt>
      <trkpt lat="44.29437" lon="3.81569">
        <ele>991.66</ele>
        <time>2016-06-03T12:28:23Z</time>
      </trkpt>
      <trkpt lat="44.29427" lon="3.81573">
        <ele>986.7</ele>
        <time>2016-06-03T12:28:33Z</time>
      </trkpt>
      <trkpt lat="44.29421" lon="3.81571">
        <ele>984.22</ele>
        <time>2016-06-03T12:28:44Z</time>
      </trkpt>
      <trkpt lat="44.29425" lon="3.81578">
        <ele>986.08</ele>
        <time>2016-06-03T12:30:23Z</time>
      </trkpt>
      <trkpt lat="44.29419" lon="3.81597">
        <ele>983.38</ele>
        <time>2016-06-03T12:31:15Z</time>
      </trkpt>
      <trkpt lat="44.29412" lon="3.81615">
        <ele>980.29</ele>
        <time>2016-06-03T12:31:26Z</time>
      </trkpt>
      <trkpt lat="44.29408" lon="3.81598">
        <ele>978.31</ele>
        <time>2016-06-03T12:31:36Z</time>
      </trkpt>
      <trkpt lat="44.29401" lon="3.81599">
        <ele>975.07</ele>
        <time>2016-06-03T12:31:46Z</time>
      </trkpt>
      <trkpt lat="44.29395" lon="3.81609">
        <ele>972.6</ele>
        <time>2016-06-03T12:31:57Z</time>
      </trkpt>
      <trkpt lat="44.29394" lon="3.81633">
        <ele>973.05</ele>
        <time>2016-06-03T12:32:07Z</time>
      </trkpt>
      <trkpt lat="44.29395" lon="3.81642">
        <ele>973.39</ele>
        <time>2016-06-03T12:32:18Z</time>
      </trkpt>
      <trkpt lat="44.29395" lon="3.81658">
        <ele>973.89</ele>
        <time>2016-06-03T12:32:28Z</time>
      </trkpt>
      <trkpt lat="44.29395" lon="3.81674">
        <ele>973.45</ele>
        <time>2016-06-03T12:32:38Z</time>
      </trkpt>
      <trkpt lat="44.29392" lon="3.81681">
        <ele>972.12</ele>
        <time>2016-06-03T12:32:49Z</time>
      </trkpt>
      <trkpt lat="44.29386" lon="3.81697">
        <ele>969.16</ele>
        <time>2016-06-03T12:32:59Z</time>
      </trkpt>
      <trkpt lat="44.29382" lon="3.81709">
        <ele>967.1</ele>
        <time>2016-06-03T12:33:09Z</time>
      </trkpt>
      <trkpt lat="44.29379" lon="3.81729">
        <ele>964.77</ele>
        <time>2016-06-03T12:33:20Z</time>
      </trkpt>
      <trkpt lat="44.29373" lon="3.81746">
        <ele>960.86</ele>
        <time>2016-06-03T12:33:31Z</time>
      </trkpt>
      <trkpt lat="44.2936" lon="3.81758">
        <ele>954.96</ele>
        <time>2016-06-03T12:33:43Z</time>
      </trkpt>
      <trkpt lat="44.29351" lon="3.81773">
        <ele>950.45</ele>
        <time>2016-06-03T12:33:53Z</time>
      </trkpt>
      <trkpt lat="44.29345" lon="3.81786">
        <ele>947.65</ele>
        <time>2016-06-03T12:34:03Z</time>
      </trkpt>
      <trkpt lat="44.29343" lon="3.81792">
        <ele>946.58</ele>
        <time>2016-06-03T12:34:17Z</time>
      </trkpt>
      <trkpt lat="44.29333" lon="3.81797">
        <ele>943.33</ele>
        <time>2016-06-03T12:34:28Z</time>
      </trkpt>
      <trkpt lat="44.29328" lon="3.81794">
        <ele>941.92</ele>
        <time>2016-06-03T12:36:00Z</time>
      </trkpt>
      <trkpt lat="44.29316" lon="3.81796">
        <ele>937.71</ele>
        <time>2016-06-03T12:36:11Z</time>
      </trkpt>
      <trkpt lat="44.29309" lon="3.81804">
        <ele>935.43</ele>
        <time>2016-06-03T12:36:21Z</time>
      </trkpt>
      <trkpt lat="44.29304" lon="3.81809">
        <ele>933.62</ele>
        <time>2016-06-03T12:36:46Z</time>
      </trkpt>
      <trkpt lat="44.29294" lon="3.81826">
        <ele>929.41</ele>
        <time>2016-06-03T12:36:56Z</time>
      </trkpt>
      <trkpt lat="44.2929" lon="3.8183">
        <ele>928</ele>
        <time>2016-06-03T12:37:12Z</time>
      </trkpt>
      <trkpt lat="44.2927" lon="3.81843">
        <ele>921.17</ele>
        <time>2016-06-03T12:37:22Z</time>
      </trkpt>
      <trkpt lat="44.29258" lon="3.81856">
        <ele>917.3</ele>
        <time>2016-06-03T12:37:33Z</time>
      </trkpt>
      <trkpt lat="44.29245" lon="3.81863">
        <ele>914.42</ele>
        <time>2016-06-03T12:37:44Z</time>
      </trkpt>
      <trkpt lat="44.29233" lon="3.81872">
        <ele>912.35</ele>
        <time>2016-06-03T12:37:55Z</time>
      </trkpt>
      <trkpt lat="44.29223" lon="3.8188">
        <ele>911.29</ele>
        <time>2016-06-03T12:38:06Z</time>
      </trkpt>
      <trkpt lat="44.29212" lon="3.81891">
        <ele>910.55</ele>
        <time>2016-06-03T12:38:17Z</time>
      </trkpt>
      <trkpt lat="44.29203" lon="3.81896">
        <ele>910.33</ele>
        <time>2016-06-03T12:38:27Z</time>
      </trkpt>
      <trkpt lat="44.29199" lon="3.81909">
        <ele>910.14</ele>
        <time>2016-06-03T12:38:38Z</time>
      </trkpt>
      <trkpt lat="44.29188" lon="3.8191">
        <ele>910.11</ele>
        <time>2016-06-03T12:39:07Z</time>
      </trkpt>
      <trkpt lat="44.2918" lon="3.81916">
        <ele>909.83</ele>
        <time>2016-06-03T12:39:17Z</time>
      </trkpt>
      <trkpt lat="44.2917" lon="3.81927">
        <ele>908.92</ele>
        <time>2016-06-03T12:39:27Z</time>
      </trkpt>
      <trkpt lat="44.29163" lon="3.81937">
        <ele>907.79</ele>
        <time>2016-06-03T12:39:37Z</time>
      </trkpt>
      <trkpt lat="44.29156" lon="3.81946">
        <ele>906.35</ele>
        <time>2016-06-03T12:39:48Z</time>
      </trkpt>
      <trkpt lat="44.29146" lon="3.8195">
        <ele>904.84</ele>
        <time>2016-06-03T12:39:59Z</time>
      </trkpt>
      <trkpt lat="44.29142" lon="3.81951">
        <ele>904.09</ele>
        <time>2016-06-03T12:40:11Z</time>
      </trkpt>
      <trkpt lat="44.2913" lon="3.81958">
        <ele>901.66</ele>
        <time>2016-06-03T12:40:21Z</time>
      </trkpt>
      <trkpt lat="44.29119" lon="3.81962">
        <ele>899.29</ele>
        <time>2016-06-03T12:40:32Z</time>
      </trkpt>
      <trkpt lat="44.29111" lon="3.81979">
        <ele>895.87</ele>
        <time>2016-06-03T12:40:43Z</time>
      </trkpt>
      <trkpt lat="44.29104" lon="3.81982">
        <ele>894.09</ele>
        <time>2016-06-03T12:43:05Z</time>
      </trkpt>
      <trkpt lat="44.29079" lon="3.81993">
        <ele>888.01</ele>
        <time>2016-06-03T12:43:16Z</time>
      </trkpt>
      <trkpt lat="44.29071" lon="3.81999">
        <ele>885.38</ele>
        <time>2016-06-03T12:43:27Z</time>
      </trkpt>
      <trkpt lat="44.29062" lon="3.82004">
        <ele>882.75</ele>
        <time>2016-06-03T12:43:37Z</time>
      </trkpt>
      <trkpt lat="44.29056" lon="3.82015">
        <ele>880.33</ele>
        <time>2016-06-03T12:43:48Z</time>
      </trkpt>
      <trkpt lat="44.29042" lon="3.82024">
        <ele>876.16</ele>
        <time>2016-06-03T12:43:59Z</time>
      </trkpt>
      <trkpt lat="44.29033" lon="3.82033">
        <ele>873.59</ele>
        <time>2016-06-03T12:44:09Z</time>
      </trkpt>
      <trkpt lat="44.29028" lon="3.82045">
        <ele>872.19</ele>
        <time>2016-06-03T12:44:20Z</time>
      </trkpt>
      <trkpt lat="44.29021" lon="3.82052">
        <ele>870.81</ele>
        <time>2016-06-03T12:44:36Z</time>
      </trkpt>
      <trkpt lat="44.29016" lon="3.82068">
        <ele>869.28</ele>
        <time>2016-06-03T12:44:46Z</time>
      </trkpt>
      <trkpt lat="44.29004" lon="3.8208">
        <ele>866.74</ele>
        <time>2016-06-03T12:44:56Z</time>
      </trkpt>
      <trkpt lat="44.28995" lon="3.82091">
        <ele>864.63</ele>
        <time>2016-06-03T12:45:06Z</time>
      </trkpt>
      <trkpt lat="44.28985" lon="3.82105">
        <ele>861.79</ele>
        <time>2016-06-03T12:45:16Z</time>
      </trkpt>
      <trkpt lat="44.28975" lon="3.82116">
        <ele>859.54</ele>
        <time>2016-06-03T12:45:27Z</time>
      </trkpt>
      <trkpt lat="44.28976" lon="3.82122">
        <ele>858.78</ele>
        <time>2016-06-03T12:46:08Z</time>
      </trkpt>
      <trkpt lat="44.28975" lon="3.82131">
        <ele>857.5</ele>
        <time>2016-06-03T12:46:18Z</time>
      </trkpt>
      <trkpt lat="44.2897" lon="3.8214">
        <ele>856.22</ele>
        <time>2016-06-03T12:47:21Z</time>
      </trkpt>
      <trkpt lat="44.28956" lon="3.82159">
        <ele>854.46</ele>
        <time>2016-06-03T12:47:31Z</time>
      </trkpt>
      <trkpt lat="44.28949" lon="3.82171">
        <ele>854.11</ele>
        <time>2016-06-03T12:47:42Z</time>
      </trkpt>
      <trkpt lat="44.28938" lon="3.82183">
        <ele>854.4</ele>
        <time>2016-06-03T12:47:54Z</time>
      </trkpt>
      <trkpt lat="44.28929" lon="3.82193">
        <ele>854.87</ele>
        <time>2016-06-03T12:48:04Z</time>
      </trkpt>
      <trkpt lat="44.28931" lon="3.82201">
        <ele>855.45</ele>
        <time>2016-06-03T12:48:15Z</time>
      </trkpt>
      <trkpt lat="44.28932" lon="3.82211">
        <ele>856.11</ele>
        <time>2016-06-03T12:49:06Z</time>
      </trkpt>
      <trkpt lat="44.28934" lon="3.8223">
        <ele>856.95</ele>
        <time>2016-06-03T12:49:17Z</time>
      </trkpt>
      <trkpt lat="44.28935" lon="3.82238">
        <ele>856.93</ele>
        <time>2016-06-03T12:49:52Z</time>
      </trkpt>
      <trkpt lat="44.28947" lon="3.82239">
        <ele>854.73</ele>
        <time>2016-06-03T12:50:03Z</time>
      </trkpt>
      <trkpt lat="44.28952" lon="3.82243">
        <ele>853.5</ele>
        <time>2016-06-03T12:50:13Z</time>
      </trkpt>
      <trkpt lat="44.28947" lon="3.82246">
        <ele>854.5</ele>
        <time>2016-06-03T12:51:47Z</time>
      </trkpt>
      <trkpt lat="44.2894" lon="3.82263">
        <ele>855.42</ele>
        <time>2016-06-03T12:51:58Z</time>
      </trkpt>
      <trkpt lat="44.28932" lon="3.82263">
        <ele>856.91</ele>
        <time>2016-06-03T12:54:44Z</time>
      </trkpt>
      <trkpt lat="44.2893" lon="3.82241">
        <ele>857.54</ele>
        <time>2016-06-03T12:55:46Z</time>
      </trkpt>
      <trkpt lat="44.28933" lon="3.8222">
        <ele>856.56</ele>
        <time>2016-06-03T12:55:56Z</time>
      </trkpt>
      <trkpt lat="44.2893" lon="3.82203">
        <ele>855.63</ele>
        <time>2016-06-03T12:56:08Z</time>
      </trkpt>
      <trkpt lat="44.28938" lon="3.82189">
        <ele>854.64</ele>
        <time>2016-06-03T12:56:19Z</time>
      </trkpt>
      <trkpt lat="44.28942" lon="3.82179">
        <ele>854.24</ele>
        <time>2016-06-03T12:56:29Z</time>
      </trkpt>
      <trkpt lat="44.28947" lon="3.82169">
        <ele>854.14</ele>
        <time>2016-06-03T12:56:40Z</time>
      </trkpt>
      <trkpt lat="44.28957" lon="3.82158">
        <ele>854.5</ele>
        <time>2016-06-03T12:56:51Z</time>
      </trkpt>
      <trkpt lat="44.28957" lon="3.82139">
        <ele>855.83</ele>
        <time>2016-06-03T12:57:02Z</time>
      </trkpt>
      <trkpt lat="44.28952" lon="3.82131">
        <ele>856</ele>
        <time>2016-06-03T12:57:13Z</time>
      </trkpt>
      <trkpt lat="44.2895" lon="3.82122">
        <ele>856.38</ele>
        <time>2016-06-03T12:57:23Z</time>
      </trkpt>
      <trkpt lat="44.28946" lon="3.82116">
        <ele>856.1</ele>
        <time>2016-06-03T12:57:34Z</time>
      </trkpt>
      <trkpt lat="44.2894" lon="3.82101">
        <ele>855.45</ele>
        <time>2016-06-03T12:57:45Z</time>
      </trkpt>
      <trkpt lat="44.28935" lon="3.82091">
        <ele>854.52</ele>
        <time>2016-06-03T12:58:17Z</time>
      </trkpt>
      <trkpt lat="44.2893" lon="3.82076">
        <ele>853.01</ele>
        <time>2016-06-03T12:58:27Z</time>
      </trkpt>
      <trkpt lat="44.28924" lon="3.82063">
        <ele>851.04</ele>
        <time>2016-06-03T12:58:37Z</time>
      </trkpt>
      <trkpt lat="44.28918" lon="3.8205">
        <ele>849.16</ele>
        <time>2016-06-03T12:58:48Z</time>
      </trkpt>
      <trkpt lat="44.2892" lon="3.82032">
        <ele>848.75</ele>
        <time>2016-06-03T12:58:59Z</time>
      </trkpt>
      <trkpt lat="44.28921" lon="3.8202">
        <ele>848.28</ele>
        <time>2016-06-03T12:59:09Z</time>
      </trkpt>
      <trkpt lat="44.28914" lon="3.82">
        <ele>845.26</ele>
        <time>2016-06-03T12:59:19Z</time>
      </trkpt>
      <trkpt lat="44.28912" lon="3.81988">
        <ele>843.96</ele>
        <time>2016-06-03T12:59:30Z</time>
      </trkpt>
      <trkpt lat="44.28911" lon="3.81973">
        <ele>842.5</ele>
        <time>2016-06-03T12:59:40Z</time>
      </trkpt>
      <trkpt lat="44.28903" lon="3.81976">
        <ele>840.47</ele>
        <time>2016-06-03T12:59:51Z</time>
      </trkpt>
      <trkpt lat="44.28898" lon="3.81989">
        <ele>840.05</ele>
        <time>2016-06-03T13:00:01Z</time>
      </trkpt>
      <trkpt lat="44.2889" lon="3.82006">
        <ele>839.05</ele>
        <time>2016-06-03T13:00:12Z</time>
      </trkpt>
      <trkpt lat="44.28891" lon="3.82017">
        <ele>839.87</ele>
        <time>2016-06-03T13:00:22Z</time>
      </trkpt>
      <trkpt lat="44.28886" lon="3.82032">
        <ele>839.19</ele>
        <time>2016-06-03T13:01:13Z</time>
      </trkpt>
      <trkpt lat="44.28883" lon="3.82037">
        <ele>838.63</ele>
        <time>2016-06-03T13:01:59Z</time>
      </trkpt>
      <trkpt lat="44.28881" lon="3.82046">
        <ele>838.25</ele>
        <time>2016-06-03T13:02:10Z</time>
      </trkpt>
      <trkpt lat="44.28878" lon="3.82061">
        <ele>837.73</ele>
        <time>2016-06-03T13:02:20Z</time>
      </trkpt>
      <trkpt lat="44.28872" lon="3.82075">
        <ele>836.27</ele>
        <time>2016-06-03T13:02:30Z</time>
      </trkpt>
      <trkpt lat="44.28863" lon="3.82089">
        <ele>834.02</ele>
        <time>2016-06-03T13:02:43Z</time>
      </trkpt>
      <trkpt lat="44.28862" lon="3.82113">
        <ele>834.28</ele>
        <time>2016-06-03T13:02:54Z</time>
      </trkpt>
      <trkpt lat="44.28867" lon="3.82122">
        <ele>836.03</ele>
        <time>2016-06-03T13:03:28Z</time>
      </trkpt>
      <trkpt lat="44.28863" lon="3.82144">
        <ele>835.51</ele>
        <time>2016-06-03T13:03:38Z</time>
      </trkpt>
      <trkpt lat="44.28848" lon="3.82159">
        <ele>830.54</ele>
        <time>2016-06-03T13:03:49Z</time>
      </trkpt>
      <trkpt lat="44.28851" lon="3.82172">
        <ele>832.11</ele>
        <time>2016-06-03T13:03:59Z</time>
      </trkpt>
      <trkpt lat="44.28836" lon="3.82187">
        <ele>827.63</ele>
        <time>2016-06-03T13:04:09Z</time>
      </trkpt>
      <trkpt lat="44.28818" lon="3.82211">
        <ele>822.97</ele>
        <time>2016-06-03T13:04:20Z</time>
      </trkpt>
      <trkpt lat="44.2882" lon="3.82217">
        <ele>824.16</ele>
        <time>2016-06-03T13:04:31Z</time>
      </trkpt>
      <trkpt lat="44.28818" lon="3.82228">
        <ele>823.95</ele>
        <time>2016-06-03T13:04:41Z</time>
      </trkpt>
      <trkpt lat="44.2881" lon="3.82241">
        <ele>821.37</ele>
        <time>2016-06-03T13:04:51Z</time>
      </trkpt>
      <trkpt lat="44.28808" lon="3.82259">
        <ele>820.84</ele>
        <time>2016-06-03T13:05:02Z</time>
      </trkpt>
      <trkpt lat="44.28798" lon="3.82278">
        <ele>817.09</ele>
        <time>2016-06-03T13:05:13Z</time>
      </trkpt>
      <trkpt lat="44.28798" lon="3.82292">
        <ele>816.9</ele>
        <time>2016-06-03T13:05:25Z</time>
      </trkpt>
      <trkpt lat="44.288" lon="3.82307">
        <ele>817.9</ele>
        <time>2016-06-03T13:05:36Z</time>
      </trkpt>
      <trkpt lat="44.28791" lon="3.82319">
        <ele>813.65</ele>
        <time>2016-06-03T13:05:47Z</time>
      </trkpt>
      <trkpt lat="44.28793" lon="3.82339">
        <ele>814.22</ele>
        <time>2016-06-03T13:05:57Z</time>
      </trkpt>
      <trkpt lat="44.28774" lon="3.82361">
        <ele>805.61</ele>
        <time>2016-06-03T13:07:01Z</time>
      </trkpt>
      <trkpt lat="44.28736" lon="3.82421">
        <ele>791.24</ele>
        <time>2016-06-03T13:07:35Z</time>
      </trkpt>
      <trkpt lat="44.28729" lon="3.8246">
        <ele>788.22</ele>
        <time>2016-06-03T13:07:46Z</time>
      </trkpt>
      <trkpt lat="44.2873" lon="3.82475">
        <ele>788.24</ele>
        <time>2016-06-03T13:07:57Z</time>
      </trkpt>
      <trkpt lat="44.28722" lon="3.825">
        <ele>785.27</ele>
        <time>2016-06-03T13:08:08Z</time>
      </trkpt>
      <trkpt lat="44.2872" lon="3.82514">
        <ele>784.16</ele>
        <time>2016-06-03T13:08:19Z</time>
      </trkpt>
      <trkpt lat="44.28702" lon="3.82527">
        <ele>778.83</ele>
        <time>2016-06-03T13:08:29Z</time>
      </trkpt>
      <trkpt lat="44.28707" lon="3.82542">
        <ele>780.12</ele>
        <time>2016-06-03T13:08:40Z</time>
      </trkpt>
      <trkpt lat="44.28703" lon="3.82546">
        <ele>778.91</ele>
        <time>2016-06-03T13:08:55Z</time>
      </trkpt>
      <trkpt lat="44.28692" lon="3.82562">
        <ele>775.86</ele>
        <time>2016-06-03T13:09:05Z</time>
      </trkpt>
      <trkpt lat="44.28686" lon="3.82587">
        <ele>774.31</ele>
        <time>2016-06-03T13:09:16Z</time>
      </trkpt>
      <trkpt lat="44.28698" lon="3.82594">
        <ele>777.2</ele>
        <time>2016-06-03T13:09:28Z</time>
      </trkpt>
      <trkpt lat="44.28714" lon="3.82602">
        <ele>780.89</ele>
        <time>2016-06-03T13:09:39Z</time>
      </trkpt>
      <trkpt lat="44.2872" lon="3.82624">
        <ele>782.18</ele>
        <time>2016-06-03T13:09:50Z</time>
      </trkpt>
      <trkpt lat="44.28703" lon="3.82639">
        <ele>777.75</ele>
        <time>2016-06-03T13:10:00Z</time>
      </trkpt>
      <trkpt lat="44.28718" lon="3.82657">
        <ele>781.22</ele>
        <time>2016-06-03T13:10:11Z</time>
      </trkpt>
      <trkpt lat="44.28716" lon="3.82663">
        <ele>780.56</ele>
        <time>2016-06-03T13:10:47Z</time>
      </trkpt>
      <trkpt lat="44.28718" lon="3.82695">
        <ele>780.49</ele>
        <time>2016-06-03T13:10:58Z</time>
      </trkpt>
      <trkpt lat="44.28721" lon="3.82714">
        <ele>780.79</ele>
        <time>2016-06-03T13:11:08Z</time>
      </trkpt>
      <trkpt lat="44.28726" lon="3.82733">
        <ele>781.58</ele>
        <time>2016-06-03T13:11:19Z</time>
      </trkpt>
      <trkpt lat="44.28726" lon="3.8275">
        <ele>780.92</ele>
        <time>2016-06-03T13:11:30Z</time>
      </trkpt>
      <trkpt lat="44.28728" lon="3.82765">
        <ele>780.55</ele>
        <time>2016-06-03T13:11:41Z</time>
      </trkpt>
      <trkpt lat="44.28731" lon="3.82779">
        <ele>780.37</ele>
        <time>2016-06-03T13:11:52Z</time>
      </trkpt>
      <trkpt lat="44.28726" lon="3.82795">
        <ele>777.94</ele>
        <time>2016-06-03T13:12:02Z</time>
      </trkpt>
      <trkpt lat="44.28728" lon="3.82812">
        <ele>777.34</ele>
        <time>2016-06-03T13:12:12Z</time>
      </trkpt>
      <trkpt lat="44.28739" lon="3.82819">
        <ele>779.38</ele>
        <time>2016-06-03T13:12:24Z</time>
      </trkpt>
      <trkpt lat="44.28733" lon="3.82814">
        <ele>778.56</ele>
        <time>2016-06-03T13:12:56Z</time>
      </trkpt>
      <trkpt lat="44.2873" lon="3.82824">
        <ele>777.13</ele>
        <time>2016-06-03T13:13:06Z</time>
      </trkpt>
      <trkpt lat="44.28726" lon="3.82829">
        <ele>775.92</ele>
        <time>2016-06-03T13:13:17Z</time>
      </trkpt>
      <trkpt lat="44.28714" lon="3.8284">
        <ele>772.62</ele>
        <time>2016-06-03T13:13:27Z</time>
      </trkpt>
      <trkpt lat="44.28742" lon="3.82824">
        <ele>779.66</ele>
        <time>2016-06-03T13:13:38Z</time>
      </trkpt>
      <trkpt lat="44.28729" lon="3.82829">
        <ele>776.83</ele>
        <time>2016-06-03T13:13:48Z</time>
      </trkpt>
      <trkpt lat="44.28725" lon="3.82833">
        <ele>775.74</ele>
        <time>2016-06-03T13:14:49Z</time>
      </trkpt>
      <trkpt lat="44.2871" lon="3.8285">
        <ele>771.54</ele>
        <time>2016-06-03T13:15:00Z</time>
      </trkpt>
      <trkpt lat="44.28706" lon="3.82865">
        <ele>771.34</ele>
        <time>2016-06-03T13:15:39Z</time>
      </trkpt>
      <trkpt lat="44.28679" lon="3.82901">
        <ele>769.72</ele>
        <time>2016-06-03T13:16:04Z</time>
      </trkpt>
      <trkpt lat="44.28665" lon="3.82921">
        <ele>770.48</ele>
        <time>2016-06-03T13:16:16Z</time>
      </trkpt>
      <trkpt lat="44.28655" lon="3.82937">
        <ele>771.61</ele>
        <time>2016-06-03T13:16:26Z</time>
      </trkpt>
      <trkpt lat="44.28639" lon="3.82957">
        <ele>772.31</ele>
        <time>2016-06-03T13:16:36Z</time>
      </trkpt>
      <trkpt lat="44.28625" lon="3.82961">
        <ele>769.66</ele>
        <time>2016-06-03T13:16:46Z</time>
      </trkpt>
      <trkpt lat="44.28607" lon="3.82971">
        <ele>766.72</ele>
        <time>2016-06-03T13:17:01Z</time>
      </trkpt>
      <trkpt lat="44.28594" lon="3.82983">
        <ele>766.08</ele>
        <time>2016-06-03T13:17:11Z</time>
      </trkpt>
      <trkpt lat="44.28584" lon="3.82989">
        <ele>765</ele>
        <time>2016-06-03T13:17:21Z</time>
      </trkpt>
      <trkpt lat="44.28568" lon="3.82996">
        <ele>763.45</ele>
        <time>2016-06-03T13:17:56Z</time>
      </trkpt>
      <trkpt lat="44.28523" lon="3.8302">
        <ele>761.15</ele>
        <time>2016-06-03T13:18:07Z</time>
      </trkpt>
      <trkpt lat="44.28518" lon="3.83012">
        <ele>756.8</ele>
        <time>2016-06-03T13:18:18Z</time>
      </trkpt>
      <trkpt lat="44.28505" lon="3.83012">
        <ele>753.44</ele>
        <time>2016-06-03T13:18:28Z</time>
      </trkpt>
      <trkpt lat="44.28493" lon="3.83009">
        <ele>749.06</ele>
        <time>2016-06-03T13:18:39Z</time>
      </trkpt>
      <trkpt lat="44.28485" lon="3.83004">
        <ele>744.86</ele>
        <time>2016-06-03T13:18:49Z</time>
      </trkpt>
      <trkpt lat="44.28469" lon="3.83005">
        <ele>740.47</ele>
        <time>2016-06-03T13:19:00Z</time>
      </trkpt>
      <trkpt lat="44.28466" lon="3.83011">
        <ele>741.59</ele>
        <time>2016-06-03T13:19:11Z</time>
      </trkpt>
      <trkpt lat="44.28459" lon="3.83018">
        <ele>741.85</ele>
        <time>2016-06-03T13:19:21Z</time>
      </trkpt>
      <trkpt lat="44.28454" lon="3.8303">
        <ele>744.19</ele>
        <time>2016-06-03T13:19:32Z</time>
      </trkpt>
      <trkpt lat="44.28449" lon="3.83041">
        <ele>745.87</ele>
        <time>2016-06-03T13:19:42Z</time>
      </trkpt>
      <trkpt lat="44.28443" lon="3.83051">
        <ele>747.01</ele>
        <time>2016-06-03T13:19:52Z</time>
      </trkpt>
      <trkpt lat="44.28437" lon="3.8306">
        <ele>747.5</ele>
        <time>2016-06-03T13:20:03Z</time>
      </trkpt>
      <trkpt lat="44.28431" lon="3.83071">
        <ele>747.81</ele>
        <time>2016-06-03T13:20:13Z</time>
      </trkpt>
      <trkpt lat="44.28423" lon="3.83078">
        <ele>747.03</ele>
        <time>2016-06-03T13:20:23Z</time>
      </trkpt>
      <trkpt lat="44.28415" lon="3.83091">
        <ele>747.24</ele>
        <time>2016-06-03T13:20:34Z</time>
      </trkpt>
      <trkpt lat="44.28401" lon="3.83096">
        <ele>743.91</ele>
        <time>2016-06-03T13:20:45Z</time>
      </trkpt>
      <trkpt lat="44.28395" lon="3.83102">
        <ele>743.26</ele>
        <time>2016-06-03T13:20:55Z</time>
      </trkpt>
      <trkpt lat="44.28382" lon="3.83108">
        <ele>740.93</ele>
        <time>2016-06-03T13:21:06Z</time>
      </trkpt>
      <trkpt lat="44.28374" lon="3.83125">
        <ele>742.12</ele>
        <time>2016-06-03T13:21:17Z</time>
      </trkpt>
      <trkpt lat="44.28368" lon="3.83126">
        <ele>740.47</ele>
        <time>2016-06-03T13:21:27Z</time>
      </trkpt>
      <trkpt lat="44.28362" lon="3.83136">
        <ele>740.56</ele>
        <time>2016-06-03T13:21:38Z</time>
      </trkpt>
      <trkpt lat="44.28345" lon="3.83135">
        <ele>735.73</ele>
        <time>2016-06-03T13:21:48Z</time>
      </trkpt>
      <trkpt lat="44.28333" lon="3.8314">
        <ele>733.48</ele>
        <time>2016-06-03T13:21:59Z</time>
      </trkpt>
      <trkpt lat="44.28324" lon="3.83151">
        <ele>733.37</ele>
        <time>2016-06-03T13:22:09Z</time>
      </trkpt>
      <trkpt lat="44.28308" lon="3.83168">
        <ele>733.07</ele>
        <time>2016-06-03T13:22:43Z</time>
      </trkpt>
      <trkpt lat="44.28291" lon="3.83179">
        <ele>731.58</ele>
        <time>2016-06-03T13:22:54Z</time>
      </trkpt>
      <trkpt lat="44.28281" lon="3.83186">
        <ele>731.12</ele>
        <time>2016-06-03T13:23:05Z</time>
      </trkpt>
      <trkpt lat="44.28267" lon="3.83202">
        <ele>731.56</ele>
        <time>2016-06-03T13:23:16Z</time>
      </trkpt>
      <trkpt lat="44.28251" lon="3.83209">
        <ele>729.48</ele>
        <time>2016-06-03T13:23:26Z</time>
      </trkpt>
      <trkpt lat="44.2823" lon="3.83217">
        <ele>726.17</ele>
        <time>2016-06-03T13:23:36Z</time>
      </trkpt>
      <trkpt lat="44.28217" lon="3.83224">
        <ele>724.87</ele>
        <time>2016-06-03T13:23:47Z</time>
      </trkpt>
      <trkpt lat="44.28205" lon="3.83244">
        <ele>725.68</ele>
        <time>2016-06-03T13:23:58Z</time>
      </trkpt>
      <trkpt lat="44.28215" lon="3.83241">
        <ele>727.49</ele>
        <time>2016-06-03T13:24:08Z</time>
      </trkpt>
      <trkpt lat="44.28207" lon="3.8325">
        <ele>727.15</ele>
        <time>2016-06-03T13:24:19Z</time>
      </trkpt>
      <trkpt lat="44.282" lon="3.8327">
        <ele>728.49</ele>
        <time>2016-06-03T13:24:29Z</time>
      </trkpt>
      <trkpt lat="44.2819" lon="3.83276">
        <ele>727.18</ele>
        <time>2016-06-03T13:24:40Z</time>
      </trkpt>
      <trkpt lat="44.28178" lon="3.83279">
        <ele>724.77</ele>
        <time>2016-06-03T13:24:50Z</time>
      </trkpt>
      <trkpt lat="44.28172" lon="3.83288">
        <ele>724.6</ele>
        <time>2016-06-03T13:25:01Z</time>
      </trkpt>
      <trkpt lat="44.28163" lon="3.833">
        <ele>723.65</ele>
        <time>2016-06-03T13:25:11Z</time>
      </trkpt>
      <trkpt lat="44.28156" lon="3.83311">
        <ele>722.94</ele>
        <time>2016-06-03T13:25:22Z</time>
      </trkpt>
      <trkpt lat="44.2815" lon="3.83321">
        <ele>722.27</ele>
        <time>2016-06-03T13:25:32Z</time>
      </trkpt>
      <trkpt lat="44.28141" lon="3.83334">
        <ele>720.76</ele>
        <time>2016-06-03T13:25:42Z</time>
      </trkpt>
      <trkpt lat="44.28134" lon="3.83346">
        <ele>719.22</ele>
        <time>2016-06-03T13:25:53Z</time>
      </trkpt>
      <trkpt lat="44.28127" lon="3.83359">
        <ele>717.87</ele>
        <time>2016-06-03T13:26:03Z</time>
      </trkpt>
      <trkpt lat="44.28122" lon="3.83371">
        <ele>716.6</ele>
        <time>2016-06-03T13:26:13Z</time>
      </trkpt>
      <trkpt lat="44.28117" lon="3.83391">
        <ele>715.05</ele>
        <time>2016-06-03T13:26:26Z</time>
      </trkpt>
      <trkpt lat="44.28119" lon="3.83404">
        <ele>715</ele>
        <time>2016-06-03T13:26:36Z</time>
      </trkpt>
      <trkpt lat="44.28119" lon="3.83433">
        <ele>713.12</ele>
        <time>2016-06-03T13:26:47Z</time>
      </trkpt>
      <trkpt lat="44.28122" lon="3.83442">
        <ele>712.58</ele>
        <time>2016-06-03T13:26:58Z</time>
      </trkpt>
      <trkpt lat="44.28126" lon="3.83451">
        <ele>712.54</ele>
        <time>2016-06-03T13:27:08Z</time>
      </trkpt>
      <trkpt lat="44.28138" lon="3.83459">
        <ele>714.99</ele>
        <time>2016-06-03T13:27:19Z</time>
      </trkpt>
      <trkpt lat="44.28146" lon="3.83464">
        <ele>716.79</ele>
        <time>2016-06-03T13:27:30Z</time>
      </trkpt>
      <trkpt lat="44.28162" lon="3.83461">
        <ele>721.99</ele>
        <time>2016-06-03T13:27:40Z</time>
      </trkpt>
      <trkpt lat="44.28133" lon="3.83513">
        <ele>710.26</ele>
        <time>2016-06-03T13:28:25Z</time>
      </trkpt>
      <trkpt lat="44.28133" lon="3.83544">
        <ele>712.06</ele>
        <time>2016-06-03T13:28:35Z</time>
      </trkpt>
      <trkpt lat="44.28129" lon="3.83568">
        <ele>712.4</ele>
        <time>2016-06-03T13:28:45Z</time>
      </trkpt>
      <trkpt lat="44.28126" lon="3.83585">
        <ele>712.39</ele>
        <time>2016-06-03T13:28:55Z</time>
      </trkpt>
      <trkpt lat="44.28132" lon="3.83604">
        <ele>716.5</ele>
        <time>2016-06-03T13:29:06Z</time>
      </trkpt>
      <trkpt lat="44.28116" lon="3.83627">
        <ele>712.11</ele>
        <time>2016-06-03T13:29:21Z</time>
      </trkpt>
      <trkpt lat="44.2812" lon="3.83652">
        <ele>715.57</ele>
        <time>2016-06-03T13:29:32Z</time>
      </trkpt>
      <trkpt lat="44.28109" lon="3.83689">
        <ele>711.6</ele>
        <time>2016-06-03T13:30:46Z</time>
      </trkpt>
      <trkpt lat="44.28105" lon="3.8375">
        <ele>709.73</ele>
        <time>2016-06-03T13:30:57Z</time>
      </trkpt>
      <trkpt lat="44.28092" lon="3.83774">
        <ele>704.49</ele>
        <time>2016-06-03T13:31:07Z</time>
      </trkpt>
      <trkpt lat="44.28073" lon="3.83805">
        <ele>697.83</ele>
        <time>2016-06-03T13:31:18Z</time>
      </trkpt>
      <trkpt lat="44.28079" lon="3.83823">
        <ele>700.96</ele>
        <time>2016-06-03T13:31:29Z</time>
      </trkpt>
      <trkpt lat="44.28077" lon="3.83845">
        <ele>701.04</ele>
        <time>2016-06-03T13:31:39Z</time>
      </trkpt>
      <trkpt lat="44.28078" lon="3.83867">
        <ele>701.31</ele>
        <time>2016-06-03T13:31:50Z</time>
      </trkpt>
      <trkpt lat="44.28077" lon="3.83876">
        <ele>701.07</ele>
        <time>2016-06-03T13:32:01Z</time>
      </trkpt>
      <trkpt lat="44.28069" lon="3.83882">
        <ele>698.6</ele>
        <time>2016-06-03T13:32:11Z</time>
      </trkpt>
      <trkpt lat="44.28066" lon="3.83895">
        <ele>698.23</ele>
        <time>2016-06-03T13:32:21Z</time>
      </trkpt>
      <trkpt lat="44.28063" lon="3.83904">
        <ele>697.53</ele>
        <time>2016-06-03T13:32:31Z</time>
      </trkpt>
      <trkpt lat="44.28049" lon="3.83922">
        <ele>695.09</ele>
        <time>2016-06-03T13:32:42Z</time>
      </trkpt>
      <trkpt lat="44.28045" lon="3.83935">
        <ele>694.93</ele>
        <time>2016-06-03T13:32:52Z</time>
      </trkpt>
      <trkpt lat="44.28037" lon="3.83931">
        <ele>692.87</ele>
        <time>2016-06-03T13:33:10Z</time>
      </trkpt>
      <trkpt lat="44.28021" lon="3.83942">
        <ele>689.77</ele>
        <time>2016-06-03T13:33:21Z</time>
      </trkpt>
      <trkpt lat="44.28026" lon="3.83932">
        <ele>690.08</ele>
        <time>2016-06-03T13:33:44Z</time>
      </trkpt>
      <trkpt lat="44.28033" lon="3.83931">
        <ele>691.76</ele>
        <time>2016-06-03T13:33:55Z</time>
      </trkpt>
      <trkpt lat="44.28037" lon="3.83938">
        <ele>693.3</ele>
        <time>2016-06-03T13:34:14Z</time>
      </trkpt>
    </trkseg>
  </trk>
</gpx>